<?xml version="1.0" encoding="UTF-8" standalone="no" ?>
<gpx xmlns="http://www.topografix.com/GPX/1/1" xmlns:xsi="http://www.w3.org/2001/XMLSchema-instance" xsi:schemaLocation="http://www.topografix.com/GPX/1/1 http://www.topografix.com/GPX/1/1/gpx.xsd" version="1.1" creator="VisuGPX - https://www.visugpx.com">
  <metadata>
    <name>Gorges du Gueulard</name>
    <desc><![CDATA[Départ: La Vacherie, le Chaffal, cascade la Pissage, retour par le canyon des Gueulards]]></desc>
  </metadata>
  <trk>
    <name><![CDATA[BDE4-09-27 16:22:24]]></name>
    <trkseg>
      <trkpt lat="44.88369" lon="5.18412">
        <ele>936.46</ele>
        <time>2014-09-27T09:10:29Z</time>
      </trkpt>
      <trkpt lat="44.88365" lon="5.18414">
        <ele>935.98</ele>
        <time>2014-09-27T09:11:00Z</time>
      </trkpt>
      <trkpt lat="44.88343" lon="5.18422">
        <ele>934.54</ele>
        <time>2014-09-27T09:11:19Z</time>
      </trkpt>
      <trkpt lat="44.88326" lon="5.1843">
        <ele>933.58</ele>
        <time>2014-09-27T09:11:34Z</time>
      </trkpt>
      <trkpt lat="44.88319" lon="5.18428">
        <ele>932.14</ele>
        <time>2014-09-27T09:11:48Z</time>
      </trkpt>
      <trkpt lat="44.88314" lon="5.18434">
        <ele>931.17</ele>
        <time>2014-09-27T09:12:04Z</time>
      </trkpt>
      <trkpt lat="44.88307" lon="5.18441">
        <ele>930.69</ele>
        <time>2014-09-27T09:12:19Z</time>
      </trkpt>
      <trkpt lat="44.88293" lon="5.18459">
        <ele>929.25</ele>
        <time>2014-09-27T09:12:37Z</time>
      </trkpt>
      <trkpt lat="44.88287" lon="5.18473">
        <ele>929.73</ele>
        <time>2014-09-27T09:12:49Z</time>
      </trkpt>
      <trkpt lat="44.88272" lon="5.18485">
        <ele>927.33</ele>
        <time>2014-09-27T09:13:04Z</time>
      </trkpt>
      <trkpt lat="44.88257" lon="5.18494">
        <ele>925.41</ele>
        <time>2014-09-27T09:13:19Z</time>
      </trkpt>
      <trkpt lat="44.88259" lon="5.18488">
        <ele>924.45</ele>
        <time>2014-09-27T09:13:33Z</time>
      </trkpt>
      <trkpt lat="44.88262" lon="5.18482">
        <ele>923.48</ele>
        <time>2014-09-27T09:13:39Z</time>
      </trkpt>
      <trkpt lat="44.88266" lon="5.18473">
        <ele>923</ele>
        <time>2014-09-27T09:13:46Z</time>
      </trkpt>
      <trkpt lat="44.88271" lon="5.18468">
        <ele>922.52</ele>
        <time>2014-09-27T09:13:51Z</time>
      </trkpt>
      <trkpt lat="44.8828" lon="5.1845">
        <ele>921.08</ele>
        <time>2014-09-27T09:14:05Z</time>
      </trkpt>
      <trkpt lat="44.88287" lon="5.18425">
        <ele>920.12</ele>
        <time>2014-09-27T09:14:23Z</time>
      </trkpt>
      <trkpt lat="44.88291" lon="5.18403">
        <ele>918.2</ele>
        <time>2014-09-27T09:14:38Z</time>
      </trkpt>
      <trkpt lat="44.88293" lon="5.18393">
        <ele>916.75</ele>
        <time>2014-09-27T09:14:51Z</time>
      </trkpt>
      <trkpt lat="44.88292" lon="5.18374">
        <ele>914.83</ele>
        <time>2014-09-27T09:15:05Z</time>
      </trkpt>
      <trkpt lat="44.88292" lon="5.1837">
        <ele>913.87</ele>
        <time>2014-09-27T09:15:09Z</time>
      </trkpt>
      <trkpt lat="44.88291" lon="5.18354">
        <ele>912.91</ele>
        <time>2014-09-27T09:15:24Z</time>
      </trkpt>
      <trkpt lat="44.8829" lon="5.18338">
        <ele>911.47</ele>
        <time>2014-09-27T09:15:35Z</time>
      </trkpt>
      <trkpt lat="44.88275" lon="5.18333">
        <ele>910.51</ele>
        <time>2014-09-27T09:15:50Z</time>
      </trkpt>
      <trkpt lat="44.88267" lon="5.18344">
        <ele>911.47</ele>
        <time>2014-09-27T09:15:59Z</time>
      </trkpt>
      <trkpt lat="44.88253" lon="5.18359">
        <ele>911.95</ele>
        <time>2014-09-27T09:16:15Z</time>
      </trkpt>
      <trkpt lat="44.88237" lon="5.18372">
        <ele>911.47</ele>
        <time>2014-09-27T09:16:32Z</time>
      </trkpt>
      <trkpt lat="44.88225" lon="5.18388">
        <ele>910.51</ele>
        <time>2014-09-27T09:16:46Z</time>
      </trkpt>
      <trkpt lat="44.88211" lon="5.18402">
        <ele>909.54</ele>
        <time>2014-09-27T09:17:02Z</time>
      </trkpt>
      <trkpt lat="44.88201" lon="5.18412">
        <ele>909.06</ele>
        <time>2014-09-27T09:17:12Z</time>
      </trkpt>
      <trkpt lat="44.8818" lon="5.18427">
        <ele>908.58</ele>
        <time>2014-09-27T09:17:30Z</time>
      </trkpt>
      <trkpt lat="44.88164" lon="5.1844">
        <ele>908.58</ele>
        <time>2014-09-27T09:17:43Z</time>
      </trkpt>
      <trkpt lat="44.88146" lon="5.18458">
        <ele>908.58</ele>
        <time>2014-09-27T09:18:00Z</time>
      </trkpt>
      <trkpt lat="44.88132" lon="5.18476">
        <ele>909.06</ele>
        <time>2014-09-27T09:18:16Z</time>
      </trkpt>
      <trkpt lat="44.88118" lon="5.18498">
        <ele>909.54</ele>
        <time>2014-09-27T09:18:32Z</time>
      </trkpt>
      <trkpt lat="44.88108" lon="5.18509">
        <ele>909.54</ele>
        <time>2014-09-27T09:18:45Z</time>
      </trkpt>
      <trkpt lat="44.88096" lon="5.18525">
        <ele>910.51</ele>
        <time>2014-09-27T09:19:01Z</time>
      </trkpt>
      <trkpt lat="44.88088" lon="5.18535">
        <ele>911.47</ele>
        <time>2014-09-27T09:19:12Z</time>
      </trkpt>
      <trkpt lat="44.88078" lon="5.18551">
        <ele>912.43</ele>
        <time>2014-09-27T09:19:28Z</time>
      </trkpt>
      <trkpt lat="44.88076" lon="5.18557">
        <ele>912.43</ele>
        <time>2014-09-27T09:19:32Z</time>
      </trkpt>
      <trkpt lat="44.88073" lon="5.18563">
        <ele>911.95</ele>
        <time>2014-09-27T09:19:36Z</time>
      </trkpt>
      <trkpt lat="44.8807" lon="5.18584">
        <ele>911.95</ele>
        <time>2014-09-27T09:19:53Z</time>
      </trkpt>
      <trkpt lat="44.8806" lon="5.18598">
        <ele>910.99</ele>
        <time>2014-09-27T09:20:05Z</time>
      </trkpt>
      <trkpt lat="44.88045" lon="5.18608">
        <ele>909.06</ele>
        <time>2014-09-27T09:20:23Z</time>
      </trkpt>
      <trkpt lat="44.88031" lon="5.1861">
        <ele>908.1</ele>
        <time>2014-09-27T09:20:39Z</time>
      </trkpt>
      <trkpt lat="44.88007" lon="5.18603">
        <ele>905.7</ele>
        <time>2014-09-27T09:21:01Z</time>
      </trkpt>
      <trkpt lat="44.8799" lon="5.18599">
        <ele>904.26</ele>
        <time>2014-09-27T09:21:19Z</time>
      </trkpt>
      <trkpt lat="44.87989" lon="5.18596">
        <ele>904.26</ele>
        <time>2014-09-27T09:21:30Z</time>
      </trkpt>
      <trkpt lat="44.87984" lon="5.186">
        <ele>903.78</ele>
        <time>2014-09-27T09:21:41Z</time>
      </trkpt>
      <trkpt lat="44.87978" lon="5.18596">
        <ele>902.82</ele>
        <time>2014-09-27T09:21:47Z</time>
      </trkpt>
      <trkpt lat="44.87962" lon="5.18587">
        <ele>901.37</ele>
        <time>2014-09-27T09:22:04Z</time>
      </trkpt>
      <trkpt lat="44.87954" lon="5.18576">
        <ele>901.37</ele>
        <time>2014-09-27T09:22:20Z</time>
      </trkpt>
      <trkpt lat="44.87947" lon="5.18568">
        <ele>901.37</ele>
        <time>2014-09-27T09:22:35Z</time>
      </trkpt>
      <trkpt lat="44.87933" lon="5.18557">
        <ele>898.49</ele>
        <time>2014-09-27T09:22:51Z</time>
      </trkpt>
      <trkpt lat="44.87912" lon="5.18564">
        <ele>896.09</ele>
        <time>2014-09-27T09:23:09Z</time>
      </trkpt>
      <trkpt lat="44.87899" lon="5.18577">
        <ele>894.16</ele>
        <time>2014-09-27T09:23:29Z</time>
      </trkpt>
      <trkpt lat="44.87889" lon="5.18585">
        <ele>893.2</ele>
        <time>2014-09-27T09:23:39Z</time>
      </trkpt>
      <trkpt lat="44.87882" lon="5.18586">
        <ele>893.2</ele>
        <time>2014-09-27T09:23:45Z</time>
      </trkpt>
      <trkpt lat="44.87875" lon="5.18591">
        <ele>892.24</ele>
        <time>2014-09-27T09:24:00Z</time>
      </trkpt>
      <trkpt lat="44.87874" lon="5.18593">
        <ele>891.76</ele>
        <time>2014-09-27T09:24:02Z</time>
      </trkpt>
      <trkpt lat="44.87883" lon="5.18614">
        <ele>888.88</ele>
        <time>2014-09-27T09:24:18Z</time>
      </trkpt>
      <trkpt lat="44.87872" lon="5.18612">
        <ele>887.43</ele>
        <time>2014-09-27T09:24:31Z</time>
      </trkpt>
      <trkpt lat="44.87869" lon="5.18611">
        <ele>886.95</ele>
        <time>2014-09-27T09:24:34Z</time>
      </trkpt>
      <trkpt lat="44.87841" lon="5.1861">
        <ele>885.03</ele>
        <time>2014-09-27T09:24:55Z</time>
      </trkpt>
      <trkpt lat="44.87821" lon="5.18608">
        <ele>884.07</ele>
        <time>2014-09-27T09:25:14Z</time>
      </trkpt>
      <trkpt lat="44.87815" lon="5.18609">
        <ele>883.11</ele>
        <time>2014-09-27T09:25:38Z</time>
      </trkpt>
      <trkpt lat="44.87806" lon="5.18609">
        <ele>883.11</ele>
        <time>2014-09-27T09:25:53Z</time>
      </trkpt>
      <trkpt lat="44.87784" lon="5.18608">
        <ele>882.15</ele>
        <time>2014-09-27T09:26:11Z</time>
      </trkpt>
      <trkpt lat="44.87761" lon="5.18603">
        <ele>880.71</ele>
        <time>2014-09-27T09:26:29Z</time>
      </trkpt>
      <trkpt lat="44.87746" lon="5.18593">
        <ele>878.78</ele>
        <time>2014-09-27T09:26:46Z</time>
      </trkpt>
      <trkpt lat="44.87729" lon="5.18575">
        <ele>877.82</ele>
        <time>2014-09-27T09:27:02Z</time>
      </trkpt>
      <trkpt lat="44.87712" lon="5.1856">
        <ele>875.9</ele>
        <time>2014-09-27T09:27:19Z</time>
      </trkpt>
      <trkpt lat="44.87703" lon="5.18562">
        <ele>875.42</ele>
        <time>2014-09-27T09:27:27Z</time>
      </trkpt>
      <trkpt lat="44.87696" lon="5.1857">
        <ele>874.94</ele>
        <time>2014-09-27T09:27:32Z</time>
      </trkpt>
      <trkpt lat="44.87678" lon="5.1859">
        <ele>873.5</ele>
        <time>2014-09-27T09:27:48Z</time>
      </trkpt>
      <trkpt lat="44.87663" lon="5.186">
        <ele>872.05</ele>
        <time>2014-09-27T09:28:04Z</time>
      </trkpt>
      <trkpt lat="44.87652" lon="5.18607">
        <ele>870.61</ele>
        <time>2014-09-27T09:28:19Z</time>
      </trkpt>
      <trkpt lat="44.87635" lon="5.18612">
        <ele>869.17</ele>
        <time>2014-09-27T09:28:35Z</time>
      </trkpt>
      <trkpt lat="44.8762" lon="5.18618">
        <ele>867.73</ele>
        <time>2014-09-27T09:28:47Z</time>
      </trkpt>
      <trkpt lat="44.87601" lon="5.18625">
        <ele>866.29</ele>
        <time>2014-09-27T09:29:02Z</time>
      </trkpt>
      <trkpt lat="44.87582" lon="5.18629">
        <ele>864.84</ele>
        <time>2014-09-27T09:29:19Z</time>
      </trkpt>
      <trkpt lat="44.87563" lon="5.18635">
        <ele>862.92</ele>
        <time>2014-09-27T09:29:35Z</time>
      </trkpt>
      <trkpt lat="44.87549" lon="5.18647">
        <ele>861.48</ele>
        <time>2014-09-27T09:29:56Z</time>
      </trkpt>
      <trkpt lat="44.87542" lon="5.18653">
        <ele>859.56</ele>
        <time>2014-09-27T09:30:17Z</time>
      </trkpt>
      <trkpt lat="44.87522" lon="5.18675">
        <ele>857.63</ele>
        <time>2014-09-27T09:30:40Z</time>
      </trkpt>
      <trkpt lat="44.8747" lon="5.18706">
        <ele>854.75</ele>
        <time>2014-09-27T09:31:05Z</time>
      </trkpt>
      <trkpt lat="44.87467" lon="5.18708">
        <ele>854.75</ele>
        <time>2014-09-27T09:31:08Z</time>
      </trkpt>
      <trkpt lat="44.87431" lon="5.18723">
        <ele>852.35</ele>
        <time>2014-09-27T09:31:32Z</time>
      </trkpt>
      <trkpt lat="44.87408" lon="5.18746">
        <ele>850.42</ele>
        <time>2014-09-27T09:31:52Z</time>
      </trkpt>
      <trkpt lat="44.87385" lon="5.18764">
        <ele>849.94</ele>
        <time>2014-09-27T09:32:13Z</time>
      </trkpt>
      <trkpt lat="44.87375" lon="5.18776">
        <ele>848.5</ele>
        <time>2014-09-27T09:32:36Z</time>
      </trkpt>
      <trkpt lat="44.87374" lon="5.18778">
        <ele>848.02</ele>
        <time>2014-09-27T09:32:37Z</time>
      </trkpt>
      <trkpt lat="44.87372" lon="5.18787">
        <ele>848.02</ele>
        <time>2014-09-27T09:32:40Z</time>
      </trkpt>
      <trkpt lat="44.87354" lon="5.18805">
        <ele>847.06</ele>
        <time>2014-09-27T09:32:55Z</time>
      </trkpt>
      <trkpt lat="44.87343" lon="5.18807">
        <ele>845.62</ele>
        <time>2014-09-27T09:33:09Z</time>
      </trkpt>
      <trkpt lat="44.87341" lon="5.18809">
        <ele>845.62</ele>
        <time>2014-09-27T09:33:41Z</time>
      </trkpt>
      <trkpt lat="44.87331" lon="5.18811">
        <ele>845.14</ele>
        <time>2014-09-27T09:34:10Z</time>
      </trkpt>
      <trkpt lat="44.87317" lon="5.18816">
        <ele>843.69</ele>
        <time>2014-09-27T09:34:25Z</time>
      </trkpt>
      <trkpt lat="44.873" lon="5.18823">
        <ele>842.73</ele>
        <time>2014-09-27T09:34:41Z</time>
      </trkpt>
      <trkpt lat="44.87285" lon="5.18828">
        <ele>841.29</ele>
        <time>2014-09-27T09:34:54Z</time>
      </trkpt>
      <trkpt lat="44.87272" lon="5.1884">
        <ele>840.33</ele>
        <time>2014-09-27T09:35:09Z</time>
      </trkpt>
      <trkpt lat="44.87258" lon="5.18849">
        <ele>840.33</ele>
        <time>2014-09-27T09:35:24Z</time>
      </trkpt>
      <trkpt lat="44.87247" lon="5.18856">
        <ele>839.37</ele>
        <time>2014-09-27T09:35:38Z</time>
      </trkpt>
      <trkpt lat="44.87235" lon="5.18866">
        <ele>837.93</ele>
        <time>2014-09-27T09:35:50Z</time>
      </trkpt>
      <trkpt lat="44.87219" lon="5.18873">
        <ele>836.96</ele>
        <time>2014-09-27T09:36:03Z</time>
      </trkpt>
      <trkpt lat="44.872" lon="5.18882">
        <ele>836</ele>
        <time>2014-09-27T09:36:16Z</time>
      </trkpt>
      <trkpt lat="44.87184" lon="5.18888">
        <ele>834.08</ele>
        <time>2014-09-27T09:36:31Z</time>
      </trkpt>
      <trkpt lat="44.8717" lon="5.18888">
        <ele>832.16</ele>
        <time>2014-09-27T09:36:45Z</time>
      </trkpt>
      <trkpt lat="44.87151" lon="5.18888">
        <ele>830.72</ele>
        <time>2014-09-27T09:37:02Z</time>
      </trkpt>
      <trkpt lat="44.87134" lon="5.18887">
        <ele>830.24</ele>
        <time>2014-09-27T09:37:13Z</time>
      </trkpt>
      <trkpt lat="44.87115" lon="5.18889">
        <ele>829.76</ele>
        <time>2014-09-27T09:37:28Z</time>
      </trkpt>
      <trkpt lat="44.87098" lon="5.18888">
        <ele>828.79</ele>
        <time>2014-09-27T09:37:43Z</time>
      </trkpt>
      <trkpt lat="44.87086" lon="5.18886">
        <ele>827.35</ele>
        <time>2014-09-27T09:37:54Z</time>
      </trkpt>
      <trkpt lat="44.87068" lon="5.18881">
        <ele>825.91</ele>
        <time>2014-09-27T09:38:08Z</time>
      </trkpt>
      <trkpt lat="44.87055" lon="5.18877">
        <ele>825.43</ele>
        <time>2014-09-27T09:38:15Z</time>
      </trkpt>
      <trkpt lat="44.87038" lon="5.18869">
        <ele>824.47</ele>
        <time>2014-09-27T09:38:31Z</time>
      </trkpt>
      <trkpt lat="44.87035" lon="5.18857">
        <ele>823.51</ele>
        <time>2014-09-27T09:38:45Z</time>
      </trkpt>
      <trkpt lat="44.87035" lon="5.1884">
        <ele>821.1</ele>
        <time>2014-09-27T09:39:01Z</time>
      </trkpt>
      <trkpt lat="44.87042" lon="5.18826">
        <ele>819.66</ele>
        <time>2014-09-27T09:39:18Z</time>
      </trkpt>
      <trkpt lat="44.87051" lon="5.18812">
        <ele>817.74</ele>
        <time>2014-09-27T09:39:29Z</time>
      </trkpt>
      <trkpt lat="44.87052" lon="5.18794">
        <ele>817.26</ele>
        <time>2014-09-27T09:39:44Z</time>
      </trkpt>
      <trkpt lat="44.87036" lon="5.18783">
        <ele>818.22</ele>
        <time>2014-09-27T09:40:01Z</time>
      </trkpt>
      <trkpt lat="44.87024" lon="5.18776">
        <ele>818.7</ele>
        <time>2014-09-27T09:40:12Z</time>
      </trkpt>
      <trkpt lat="44.87015" lon="5.18772">
        <ele>818.7</ele>
        <time>2014-09-27T09:40:19Z</time>
      </trkpt>
      <trkpt lat="44.86996" lon="5.18768">
        <ele>821.1</ele>
        <time>2014-09-27T09:40:35Z</time>
      </trkpt>
      <trkpt lat="44.86992" lon="5.18767">
        <ele>821.1</ele>
        <time>2014-09-27T09:40:38Z</time>
      </trkpt>
      <trkpt lat="44.8699" lon="5.18767">
        <ele>821.1</ele>
        <time>2014-09-27T09:40:40Z</time>
      </trkpt>
      <trkpt lat="44.8699" lon="5.18762">
        <ele>821.58</ele>
        <time>2014-09-27T09:40:53Z</time>
      </trkpt>
      <trkpt lat="44.86982" lon="5.18753">
        <ele>822.55</ele>
        <time>2014-09-27T09:41:07Z</time>
      </trkpt>
      <trkpt lat="44.86974" lon="5.18746">
        <ele>823.51</ele>
        <time>2014-09-27T09:41:18Z</time>
      </trkpt>
      <trkpt lat="44.8696" lon="5.18729">
        <ele>823.03</ele>
        <time>2014-09-27T09:41:36Z</time>
      </trkpt>
      <trkpt lat="44.86945" lon="5.18714">
        <ele>823.03</ele>
        <time>2014-09-27T09:41:53Z</time>
      </trkpt>
      <trkpt lat="44.86926" lon="5.18704">
        <ele>823.51</ele>
        <time>2014-09-27T09:42:09Z</time>
      </trkpt>
      <trkpt lat="44.86908" lon="5.18692">
        <ele>823.99</ele>
        <time>2014-09-27T09:42:27Z</time>
      </trkpt>
      <trkpt lat="44.86892" lon="5.18686">
        <ele>824.47</ele>
        <time>2014-09-27T09:42:42Z</time>
      </trkpt>
      <trkpt lat="44.86879" lon="5.18681">
        <ele>824.95</ele>
        <time>2014-09-27T09:42:56Z</time>
      </trkpt>
      <trkpt lat="44.86858" lon="5.18679">
        <ele>824.95</ele>
        <time>2014-09-27T09:43:14Z</time>
      </trkpt>
      <trkpt lat="44.86842" lon="5.18678">
        <ele>825.91</ele>
        <time>2014-09-27T09:43:31Z</time>
      </trkpt>
      <trkpt lat="44.86831" lon="5.18677">
        <ele>825.91</ele>
        <time>2014-09-27T09:43:41Z</time>
      </trkpt>
      <trkpt lat="44.86814" lon="5.18677">
        <ele>825.91</ele>
        <time>2014-09-27T09:43:57Z</time>
      </trkpt>
      <trkpt lat="44.868" lon="5.1867">
        <ele>825.91</ele>
        <time>2014-09-27T09:44:12Z</time>
      </trkpt>
      <trkpt lat="44.86789" lon="5.1866">
        <ele>823.99</ele>
        <time>2014-09-27T09:44:28Z</time>
      </trkpt>
      <trkpt lat="44.86786" lon="5.18654">
        <ele>823.99</ele>
        <time>2014-09-27T09:44:41Z</time>
      </trkpt>
      <trkpt lat="44.8678" lon="5.18653">
        <ele>823.99</ele>
        <time>2014-09-27T09:44:56Z</time>
      </trkpt>
      <trkpt lat="44.8678" lon="5.18668">
        <ele>825.91</ele>
        <time>2014-09-27T09:45:10Z</time>
      </trkpt>
      <trkpt lat="44.86771" lon="5.18677">
        <ele>827.35</ele>
        <time>2014-09-27T09:45:24Z</time>
      </trkpt>
      <trkpt lat="44.86768" lon="5.18681">
        <ele>827.83</ele>
        <time>2014-09-27T09:45:42Z</time>
      </trkpt>
      <trkpt lat="44.8676" lon="5.18688">
        <ele>828.79</ele>
        <time>2014-09-27T09:45:57Z</time>
      </trkpt>
      <trkpt lat="44.86753" lon="5.1869">
        <ele>830.24</ele>
        <time>2014-09-27T09:46:14Z</time>
      </trkpt>
      <trkpt lat="44.86744" lon="5.1869">
        <ele>833.12</ele>
        <time>2014-09-27T09:46:29Z</time>
      </trkpt>
      <trkpt lat="44.86734" lon="5.18688">
        <ele>834.56</ele>
        <time>2014-09-27T09:46:44Z</time>
      </trkpt>
      <trkpt lat="44.8672" lon="5.18685">
        <ele>836.48</ele>
        <time>2014-09-27T09:47:02Z</time>
      </trkpt>
      <trkpt lat="44.86708" lon="5.18683">
        <ele>838.41</ele>
        <time>2014-09-27T09:47:17Z</time>
      </trkpt>
      <trkpt lat="44.86697" lon="5.18677">
        <ele>840.33</ele>
        <time>2014-09-27T09:47:30Z</time>
      </trkpt>
      <trkpt lat="44.86689" lon="5.18673">
        <ele>841.77</ele>
        <time>2014-09-27T09:47:47Z</time>
      </trkpt>
      <trkpt lat="44.86679" lon="5.1867">
        <ele>844.18</ele>
        <time>2014-09-27T09:48:06Z</time>
      </trkpt>
      <trkpt lat="44.86668" lon="5.18671">
        <ele>846.1</ele>
        <time>2014-09-27T09:48:22Z</time>
      </trkpt>
      <trkpt lat="44.86656" lon="5.18663">
        <ele>848.02</ele>
        <time>2014-09-27T09:48:37Z</time>
      </trkpt>
      <trkpt lat="44.86646" lon="5.18659">
        <ele>849.94</ele>
        <time>2014-09-27T09:48:49Z</time>
      </trkpt>
      <trkpt lat="44.86644" lon="5.18654">
        <ele>850.9</ele>
        <time>2014-09-27T09:48:59Z</time>
      </trkpt>
      <trkpt lat="44.8664" lon="5.18648">
        <ele>852.35</ele>
        <time>2014-09-27T09:49:12Z</time>
      </trkpt>
      <trkpt lat="44.86634" lon="5.18642">
        <ele>854.27</ele>
        <time>2014-09-27T09:49:26Z</time>
      </trkpt>
      <trkpt lat="44.86638" lon="5.18637">
        <ele>856.19</ele>
        <time>2014-09-27T09:49:39Z</time>
      </trkpt>
      <trkpt lat="44.86634" lon="5.18627">
        <ele>858.59</ele>
        <time>2014-09-27T09:49:59Z</time>
      </trkpt>
      <trkpt lat="44.86638" lon="5.18618">
        <ele>860.52</ele>
        <time>2014-09-27T09:50:13Z</time>
      </trkpt>
      <trkpt lat="44.86636" lon="5.18606">
        <ele>862.44</ele>
        <time>2014-09-27T09:50:29Z</time>
      </trkpt>
      <trkpt lat="44.86626" lon="5.18598">
        <ele>864.84</ele>
        <time>2014-09-27T09:50:47Z</time>
      </trkpt>
      <trkpt lat="44.86618" lon="5.18589">
        <ele>867.73</ele>
        <time>2014-09-27T09:51:06Z</time>
      </trkpt>
      <trkpt lat="44.86612" lon="5.18581">
        <ele>869.65</ele>
        <time>2014-09-27T09:51:22Z</time>
      </trkpt>
      <trkpt lat="44.86607" lon="5.18566">
        <ele>872.05</ele>
        <time>2014-09-27T09:51:36Z</time>
      </trkpt>
      <trkpt lat="44.86601" lon="5.1856">
        <ele>874.46</ele>
        <time>2014-09-27T09:51:49Z</time>
      </trkpt>
      <trkpt lat="44.86594" lon="5.18547">
        <ele>875.9</ele>
        <time>2014-09-27T09:52:03Z</time>
      </trkpt>
      <trkpt lat="44.86587" lon="5.18537">
        <ele>878.3</ele>
        <time>2014-09-27T09:52:17Z</time>
      </trkpt>
      <trkpt lat="44.8658" lon="5.1853">
        <ele>880.22</ele>
        <time>2014-09-27T09:52:31Z</time>
      </trkpt>
      <trkpt lat="44.8657" lon="5.18524">
        <ele>882.15</ele>
        <time>2014-09-27T09:52:46Z</time>
      </trkpt>
      <trkpt lat="44.86563" lon="5.18517">
        <ele>885.03</ele>
        <time>2014-09-27T09:53:06Z</time>
      </trkpt>
      <trkpt lat="44.86554" lon="5.18513">
        <ele>886.95</ele>
        <time>2014-09-27T09:53:22Z</time>
      </trkpt>
      <trkpt lat="44.8654" lon="5.18507">
        <ele>889.84</ele>
        <time>2014-09-27T09:53:39Z</time>
      </trkpt>
      <trkpt lat="44.86533" lon="5.18502">
        <ele>891.76</ele>
        <time>2014-09-27T09:53:52Z</time>
      </trkpt>
      <trkpt lat="44.86527" lon="5.18494">
        <ele>894.16</ele>
        <time>2014-09-27T09:54:06Z</time>
      </trkpt>
      <trkpt lat="44.86516" lon="5.18487">
        <ele>896.57</ele>
        <time>2014-09-27T09:54:22Z</time>
      </trkpt>
      <trkpt lat="44.86505" lon="5.1848">
        <ele>898.97</ele>
        <time>2014-09-27T09:54:37Z</time>
      </trkpt>
      <trkpt lat="44.86492" lon="5.18478">
        <ele>900.89</ele>
        <time>2014-09-27T09:54:52Z</time>
      </trkpt>
      <trkpt lat="44.86479" lon="5.18478">
        <ele>903.78</ele>
        <time>2014-09-27T09:55:08Z</time>
      </trkpt>
      <trkpt lat="44.86463" lon="5.18473">
        <ele>906.18</ele>
        <time>2014-09-27T09:55:26Z</time>
      </trkpt>
      <trkpt lat="44.86449" lon="5.18463">
        <ele>909.54</ele>
        <time>2014-09-27T09:55:43Z</time>
      </trkpt>
      <trkpt lat="44.86439" lon="5.18455">
        <ele>912.43</ele>
        <time>2014-09-27T09:56:01Z</time>
      </trkpt>
      <trkpt lat="44.86431" lon="5.18449">
        <ele>914.83</ele>
        <time>2014-09-27T09:56:16Z</time>
      </trkpt>
      <trkpt lat="44.86426" lon="5.18441">
        <ele>918.2</ele>
        <time>2014-09-27T09:56:33Z</time>
      </trkpt>
      <trkpt lat="44.86418" lon="5.18432">
        <ele>921.56</ele>
        <time>2014-09-27T09:56:47Z</time>
      </trkpt>
      <trkpt lat="44.86407" lon="5.18429">
        <ele>924.45</ele>
        <time>2014-09-27T09:57:05Z</time>
      </trkpt>
      <trkpt lat="44.864" lon="5.1842">
        <ele>927.33</ele>
        <time>2014-09-27T09:57:22Z</time>
      </trkpt>
      <trkpt lat="44.86394" lon="5.18411">
        <ele>930.69</ele>
        <time>2014-09-27T09:57:38Z</time>
      </trkpt>
      <trkpt lat="44.86386" lon="5.18401">
        <ele>933.58</ele>
        <time>2014-09-27T09:57:54Z</time>
      </trkpt>
      <trkpt lat="44.86379" lon="5.18396">
        <ele>936.46</ele>
        <time>2014-09-27T09:58:08Z</time>
      </trkpt>
      <trkpt lat="44.86367" lon="5.18388">
        <ele>939.35</ele>
        <time>2014-09-27T09:58:24Z</time>
      </trkpt>
      <trkpt lat="44.86359" lon="5.18381">
        <ele>942.23</ele>
        <time>2014-09-27T09:58:40Z</time>
      </trkpt>
      <trkpt lat="44.86348" lon="5.18376">
        <ele>945.11</ele>
        <time>2014-09-27T09:58:57Z</time>
      </trkpt>
      <trkpt lat="44.86337" lon="5.18367">
        <ele>948.48</ele>
        <time>2014-09-27T09:59:16Z</time>
      </trkpt>
      <trkpt lat="44.86332" lon="5.18352">
        <ele>951.84</ele>
        <time>2014-09-27T09:59:33Z</time>
      </trkpt>
      <trkpt lat="44.86323" lon="5.18343">
        <ele>954.25</ele>
        <time>2014-09-27T09:59:50Z</time>
      </trkpt>
      <trkpt lat="44.86313" lon="5.18343">
        <ele>954.73</ele>
        <time>2014-09-27T10:00:09Z</time>
      </trkpt>
      <trkpt lat="44.86305" lon="5.18351">
        <ele>955.21</ele>
        <time>2014-09-27T10:00:34Z</time>
      </trkpt>
      <trkpt lat="44.86306" lon="5.18354">
        <ele>955.21</ele>
        <time>2014-09-27T10:01:11Z</time>
      </trkpt>
      <trkpt lat="44.86301" lon="5.18356">
        <ele>954.73</ele>
        <time>2014-09-27T10:01:44Z</time>
      </trkpt>
      <trkpt lat="44.86303" lon="5.18346">
        <ele>955.69</ele>
        <time>2014-09-27T10:02:08Z</time>
      </trkpt>
      <trkpt lat="44.86291" lon="5.18341">
        <ele>958.09</ele>
        <time>2014-09-27T10:02:25Z</time>
      </trkpt>
      <trkpt lat="44.86274" lon="5.18336">
        <ele>960.01</ele>
        <time>2014-09-27T10:02:44Z</time>
      </trkpt>
      <trkpt lat="44.86256" lon="5.18329">
        <ele>962.42</ele>
        <time>2014-09-27T10:03:04Z</time>
      </trkpt>
      <trkpt lat="44.86238" lon="5.18322">
        <ele>964.82</ele>
        <time>2014-09-27T10:03:24Z</time>
      </trkpt>
      <trkpt lat="44.86222" lon="5.18317">
        <ele>966.74</ele>
        <time>2014-09-27T10:03:43Z</time>
      </trkpt>
      <trkpt lat="44.86203" lon="5.18315">
        <ele>967.22</ele>
        <time>2014-09-27T10:04:01Z</time>
      </trkpt>
      <trkpt lat="44.86185" lon="5.18311">
        <ele>969.15</ele>
        <time>2014-09-27T10:04:21Z</time>
      </trkpt>
      <trkpt lat="44.86166" lon="5.18303">
        <ele>971.55</ele>
        <time>2014-09-27T10:04:41Z</time>
      </trkpt>
      <trkpt lat="44.86173" lon="5.18304">
        <ele>972.51</ele>
        <time>2014-09-27T10:04:58Z</time>
      </trkpt>
      <trkpt lat="44.86179" lon="5.18299">
        <ele>972.99</ele>
        <time>2014-09-27T10:05:15Z</time>
      </trkpt>
      <trkpt lat="44.86192" lon="5.183">
        <ele>974.43</ele>
        <time>2014-09-27T10:05:33Z</time>
      </trkpt>
      <trkpt lat="44.86203" lon="5.18292">
        <ele>977.32</ele>
        <time>2014-09-27T10:05:51Z</time>
      </trkpt>
      <trkpt lat="44.86213" lon="5.18288">
        <ele>979.24</ele>
        <time>2014-09-27T10:06:07Z</time>
      </trkpt>
      <trkpt lat="44.86221" lon="5.18282">
        <ele>980.2</ele>
        <time>2014-09-27T10:06:19Z</time>
      </trkpt>
      <trkpt lat="44.86232" lon="5.18275">
        <ele>982.12</ele>
        <time>2014-09-27T10:06:35Z</time>
      </trkpt>
      <trkpt lat="44.86242" lon="5.18267">
        <ele>984.05</ele>
        <time>2014-09-27T10:06:52Z</time>
      </trkpt>
      <trkpt lat="44.86251" lon="5.18262">
        <ele>985.49</ele>
        <time>2014-09-27T10:07:09Z</time>
      </trkpt>
      <trkpt lat="44.86264" lon="5.18253">
        <ele>986.93</ele>
        <time>2014-09-27T10:07:27Z</time>
      </trkpt>
      <trkpt lat="44.86271" lon="5.18248">
        <ele>986.93</ele>
        <time>2014-09-27T10:07:43Z</time>
      </trkpt>
      <trkpt lat="44.8628" lon="5.18244">
        <ele>988.37</ele>
        <time>2014-09-27T10:08:01Z</time>
      </trkpt>
      <trkpt lat="44.86289" lon="5.18238">
        <ele>989.81</ele>
        <time>2014-09-27T10:08:14Z</time>
      </trkpt>
      <trkpt lat="44.86302" lon="5.1823">
        <ele>990.78</ele>
        <time>2014-09-27T10:08:27Z</time>
      </trkpt>
      <trkpt lat="44.86312" lon="5.18222">
        <ele>991.26</ele>
        <time>2014-09-27T10:08:41Z</time>
      </trkpt>
      <trkpt lat="44.86321" lon="5.18208">
        <ele>992.22</ele>
        <time>2014-09-27T10:08:59Z</time>
      </trkpt>
      <trkpt lat="44.8632" lon="5.18201">
        <ele>994.14</ele>
        <time>2014-09-27T10:09:13Z</time>
      </trkpt>
      <trkpt lat="44.86308" lon="5.18195">
        <ele>995.1</ele>
        <time>2014-09-27T10:09:27Z</time>
      </trkpt>
      <trkpt lat="44.86301" lon="5.18193">
        <ele>996.54</ele>
        <time>2014-09-27T10:09:42Z</time>
      </trkpt>
      <trkpt lat="44.86301" lon="5.18195">
        <ele>997.51</ele>
        <time>2014-09-27T10:09:48Z</time>
      </trkpt>
      <trkpt lat="44.86297" lon="5.18193">
        <ele>997.99</ele>
        <time>2014-09-27T10:10:01Z</time>
      </trkpt>
      <trkpt lat="44.86287" lon="5.18191">
        <ele>998.95</ele>
        <time>2014-09-27T10:10:14Z</time>
      </trkpt>
      <trkpt lat="44.86279" lon="5.18191">
        <ele>999.91</ele>
        <time>2014-09-27T10:10:30Z</time>
      </trkpt>
      <trkpt lat="44.86272" lon="5.18194">
        <ele>1000.39</ele>
        <time>2014-09-27T10:10:38Z</time>
      </trkpt>
      <trkpt lat="44.86261" lon="5.18193">
        <ele>1001.35</ele>
        <time>2014-09-27T10:10:49Z</time>
      </trkpt>
      <trkpt lat="44.86242" lon="5.18193">
        <ele>1002.79</ele>
        <time>2014-09-27T10:11:08Z</time>
      </trkpt>
      <trkpt lat="44.8624" lon="5.18192">
        <ele>1002.79</ele>
        <time>2014-09-27T10:11:10Z</time>
      </trkpt>
      <trkpt lat="44.86238" lon="5.1819">
        <ele>1003.27</ele>
        <time>2014-09-27T10:11:13Z</time>
      </trkpt>
      <trkpt lat="44.86224" lon="5.18187">
        <ele>1004.72</ele>
        <time>2014-09-27T10:11:29Z</time>
      </trkpt>
      <trkpt lat="44.86217" lon="5.18175">
        <ele>1005.2</ele>
        <time>2014-09-27T10:11:40Z</time>
      </trkpt>
      <trkpt lat="44.86213" lon="5.18168">
        <ele>1004.72</ele>
        <time>2014-09-27T10:11:47Z</time>
      </trkpt>
      <trkpt lat="44.86202" lon="5.1816">
        <ele>1006.64</ele>
        <time>2014-09-27T10:12:03Z</time>
      </trkpt>
      <trkpt lat="44.86194" lon="5.18154">
        <ele>1009.04</ele>
        <time>2014-09-27T10:12:16Z</time>
      </trkpt>
      <trkpt lat="44.86182" lon="5.18151">
        <ele>1010.48</ele>
        <time>2014-09-27T10:12:31Z</time>
      </trkpt>
      <trkpt lat="44.86178" lon="5.18151">
        <ele>1010</ele>
        <time>2014-09-27T10:12:46Z</time>
      </trkpt>
      <trkpt lat="44.86174" lon="5.18152">
        <ele>1011.44</ele>
        <time>2014-09-27T10:13:17Z</time>
      </trkpt>
      <trkpt lat="44.8616" lon="5.1815">
        <ele>1012.41</ele>
        <time>2014-09-27T10:13:33Z</time>
      </trkpt>
      <trkpt lat="44.86145" lon="5.18145">
        <ele>1012.41</ele>
        <time>2014-09-27T10:13:48Z</time>
      </trkpt>
      <trkpt lat="44.86142" lon="5.18153">
        <ele>1012.41</ele>
        <time>2014-09-27T10:14:00Z</time>
      </trkpt>
      <trkpt lat="44.86132" lon="5.18157">
        <ele>1010.96</ele>
        <time>2014-09-27T10:14:16Z</time>
      </trkpt>
      <trkpt lat="44.86128" lon="5.18157">
        <ele>1010</ele>
        <time>2014-09-27T10:14:20Z</time>
      </trkpt>
      <trkpt lat="44.86117" lon="5.18157">
        <ele>1008.56</ele>
        <time>2014-09-27T10:14:30Z</time>
      </trkpt>
      <trkpt lat="44.86106" lon="5.18154">
        <ele>1006.64</ele>
        <time>2014-09-27T10:14:44Z</time>
      </trkpt>
      <trkpt lat="44.86094" lon="5.18148">
        <ele>1005.2</ele>
        <time>2014-09-27T10:14:58Z</time>
      </trkpt>
      <trkpt lat="44.86086" lon="5.18145">
        <ele>1004.23</ele>
        <time>2014-09-27T10:15:07Z</time>
      </trkpt>
      <trkpt lat="44.86074" lon="5.18141">
        <ele>1002.79</ele>
        <time>2014-09-27T10:15:23Z</time>
      </trkpt>
      <trkpt lat="44.86062" lon="5.1813">
        <ele>1000.87</ele>
        <time>2014-09-27T10:15:41Z</time>
      </trkpt>
      <trkpt lat="44.8605" lon="5.1812">
        <ele>998.95</ele>
        <time>2014-09-27T10:15:57Z</time>
      </trkpt>
      <trkpt lat="44.86041" lon="5.18119">
        <ele>997.99</ele>
        <time>2014-09-27T10:16:12Z</time>
      </trkpt>
      <trkpt lat="44.86041" lon="5.1812">
        <ele>997.99</ele>
        <time>2014-09-27T10:16:13Z</time>
      </trkpt>
      <trkpt lat="44.86016" lon="5.18122">
        <ele>996.54</ele>
        <time>2014-09-27T10:16:35Z</time>
      </trkpt>
      <trkpt lat="44.86004" lon="5.1812">
        <ele>996.06</ele>
        <time>2014-09-27T10:16:52Z</time>
      </trkpt>
      <trkpt lat="44.85992" lon="5.18115">
        <ele>996.06</ele>
        <time>2014-09-27T10:17:07Z</time>
      </trkpt>
      <trkpt lat="44.85984" lon="5.18115">
        <ele>996.06</ele>
        <time>2014-09-27T10:17:21Z</time>
      </trkpt>
      <trkpt lat="44.85978" lon="5.18111">
        <ele>996.06</ele>
        <time>2014-09-27T10:17:42Z</time>
      </trkpt>
      <trkpt lat="44.85983" lon="5.18119">
        <ele>996.54</ele>
        <time>2014-09-27T10:17:56Z</time>
      </trkpt>
      <trkpt lat="44.85984" lon="5.18121">
        <ele>996.54</ele>
        <time>2014-09-27T10:18:22Z</time>
      </trkpt>
      <trkpt lat="44.85984" lon="5.1812">
        <ele>996.54</ele>
        <time>2014-09-27T10:18:40Z</time>
      </trkpt>
      <trkpt lat="44.8598" lon="5.18115">
        <ele>997.02</ele>
        <time>2014-09-27T10:19:02Z</time>
      </trkpt>
      <trkpt lat="44.8597" lon="5.18108">
        <ele>997.02</ele>
        <time>2014-09-27T10:19:18Z</time>
      </trkpt>
      <trkpt lat="44.85961" lon="5.18101">
        <ele>997.02</ele>
        <time>2014-09-27T10:19:31Z</time>
      </trkpt>
      <trkpt lat="44.85957" lon="5.18098">
        <ele>997.02</ele>
        <time>2014-09-27T10:19:36Z</time>
      </trkpt>
      <trkpt lat="44.85939" lon="5.18088">
        <ele>997.51</ele>
        <time>2014-09-27T10:19:55Z</time>
      </trkpt>
      <trkpt lat="44.85923" lon="5.18087">
        <ele>997.02</ele>
        <time>2014-09-27T10:20:14Z</time>
      </trkpt>
      <trkpt lat="44.85908" lon="5.18089">
        <ele>997.51</ele>
        <time>2014-09-27T10:20:29Z</time>
      </trkpt>
      <trkpt lat="44.85887" lon="5.18083">
        <ele>998.47</ele>
        <time>2014-09-27T10:20:46Z</time>
      </trkpt>
      <trkpt lat="44.85866" lon="5.18087">
        <ele>999.91</ele>
        <time>2014-09-27T10:21:06Z</time>
      </trkpt>
      <trkpt lat="44.85844" lon="5.18099">
        <ele>998.47</ele>
        <time>2014-09-27T10:21:24Z</time>
      </trkpt>
      <trkpt lat="44.85828" lon="5.18108">
        <ele>997.99</ele>
        <time>2014-09-27T10:21:38Z</time>
      </trkpt>
      <trkpt lat="44.85806" lon="5.1812">
        <ele>996.54</ele>
        <time>2014-09-27T10:21:57Z</time>
      </trkpt>
      <trkpt lat="44.85791" lon="5.18129">
        <ele>995.58</ele>
        <time>2014-09-27T10:22:10Z</time>
      </trkpt>
      <trkpt lat="44.85783" lon="5.18135">
        <ele>995.1</ele>
        <time>2014-09-27T10:22:16Z</time>
      </trkpt>
      <trkpt lat="44.85763" lon="5.18146">
        <ele>994.62</ele>
        <time>2014-09-27T10:22:32Z</time>
      </trkpt>
      <trkpt lat="44.85742" lon="5.18154">
        <ele>993.66</ele>
        <time>2014-09-27T10:22:49Z</time>
      </trkpt>
      <trkpt lat="44.85728" lon="5.18163">
        <ele>993.18</ele>
        <time>2014-09-27T10:23:02Z</time>
      </trkpt>
      <trkpt lat="44.85699" lon="5.18173">
        <ele>990.78</ele>
        <time>2014-09-27T10:23:24Z</time>
      </trkpt>
      <trkpt lat="44.8567" lon="5.18178">
        <ele>988.85</ele>
        <time>2014-09-27T10:23:46Z</time>
      </trkpt>
      <trkpt lat="44.85645" lon="5.18187">
        <ele>986.45</ele>
        <time>2014-09-27T10:24:09Z</time>
      </trkpt>
      <trkpt lat="44.85618" lon="5.18192">
        <ele>984.05</ele>
        <time>2014-09-27T10:24:31Z</time>
      </trkpt>
      <trkpt lat="44.85593" lon="5.18194">
        <ele>982.12</ele>
        <time>2014-09-27T10:24:52Z</time>
      </trkpt>
      <trkpt lat="44.85569" lon="5.18196">
        <ele>980.68</ele>
        <time>2014-09-27T10:25:11Z</time>
      </trkpt>
      <trkpt lat="44.85547" lon="5.18199">
        <ele>978.28</ele>
        <time>2014-09-27T10:25:31Z</time>
      </trkpt>
      <trkpt lat="44.85538" lon="5.18199">
        <ele>978.28</ele>
        <time>2014-09-27T10:25:47Z</time>
      </trkpt>
      <trkpt lat="44.85526" lon="5.18203">
        <ele>977.8</ele>
        <time>2014-09-27T10:26:03Z</time>
      </trkpt>
      <trkpt lat="44.8551" lon="5.18204">
        <ele>977.32</ele>
        <time>2014-09-27T10:26:21Z</time>
      </trkpt>
      <trkpt lat="44.85504" lon="5.18202">
        <ele>977.8</ele>
        <time>2014-09-27T10:26:41Z</time>
      </trkpt>
      <trkpt lat="44.85518" lon="5.18208">
        <ele>977.32</ele>
        <time>2014-09-27T10:26:57Z</time>
      </trkpt>
      <trkpt lat="44.85515" lon="5.1821">
        <ele>976.84</ele>
        <time>2014-09-27T10:27:14Z</time>
      </trkpt>
      <trkpt lat="44.8552" lon="5.18204">
        <ele>977.8</ele>
        <time>2014-09-27T10:27:27Z</time>
      </trkpt>
      <trkpt lat="44.85536" lon="5.18204">
        <ele>977.8</ele>
        <time>2014-09-27T10:27:41Z</time>
      </trkpt>
      <trkpt lat="44.85551" lon="5.18206">
        <ele>979.24</ele>
        <time>2014-09-27T10:27:56Z</time>
      </trkpt>
      <trkpt lat="44.85557" lon="5.18207">
        <ele>979.72</ele>
        <time>2014-09-27T10:28:02Z</time>
      </trkpt>
      <trkpt lat="44.85575" lon="5.18203">
        <ele>980.68</ele>
        <time>2014-09-27T10:28:19Z</time>
      </trkpt>
      <trkpt lat="44.856" lon="5.182">
        <ele>982.6</ele>
        <time>2014-09-27T10:28:41Z</time>
      </trkpt>
      <trkpt lat="44.85603" lon="5.18198">
        <ele>983.09</ele>
        <time>2014-09-27T10:28:55Z</time>
      </trkpt>
      <trkpt lat="44.85618" lon="5.18198">
        <ele>984.05</ele>
        <time>2014-09-27T10:29:14Z</time>
      </trkpt>
      <trkpt lat="44.85633" lon="5.18195">
        <ele>985.01</ele>
        <time>2014-09-27T10:29:32Z</time>
      </trkpt>
      <trkpt lat="44.85648" lon="5.18191">
        <ele>986.45</ele>
        <time>2014-09-27T10:29:48Z</time>
      </trkpt>
      <trkpt lat="44.85667" lon="5.18186">
        <ele>988.37</ele>
        <time>2014-09-27T10:30:06Z</time>
      </trkpt>
      <trkpt lat="44.85668" lon="5.18186">
        <ele>988.85</ele>
        <time>2014-09-27T10:30:07Z</time>
      </trkpt>
      <trkpt lat="44.85689" lon="5.1818">
        <ele>990.78</ele>
        <time>2014-09-27T10:30:27Z</time>
      </trkpt>
      <trkpt lat="44.85696" lon="5.18177">
        <ele>991.26</ele>
        <time>2014-09-27T10:30:34Z</time>
      </trkpt>
      <trkpt lat="44.85717" lon="5.18169">
        <ele>992.7</ele>
        <time>2014-09-27T10:30:54Z</time>
      </trkpt>
      <trkpt lat="44.85744" lon="5.18158">
        <ele>994.62</ele>
        <time>2014-09-27T10:31:18Z</time>
      </trkpt>
      <trkpt lat="44.85773" lon="5.18147">
        <ele>995.58</ele>
        <time>2014-09-27T10:31:42Z</time>
      </trkpt>
      <trkpt lat="44.85788" lon="5.18137">
        <ele>996.06</ele>
        <time>2014-09-27T10:31:57Z</time>
      </trkpt>
      <trkpt lat="44.85801" lon="5.18128">
        <ele>997.51</ele>
        <time>2014-09-27T10:32:12Z</time>
      </trkpt>
      <trkpt lat="44.85821" lon="5.18118">
        <ele>998.95</ele>
        <time>2014-09-27T10:32:31Z</time>
      </trkpt>
      <trkpt lat="44.85823" lon="5.18116">
        <ele>998.95</ele>
        <time>2014-09-27T10:32:33Z</time>
      </trkpt>
      <trkpt lat="44.85842" lon="5.181">
        <ele>999.91</ele>
        <time>2014-09-27T10:32:49Z</time>
      </trkpt>
      <trkpt lat="44.85843" lon="5.181">
        <ele>999.43</ele>
        <time>2014-09-27T10:32:50Z</time>
      </trkpt>
      <trkpt lat="44.8586" lon="5.18092">
        <ele>1000.39</ele>
        <time>2014-09-27T10:33:06Z</time>
      </trkpt>
      <trkpt lat="44.85877" lon="5.18084">
        <ele>1000.87</ele>
        <time>2014-09-27T10:33:21Z</time>
      </trkpt>
      <trkpt lat="44.85895" lon="5.18082">
        <ele>998.47</ele>
        <time>2014-09-27T10:33:37Z</time>
      </trkpt>
      <trkpt lat="44.85908" lon="5.18083">
        <ele>998.47</ele>
        <time>2014-09-27T10:33:51Z</time>
      </trkpt>
      <trkpt lat="44.85913" lon="5.18084">
        <ele>998.47</ele>
        <time>2014-09-27T10:33:55Z</time>
      </trkpt>
      <trkpt lat="44.85934" lon="5.18089">
        <ele>997.99</ele>
        <time>2014-09-27T10:34:13Z</time>
      </trkpt>
      <trkpt lat="44.85958" lon="5.181">
        <ele>997.99</ele>
        <time>2014-09-27T10:34:31Z</time>
      </trkpt>
      <trkpt lat="44.85979" lon="5.18113">
        <ele>997.51</ele>
        <time>2014-09-27T10:34:50Z</time>
      </trkpt>
      <trkpt lat="44.85985" lon="5.1812">
        <ele>997.02</ele>
        <time>2014-09-27T10:35:05Z</time>
      </trkpt>
      <trkpt lat="44.85976" lon="5.18123">
        <ele>994.62</ele>
        <time>2014-09-27T10:35:21Z</time>
      </trkpt>
      <trkpt lat="44.85975" lon="5.18122">
        <ele>994.62</ele>
        <time>2014-09-27T10:35:30Z</time>
      </trkpt>
      <trkpt lat="44.85958" lon="5.18125">
        <ele>992.22</ele>
        <time>2014-09-27T10:35:49Z</time>
      </trkpt>
      <trkpt lat="44.8594" lon="5.18128">
        <ele>989.81</ele>
        <time>2014-09-27T10:36:09Z</time>
      </trkpt>
      <trkpt lat="44.85928" lon="5.18131">
        <ele>987.41</ele>
        <time>2014-09-27T10:36:26Z</time>
      </trkpt>
      <trkpt lat="44.85926" lon="5.18132">
        <ele>986.45</ele>
        <time>2014-09-27T10:36:43Z</time>
      </trkpt>
      <trkpt lat="44.85915" lon="5.18134">
        <ele>985.01</ele>
        <time>2014-09-27T10:36:59Z</time>
      </trkpt>
      <trkpt lat="44.85897" lon="5.18136">
        <ele>983.09</ele>
        <time>2014-09-27T10:37:16Z</time>
      </trkpt>
      <trkpt lat="44.85892" lon="5.18142">
        <ele>982.12</ele>
        <time>2014-09-27T10:37:35Z</time>
      </trkpt>
      <trkpt lat="44.85879" lon="5.18149">
        <ele>979.24</ele>
        <time>2014-09-27T10:37:54Z</time>
      </trkpt>
      <trkpt lat="44.85868" lon="5.18153">
        <ele>976.84</ele>
        <time>2014-09-27T10:38:09Z</time>
      </trkpt>
      <trkpt lat="44.85858" lon="5.18158">
        <ele>973.47</ele>
        <time>2014-09-27T10:38:23Z</time>
      </trkpt>
      <trkpt lat="44.8585" lon="5.1817">
        <ele>971.07</ele>
        <time>2014-09-27T10:38:38Z</time>
      </trkpt>
      <trkpt lat="44.85834" lon="5.18182">
        <ele>968.67</ele>
        <time>2014-09-27T10:38:55Z</time>
      </trkpt>
      <trkpt lat="44.85822" lon="5.18194">
        <ele>966.26</ele>
        <time>2014-09-27T10:39:12Z</time>
      </trkpt>
      <trkpt lat="44.85808" lon="5.18203">
        <ele>963.38</ele>
        <time>2014-09-27T10:39:30Z</time>
      </trkpt>
      <trkpt lat="44.85795" lon="5.18211">
        <ele>961.46</ele>
        <time>2014-09-27T10:39:45Z</time>
      </trkpt>
      <trkpt lat="44.85783" lon="5.18221">
        <ele>959.05</ele>
        <time>2014-09-27T10:40:02Z</time>
      </trkpt>
      <trkpt lat="44.85775" lon="5.18222">
        <ele>958.09</ele>
        <time>2014-09-27T10:40:16Z</time>
      </trkpt>
      <trkpt lat="44.85764" lon="5.18228">
        <ele>956.65</ele>
        <time>2014-09-27T10:40:34Z</time>
      </trkpt>
      <trkpt lat="44.85752" lon="5.18239">
        <ele>954.73</ele>
        <time>2014-09-27T10:40:50Z</time>
      </trkpt>
      <trkpt lat="44.85742" lon="5.1825">
        <ele>951.84</ele>
        <time>2014-09-27T10:41:05Z</time>
      </trkpt>
      <trkpt lat="44.85735" lon="5.18259">
        <ele>950.4</ele>
        <time>2014-09-27T10:41:17Z</time>
      </trkpt>
      <trkpt lat="44.85725" lon="5.18265">
        <ele>948.96</ele>
        <time>2014-09-27T10:41:29Z</time>
      </trkpt>
      <trkpt lat="44.85711" lon="5.18272">
        <ele>948</ele>
        <time>2014-09-27T10:41:45Z</time>
      </trkpt>
      <trkpt lat="44.857" lon="5.18277">
        <ele>947.52</ele>
        <time>2014-09-27T10:41:59Z</time>
      </trkpt>
      <trkpt lat="44.85687" lon="5.18282">
        <ele>945.59</ele>
        <time>2014-09-27T10:42:13Z</time>
      </trkpt>
      <trkpt lat="44.85673" lon="5.18291">
        <ele>942.71</ele>
        <time>2014-09-27T10:42:31Z</time>
      </trkpt>
      <trkpt lat="44.85661" lon="5.183">
        <ele>939.35</ele>
        <time>2014-09-27T10:42:46Z</time>
      </trkpt>
      <trkpt lat="44.8565" lon="5.18306">
        <ele>935.98</ele>
        <time>2014-09-27T10:43:01Z</time>
      </trkpt>
      <trkpt lat="44.85644" lon="5.18312">
        <ele>934.06</ele>
        <time>2014-09-27T10:43:10Z</time>
      </trkpt>
      <trkpt lat="44.85636" lon="5.18319">
        <ele>931.17</ele>
        <time>2014-09-27T10:43:23Z</time>
      </trkpt>
      <trkpt lat="44.85625" lon="5.18327">
        <ele>928.29</ele>
        <time>2014-09-27T10:43:39Z</time>
      </trkpt>
      <trkpt lat="44.85615" lon="5.18335">
        <ele>924.93</ele>
        <time>2014-09-27T10:43:55Z</time>
      </trkpt>
      <trkpt lat="44.85604" lon="5.18343">
        <ele>922.52</ele>
        <time>2014-09-27T10:44:10Z</time>
      </trkpt>
      <trkpt lat="44.85595" lon="5.18346">
        <ele>920.12</ele>
        <time>2014-09-27T10:44:23Z</time>
      </trkpt>
      <trkpt lat="44.85585" lon="5.18355">
        <ele>917.24</ele>
        <time>2014-09-27T10:44:38Z</time>
      </trkpt>
      <trkpt lat="44.85574" lon="5.18362">
        <ele>913.87</ele>
        <time>2014-09-27T10:44:53Z</time>
      </trkpt>
      <trkpt lat="44.8557" lon="5.18369">
        <ele>911.95</ele>
        <time>2014-09-27T10:45:09Z</time>
      </trkpt>
      <trkpt lat="44.85571" lon="5.18376">
        <ele>909.54</ele>
        <time>2014-09-27T10:45:23Z</time>
      </trkpt>
      <trkpt lat="44.85579" lon="5.18376">
        <ele>908.58</ele>
        <time>2014-09-27T10:45:32Z</time>
      </trkpt>
      <trkpt lat="44.85597" lon="5.18377">
        <ele>907.14</ele>
        <time>2014-09-27T10:45:47Z</time>
      </trkpt>
      <trkpt lat="44.85606" lon="5.18381">
        <ele>905.22</ele>
        <time>2014-09-27T10:45:58Z</time>
      </trkpt>
      <trkpt lat="44.8562" lon="5.18385">
        <ele>901.85</ele>
        <time>2014-09-27T10:46:11Z</time>
      </trkpt>
      <trkpt lat="44.85623" lon="5.18386">
        <ele>901.85</ele>
        <time>2014-09-27T10:46:15Z</time>
      </trkpt>
      <trkpt lat="44.85634" lon="5.18394">
        <ele>898.97</ele>
        <time>2014-09-27T10:46:28Z</time>
      </trkpt>
      <trkpt lat="44.85642" lon="5.184">
        <ele>895.61</ele>
        <time>2014-09-27T10:46:40Z</time>
      </trkpt>
      <trkpt lat="44.85656" lon="5.18408">
        <ele>892.72</ele>
        <time>2014-09-27T10:46:56Z</time>
      </trkpt>
      <trkpt lat="44.85658" lon="5.1841">
        <ele>892.24</ele>
        <time>2014-09-27T10:46:58Z</time>
      </trkpt>
      <trkpt lat="44.85668" lon="5.18414">
        <ele>890.8</ele>
        <time>2014-09-27T10:47:10Z</time>
      </trkpt>
      <trkpt lat="44.85672" lon="5.18424">
        <ele>888.4</ele>
        <time>2014-09-27T10:47:25Z</time>
      </trkpt>
      <trkpt lat="44.85665" lon="5.18423">
        <ele>886.47</ele>
        <time>2014-09-27T10:47:34Z</time>
      </trkpt>
      <trkpt lat="44.85655" lon="5.1843">
        <ele>882.63</ele>
        <time>2014-09-27T10:47:48Z</time>
      </trkpt>
      <trkpt lat="44.85644" lon="5.18432">
        <ele>879.74</ele>
        <time>2014-09-27T10:48:02Z</time>
      </trkpt>
      <trkpt lat="44.85628" lon="5.18433">
        <ele>876.86</ele>
        <time>2014-09-27T10:48:20Z</time>
      </trkpt>
      <trkpt lat="44.85616" lon="5.18436">
        <ele>874.46</ele>
        <time>2014-09-27T10:48:33Z</time>
      </trkpt>
      <trkpt lat="44.85603" lon="5.18443">
        <ele>871.09</ele>
        <time>2014-09-27T10:48:48Z</time>
      </trkpt>
      <trkpt lat="44.85599" lon="5.18446">
        <ele>870.61</ele>
        <time>2014-09-27T10:48:53Z</time>
      </trkpt>
      <trkpt lat="44.85586" lon="5.18451">
        <ele>869.17</ele>
        <time>2014-09-27T10:49:07Z</time>
      </trkpt>
      <trkpt lat="44.85573" lon="5.18462">
        <ele>866.29</ele>
        <time>2014-09-27T10:49:22Z</time>
      </trkpt>
      <trkpt lat="44.85566" lon="5.18473">
        <ele>862.92</ele>
        <time>2014-09-27T10:49:35Z</time>
      </trkpt>
      <trkpt lat="44.85557" lon="5.18484">
        <ele>860.52</ele>
        <time>2014-09-27T10:49:49Z</time>
      </trkpt>
      <trkpt lat="44.85544" lon="5.18493">
        <ele>858.59</ele>
        <time>2014-09-27T10:50:05Z</time>
      </trkpt>
      <trkpt lat="44.85536" lon="5.18502">
        <ele>856.67</ele>
        <time>2014-09-27T10:50:19Z</time>
      </trkpt>
      <trkpt lat="44.85533" lon="5.18505">
        <ele>855.71</ele>
        <time>2014-09-27T10:50:23Z</time>
      </trkpt>
      <trkpt lat="44.85525" lon="5.18512">
        <ele>853.79</ele>
        <time>2014-09-27T10:50:36Z</time>
      </trkpt>
      <trkpt lat="44.85516" lon="5.1852">
        <ele>851.38</ele>
        <time>2014-09-27T10:50:52Z</time>
      </trkpt>
      <trkpt lat="44.85507" lon="5.18528">
        <ele>848.98</ele>
        <time>2014-09-27T10:51:07Z</time>
      </trkpt>
      <trkpt lat="44.85502" lon="5.18536">
        <ele>846.58</ele>
        <time>2014-09-27T10:51:22Z</time>
      </trkpt>
      <trkpt lat="44.85496" lon="5.1854">
        <ele>844.66</ele>
        <time>2014-09-27T10:51:34Z</time>
      </trkpt>
      <trkpt lat="44.85488" lon="5.18545">
        <ele>841.77</ele>
        <time>2014-09-27T10:51:49Z</time>
      </trkpt>
      <trkpt lat="44.85484" lon="5.18555">
        <ele>839.85</ele>
        <time>2014-09-27T10:52:03Z</time>
      </trkpt>
      <trkpt lat="44.85481" lon="5.18556">
        <ele>837.93</ele>
        <time>2014-09-27T10:52:17Z</time>
      </trkpt>
      <trkpt lat="44.85478" lon="5.18558">
        <ele>836.96</ele>
        <time>2014-09-27T10:52:22Z</time>
      </trkpt>
      <trkpt lat="44.8547" lon="5.18562">
        <ele>834.56</ele>
        <time>2014-09-27T10:52:36Z</time>
      </trkpt>
      <trkpt lat="44.85464" lon="5.18567">
        <ele>831.68</ele>
        <time>2014-09-27T10:52:50Z</time>
      </trkpt>
      <trkpt lat="44.85463" lon="5.18575">
        <ele>830.24</ele>
        <time>2014-09-27T10:53:04Z</time>
      </trkpt>
      <trkpt lat="44.85455" lon="5.18578">
        <ele>826.87</ele>
        <time>2014-09-27T10:53:21Z</time>
      </trkpt>
      <trkpt lat="44.85442" lon="5.18583">
        <ele>823.51</ele>
        <time>2014-09-27T10:53:39Z</time>
      </trkpt>
      <trkpt lat="44.85435" lon="5.18586">
        <ele>821.58</ele>
        <time>2014-09-27T10:53:53Z</time>
      </trkpt>
      <trkpt lat="44.85426" lon="5.18592">
        <ele>819.66</ele>
        <time>2014-09-27T10:54:07Z</time>
      </trkpt>
      <trkpt lat="44.85417" lon="5.18594">
        <ele>817.26</ele>
        <time>2014-09-27T10:54:21Z</time>
      </trkpt>
      <trkpt lat="44.85409" lon="5.186">
        <ele>814.85</ele>
        <time>2014-09-27T10:54:36Z</time>
      </trkpt>
      <trkpt lat="44.85406" lon="5.18597">
        <ele>813.89</ele>
        <time>2014-09-27T10:54:53Z</time>
      </trkpt>
      <trkpt lat="44.85397" lon="5.18603">
        <ele>811.49</ele>
        <time>2014-09-27T10:55:07Z</time>
      </trkpt>
      <trkpt lat="44.85388" lon="5.18606">
        <ele>809.57</ele>
        <time>2014-09-27T10:55:21Z</time>
      </trkpt>
      <trkpt lat="44.85374" lon="5.18604">
        <ele>807.64</ele>
        <time>2014-09-27T10:55:38Z</time>
      </trkpt>
      <trkpt lat="44.85361" lon="5.18606">
        <ele>805.72</ele>
        <time>2014-09-27T10:55:53Z</time>
      </trkpt>
      <trkpt lat="44.85351" lon="5.18606">
        <ele>804.28</ele>
        <time>2014-09-27T10:56:06Z</time>
      </trkpt>
      <trkpt lat="44.85338" lon="5.18607">
        <ele>802.84</ele>
        <time>2014-09-27T10:56:21Z</time>
      </trkpt>
      <trkpt lat="44.8533" lon="5.18615">
        <ele>801.4</ele>
        <time>2014-09-27T10:56:35Z</time>
      </trkpt>
      <trkpt lat="44.85317" lon="5.1862">
        <ele>799.95</ele>
        <time>2014-09-27T10:56:51Z</time>
      </trkpt>
      <trkpt lat="44.85303" lon="5.18622">
        <ele>798.03</ele>
        <time>2014-09-27T10:57:08Z</time>
      </trkpt>
      <trkpt lat="44.85303" lon="5.18634">
        <ele>795.63</ele>
        <time>2014-09-27T10:57:22Z</time>
      </trkpt>
      <trkpt lat="44.8531" lon="5.18637">
        <ele>793.71</ele>
        <time>2014-09-27T10:57:37Z</time>
      </trkpt>
      <trkpt lat="44.85307" lon="5.18642">
        <ele>791.78</ele>
        <time>2014-09-27T10:57:50Z</time>
      </trkpt>
      <trkpt lat="44.853" lon="5.18648">
        <ele>790.34</ele>
        <time>2014-09-27T10:58:05Z</time>
      </trkpt>
      <trkpt lat="44.85288" lon="5.18652">
        <ele>787.94</ele>
        <time>2014-09-27T10:58:22Z</time>
      </trkpt>
      <trkpt lat="44.85281" lon="5.18655">
        <ele>785.53</ele>
        <time>2014-09-27T10:58:38Z</time>
      </trkpt>
      <trkpt lat="44.85274" lon="5.18659">
        <ele>783.61</ele>
        <time>2014-09-27T10:58:50Z</time>
      </trkpt>
      <trkpt lat="44.85263" lon="5.18662">
        <ele>781.21</ele>
        <time>2014-09-27T10:59:06Z</time>
      </trkpt>
      <trkpt lat="44.85252" lon="5.18661">
        <ele>779.29</ele>
        <time>2014-09-27T10:59:22Z</time>
      </trkpt>
      <trkpt lat="44.85245" lon="5.18666">
        <ele>777.36</ele>
        <time>2014-09-27T10:59:36Z</time>
      </trkpt>
      <trkpt lat="44.85251" lon="5.18675">
        <ele>775.44</ele>
        <time>2014-09-27T10:59:50Z</time>
      </trkpt>
      <trkpt lat="44.85241" lon="5.18677">
        <ele>773.52</ele>
        <time>2014-09-27T11:00:04Z</time>
      </trkpt>
      <trkpt lat="44.85235" lon="5.18676">
        <ele>772.08</ele>
        <time>2014-09-27T11:00:11Z</time>
      </trkpt>
      <trkpt lat="44.85233" lon="5.18675">
        <ele>772.08</ele>
        <time>2014-09-27T11:00:13Z</time>
      </trkpt>
      <trkpt lat="44.85221" lon="5.18681">
        <ele>769.67</ele>
        <time>2014-09-27T11:00:26Z</time>
      </trkpt>
      <trkpt lat="44.85211" lon="5.18683">
        <ele>768.23</ele>
        <time>2014-09-27T11:00:40Z</time>
      </trkpt>
      <trkpt lat="44.85201" lon="5.18683">
        <ele>766.79</ele>
        <time>2014-09-27T11:00:54Z</time>
      </trkpt>
      <trkpt lat="44.85197" lon="5.18685">
        <ele>765.83</ele>
        <time>2014-09-27T11:01:07Z</time>
      </trkpt>
      <trkpt lat="44.85195" lon="5.18683">
        <ele>765.83</ele>
        <time>2014-09-27T11:01:29Z</time>
      </trkpt>
      <trkpt lat="44.85196" lon="5.18688">
        <ele>765.35</ele>
        <time>2014-09-27T11:01:48Z</time>
      </trkpt>
      <trkpt lat="44.85194" lon="5.18686">
        <ele>765.35</ele>
        <time>2014-09-27T11:02:17Z</time>
      </trkpt>
      <trkpt lat="44.85198" lon="5.18688">
        <ele>765.35</ele>
        <time>2014-09-27T11:02:48Z</time>
      </trkpt>
      <trkpt lat="44.85196" lon="5.18685">
        <ele>765.35</ele>
        <time>2014-09-27T11:03:21Z</time>
      </trkpt>
      <trkpt lat="44.85197" lon="5.18685">
        <ele>764.87</ele>
        <time>2014-09-27T11:03:52Z</time>
      </trkpt>
      <trkpt lat="44.85194" lon="5.18684">
        <ele>764.87</ele>
        <time>2014-09-27T11:04:17Z</time>
      </trkpt>
      <trkpt lat="44.85192" lon="5.1869">
        <ele>764.87</ele>
        <time>2014-09-27T11:04:46Z</time>
      </trkpt>
      <trkpt lat="44.85197" lon="5.18687">
        <ele>764.87</ele>
        <time>2014-09-27T11:05:17Z</time>
      </trkpt>
      <trkpt lat="44.85203" lon="5.18693">
        <ele>764.87</ele>
        <time>2014-09-27T11:05:50Z</time>
      </trkpt>
      <trkpt lat="44.85196" lon="5.18688">
        <ele>764.87</ele>
        <time>2014-09-27T11:06:25Z</time>
      </trkpt>
      <trkpt lat="44.852" lon="5.18692">
        <ele>764.87</ele>
        <time>2014-09-27T11:07:00Z</time>
      </trkpt>
      <trkpt lat="44.85197" lon="5.18695">
        <ele>765.35</ele>
        <time>2014-09-27T11:07:26Z</time>
      </trkpt>
      <trkpt lat="44.85194" lon="5.18692">
        <ele>765.35</ele>
        <time>2014-09-27T11:07:55Z</time>
      </trkpt>
      <trkpt lat="44.85198" lon="5.18697">
        <ele>765.35</ele>
        <time>2014-09-27T11:08:24Z</time>
      </trkpt>
      <trkpt lat="44.85197" lon="5.18695">
        <ele>764.87</ele>
        <time>2014-09-27T11:08:48Z</time>
      </trkpt>
      <trkpt lat="44.852" lon="5.18689">
        <ele>764.87</ele>
        <time>2014-09-27T11:09:18Z</time>
      </trkpt>
      <trkpt lat="44.85194" lon="5.18683">
        <ele>765.35</ele>
        <time>2014-09-27T11:09:49Z</time>
      </trkpt>
      <trkpt lat="44.85195" lon="5.18687">
        <ele>765.35</ele>
        <time>2014-09-27T11:10:25Z</time>
      </trkpt>
      <trkpt lat="44.85197" lon="5.1869">
        <ele>765.35</ele>
        <time>2014-09-27T11:10:56Z</time>
      </trkpt>
      <trkpt lat="44.85195" lon="5.1869">
        <ele>765.35</ele>
        <time>2014-09-27T11:11:31Z</time>
      </trkpt>
      <trkpt lat="44.85195" lon="5.18687">
        <ele>765.35</ele>
        <time>2014-09-27T11:12:05Z</time>
      </trkpt>
      <trkpt lat="44.85195" lon="5.18687">
        <ele>765.35</ele>
        <time>2014-09-27T11:12:36Z</time>
      </trkpt>
      <trkpt lat="44.85197" lon="5.18694">
        <ele>765.35</ele>
        <time>2014-09-27T11:13:03Z</time>
      </trkpt>
      <trkpt lat="44.85195" lon="5.1869">
        <ele>764.87</ele>
        <time>2014-09-27T11:13:31Z</time>
      </trkpt>
      <trkpt lat="44.85197" lon="5.18692">
        <ele>765.35</ele>
        <time>2014-09-27T11:14:01Z</time>
      </trkpt>
      <trkpt lat="44.85196" lon="5.18693">
        <ele>765.35</ele>
        <time>2014-09-27T11:14:29Z</time>
      </trkpt>
      <trkpt lat="44.85196" lon="5.18688">
        <ele>765.35</ele>
        <time>2014-09-27T11:14:56Z</time>
      </trkpt>
      <trkpt lat="44.85199" lon="5.1869">
        <ele>765.35</ele>
        <time>2014-09-27T11:15:27Z</time>
      </trkpt>
      <trkpt lat="44.85191" lon="5.18686">
        <ele>765.35</ele>
        <time>2014-09-27T11:15:57Z</time>
      </trkpt>
      <trkpt lat="44.85192" lon="5.18688">
        <ele>765.35</ele>
        <time>2014-09-27T11:16:30Z</time>
      </trkpt>
      <trkpt lat="44.85191" lon="5.18682">
        <ele>765.83</ele>
        <time>2014-09-27T11:16:57Z</time>
      </trkpt>
      <trkpt lat="44.85194" lon="5.18684">
        <ele>765.83</ele>
        <time>2014-09-27T11:17:24Z</time>
      </trkpt>
      <trkpt lat="44.85194" lon="5.18687">
        <ele>765.35</ele>
        <time>2014-09-27T11:17:50Z</time>
      </trkpt>
      <trkpt lat="44.85194" lon="5.18684">
        <ele>765.83</ele>
        <time>2014-09-27T11:18:15Z</time>
      </trkpt>
      <trkpt lat="44.85197" lon="5.18685">
        <ele>766.31</ele>
        <time>2014-09-27T11:18:43Z</time>
      </trkpt>
      <trkpt lat="44.85192" lon="5.18679">
        <ele>766.31</ele>
        <time>2014-09-27T11:19:07Z</time>
      </trkpt>
      <trkpt lat="44.85192" lon="5.18681">
        <ele>766.31</ele>
        <time>2014-09-27T11:19:37Z</time>
      </trkpt>
      <trkpt lat="44.8519" lon="5.1868">
        <ele>766.79</ele>
        <time>2014-09-27T11:20:05Z</time>
      </trkpt>
      <trkpt lat="44.85191" lon="5.1868">
        <ele>766.79</ele>
        <time>2014-09-27T11:20:31Z</time>
      </trkpt>
      <trkpt lat="44.85193" lon="5.18683">
        <ele>766.79</ele>
        <time>2014-09-27T11:20:52Z</time>
      </trkpt>
      <trkpt lat="44.85192" lon="5.18684">
        <ele>767.27</ele>
        <time>2014-09-27T11:21:18Z</time>
      </trkpt>
      <trkpt lat="44.85193" lon="5.18685">
        <ele>767.27</ele>
        <time>2014-09-27T11:21:50Z</time>
      </trkpt>
      <trkpt lat="44.85193" lon="5.18686">
        <ele>767.27</ele>
        <time>2014-09-27T11:22:21Z</time>
      </trkpt>
      <trkpt lat="44.85192" lon="5.18691">
        <ele>767.27</ele>
        <time>2014-09-27T11:22:49Z</time>
      </trkpt>
      <trkpt lat="44.85191" lon="5.1869">
        <ele>766.79</ele>
        <time>2014-09-27T11:23:11Z</time>
      </trkpt>
      <trkpt lat="44.85195" lon="5.18685">
        <ele>767.27</ele>
        <time>2014-09-27T11:23:31Z</time>
      </trkpt>
      <trkpt lat="44.85194" lon="5.18687">
        <ele>767.75</ele>
        <time>2014-09-27T11:23:58Z</time>
      </trkpt>
      <trkpt lat="44.85193" lon="5.18692">
        <ele>767.27</ele>
        <time>2014-09-27T11:24:16Z</time>
      </trkpt>
      <trkpt lat="44.8519" lon="5.18695">
        <ele>767.75</ele>
        <time>2014-09-27T11:24:59Z</time>
      </trkpt>
      <trkpt lat="44.85195" lon="5.18684">
        <ele>767.75</ele>
        <time>2014-09-27T11:25:18Z</time>
      </trkpt>
      <trkpt lat="44.85195" lon="5.18683">
        <ele>767.27</ele>
        <time>2014-09-27T11:25:43Z</time>
      </trkpt>
      <trkpt lat="44.85201" lon="5.18683">
        <ele>768.23</ele>
        <time>2014-09-27T11:26:07Z</time>
      </trkpt>
      <trkpt lat="44.85196" lon="5.18686">
        <ele>767.75</ele>
        <time>2014-09-27T11:26:29Z</time>
      </trkpt>
      <trkpt lat="44.85198" lon="5.18695">
        <ele>766.79</ele>
        <time>2014-09-27T11:26:41Z</time>
      </trkpt>
      <trkpt lat="44.85201" lon="5.18698">
        <ele>765.35</ele>
        <time>2014-09-27T11:26:56Z</time>
      </trkpt>
      <trkpt lat="44.85197" lon="5.18696">
        <ele>764.87</ele>
        <time>2014-09-27T11:27:15Z</time>
      </trkpt>
      <trkpt lat="44.85194" lon="5.18695">
        <ele>763.9</ele>
        <time>2014-09-27T11:27:32Z</time>
      </trkpt>
      <trkpt lat="44.85188" lon="5.18698">
        <ele>762.94</ele>
        <time>2014-09-27T11:27:57Z</time>
      </trkpt>
      <trkpt lat="44.85181" lon="5.18702">
        <ele>761.5</ele>
        <time>2014-09-27T11:28:09Z</time>
      </trkpt>
      <trkpt lat="44.85171" lon="5.18703">
        <ele>759.58</ele>
        <time>2014-09-27T11:28:26Z</time>
      </trkpt>
      <trkpt lat="44.85162" lon="5.18708">
        <ele>758.14</ele>
        <time>2014-09-27T11:28:41Z</time>
      </trkpt>
      <trkpt lat="44.85156" lon="5.18707">
        <ele>756.69</ele>
        <time>2014-09-27T11:28:55Z</time>
      </trkpt>
      <trkpt lat="44.85147" lon="5.1871">
        <ele>755.73</ele>
        <time>2014-09-27T11:29:09Z</time>
      </trkpt>
      <trkpt lat="44.85144" lon="5.18712">
        <ele>755.25</ele>
        <time>2014-09-27T11:29:22Z</time>
      </trkpt>
      <trkpt lat="44.85147" lon="5.1871">
        <ele>755.73</ele>
        <time>2014-09-27T11:29:46Z</time>
      </trkpt>
      <trkpt lat="44.85148" lon="5.18712">
        <ele>755.73</ele>
        <time>2014-09-27T11:30:17Z</time>
      </trkpt>
      <trkpt lat="44.85145" lon="5.1871">
        <ele>755.73</ele>
        <time>2014-09-27T11:30:40Z</time>
      </trkpt>
      <trkpt lat="44.85134" lon="5.18711">
        <ele>754.77</ele>
        <time>2014-09-27T11:30:52Z</time>
      </trkpt>
      <trkpt lat="44.85126" lon="5.18713">
        <ele>753.81</ele>
        <time>2014-09-27T11:31:03Z</time>
      </trkpt>
      <trkpt lat="44.85118" lon="5.18716">
        <ele>752.37</ele>
        <time>2014-09-27T11:31:14Z</time>
      </trkpt>
      <trkpt lat="44.85107" lon="5.18718">
        <ele>750.45</ele>
        <time>2014-09-27T11:31:28Z</time>
      </trkpt>
      <trkpt lat="44.85098" lon="5.18718">
        <ele>749</ele>
        <time>2014-09-27T11:31:41Z</time>
      </trkpt>
      <trkpt lat="44.85087" lon="5.18711">
        <ele>747.08</ele>
        <time>2014-09-27T11:31:57Z</time>
      </trkpt>
      <trkpt lat="44.85079" lon="5.18716">
        <ele>745.64</ele>
        <time>2014-09-27T11:32:09Z</time>
      </trkpt>
      <trkpt lat="44.85077" lon="5.18719">
        <ele>745.16</ele>
        <time>2014-09-27T11:32:12Z</time>
      </trkpt>
      <trkpt lat="44.85069" lon="5.18731">
        <ele>743.72</ele>
        <time>2014-09-27T11:32:26Z</time>
      </trkpt>
      <trkpt lat="44.85064" lon="5.18731">
        <ele>742.76</ele>
        <time>2014-09-27T11:32:32Z</time>
      </trkpt>
      <trkpt lat="44.8505" lon="5.18738">
        <ele>739.87</ele>
        <time>2014-09-27T11:32:48Z</time>
      </trkpt>
      <trkpt lat="44.85037" lon="5.18745">
        <ele>737.47</ele>
        <time>2014-09-27T11:33:03Z</time>
      </trkpt>
      <trkpt lat="44.85027" lon="5.18751">
        <ele>735.07</ele>
        <time>2014-09-27T11:33:17Z</time>
      </trkpt>
      <trkpt lat="44.85017" lon="5.18756">
        <ele>733.14</ele>
        <time>2014-09-27T11:33:32Z</time>
      </trkpt>
      <trkpt lat="44.85014" lon="5.18757">
        <ele>732.66</ele>
        <time>2014-09-27T11:33:54Z</time>
      </trkpt>
      <trkpt lat="44.85014" lon="5.18759">
        <ele>732.66</ele>
        <time>2014-09-27T11:34:12Z</time>
      </trkpt>
      <trkpt lat="44.85016" lon="5.18756">
        <ele>732.66</ele>
        <time>2014-09-27T11:34:39Z</time>
      </trkpt>
      <trkpt lat="44.85004" lon="5.18758">
        <ele>731.22</ele>
        <time>2014-09-27T11:34:55Z</time>
      </trkpt>
      <trkpt lat="44.84991" lon="5.18765">
        <ele>729.78</ele>
        <time>2014-09-27T11:35:09Z</time>
      </trkpt>
      <trkpt lat="44.84981" lon="5.18767">
        <ele>728.34</ele>
        <time>2014-09-27T11:35:25Z</time>
      </trkpt>
      <trkpt lat="44.84969" lon="5.18769">
        <ele>726.89</ele>
        <time>2014-09-27T11:35:39Z</time>
      </trkpt>
      <trkpt lat="44.8496" lon="5.18772">
        <ele>724.97</ele>
        <time>2014-09-27T11:35:53Z</time>
      </trkpt>
      <trkpt lat="44.84947" lon="5.18778">
        <ele>723.05</ele>
        <time>2014-09-27T11:36:09Z</time>
      </trkpt>
      <trkpt lat="44.84936" lon="5.18783">
        <ele>721.13</ele>
        <time>2014-09-27T11:36:23Z</time>
      </trkpt>
      <trkpt lat="44.84926" lon="5.18787">
        <ele>719.2</ele>
        <time>2014-09-27T11:36:37Z</time>
      </trkpt>
      <trkpt lat="44.84913" lon="5.18788">
        <ele>717.28</ele>
        <time>2014-09-27T11:36:52Z</time>
      </trkpt>
      <trkpt lat="44.84902" lon="5.18794">
        <ele>715.36</ele>
        <time>2014-09-27T11:37:05Z</time>
      </trkpt>
      <trkpt lat="44.84891" lon="5.18802">
        <ele>712.95</ele>
        <time>2014-09-27T11:37:20Z</time>
      </trkpt>
      <trkpt lat="44.84885" lon="5.18806">
        <ele>711.99</ele>
        <time>2014-09-27T11:37:30Z</time>
      </trkpt>
      <trkpt lat="44.84876" lon="5.1881">
        <ele>710.07</ele>
        <time>2014-09-27T11:37:43Z</time>
      </trkpt>
      <trkpt lat="44.84866" lon="5.18812">
        <ele>708.63</ele>
        <time>2014-09-27T11:37:58Z</time>
      </trkpt>
      <trkpt lat="44.84854" lon="5.18816">
        <ele>707.19</ele>
        <time>2014-09-27T11:38:13Z</time>
      </trkpt>
      <trkpt lat="44.84845" lon="5.1882">
        <ele>705.26</ele>
        <time>2014-09-27T11:38:26Z</time>
      </trkpt>
      <trkpt lat="44.84836" lon="5.18827">
        <ele>703.34</ele>
        <time>2014-09-27T11:38:37Z</time>
      </trkpt>
      <trkpt lat="44.84827" lon="5.1883">
        <ele>701.42</ele>
        <time>2014-09-27T11:38:51Z</time>
      </trkpt>
      <trkpt lat="44.84822" lon="5.1882">
        <ele>701.9</ele>
        <time>2014-09-27T11:39:13Z</time>
      </trkpt>
      <trkpt lat="44.84816" lon="5.18818">
        <ele>699.02</ele>
        <time>2014-09-27T11:39:30Z</time>
      </trkpt>
      <trkpt lat="44.84808" lon="5.18828">
        <ele>698.05</ele>
        <time>2014-09-27T11:39:43Z</time>
      </trkpt>
      <trkpt lat="44.84798" lon="5.18835">
        <ele>696.13</ele>
        <time>2014-09-27T11:39:58Z</time>
      </trkpt>
      <trkpt lat="44.84795" lon="5.18837">
        <ele>696.13</ele>
        <time>2014-09-27T11:40:01Z</time>
      </trkpt>
      <trkpt lat="44.84792" lon="5.18839">
        <ele>695.65</ele>
        <time>2014-09-27T11:40:04Z</time>
      </trkpt>
      <trkpt lat="44.84777" lon="5.18848">
        <ele>693.73</ele>
        <time>2014-09-27T11:40:19Z</time>
      </trkpt>
      <trkpt lat="44.84768" lon="5.18851">
        <ele>692.77</ele>
        <time>2014-09-27T11:40:28Z</time>
      </trkpt>
      <trkpt lat="44.84765" lon="5.18853">
        <ele>692.77</ele>
        <time>2014-09-27T11:40:30Z</time>
      </trkpt>
      <trkpt lat="44.84757" lon="5.18856">
        <ele>691.33</ele>
        <time>2014-09-27T11:40:37Z</time>
      </trkpt>
      <trkpt lat="44.84743" lon="5.18859">
        <ele>689.4</ele>
        <time>2014-09-27T11:40:50Z</time>
      </trkpt>
      <trkpt lat="44.84725" lon="5.18852">
        <ele>686.52</ele>
        <time>2014-09-27T11:41:08Z</time>
      </trkpt>
      <trkpt lat="44.84711" lon="5.18846">
        <ele>685.56</ele>
        <time>2014-09-27T11:41:20Z</time>
      </trkpt>
      <trkpt lat="44.84693" lon="5.18845">
        <ele>684.12</ele>
        <time>2014-09-27T11:41:36Z</time>
      </trkpt>
      <trkpt lat="44.84675" lon="5.18848">
        <ele>682.19</ele>
        <time>2014-09-27T11:41:51Z</time>
      </trkpt>
      <trkpt lat="44.84659" lon="5.18848">
        <ele>679.79</ele>
        <time>2014-09-27T11:42:06Z</time>
      </trkpt>
      <trkpt lat="44.84643" lon="5.18857">
        <ele>677.39</ele>
        <time>2014-09-27T11:42:21Z</time>
      </trkpt>
      <trkpt lat="44.84626" lon="5.18865">
        <ele>675.46</ele>
        <time>2014-09-27T11:42:36Z</time>
      </trkpt>
      <trkpt lat="44.84618" lon="5.18867">
        <ele>674.5</ele>
        <time>2014-09-27T11:42:43Z</time>
      </trkpt>
      <trkpt lat="44.84615" lon="5.18867">
        <ele>674.02</ele>
        <time>2014-09-27T11:42:46Z</time>
      </trkpt>
      <trkpt lat="44.846" lon="5.18867">
        <ele>673.06</ele>
        <time>2014-09-27T11:43:02Z</time>
      </trkpt>
      <trkpt lat="44.84597" lon="5.18868">
        <ele>673.06</ele>
        <time>2014-09-27T11:43:16Z</time>
      </trkpt>
      <trkpt lat="44.84597" lon="5.18868">
        <ele>673.06</ele>
        <time>2014-09-27T11:43:32Z</time>
      </trkpt>
      <trkpt lat="44.84597" lon="5.18867">
        <ele>673.06</ele>
        <time>2014-09-27T11:43:48Z</time>
      </trkpt>
      <trkpt lat="44.84593" lon="5.18868">
        <ele>672.58</ele>
        <time>2014-09-27T11:44:04Z</time>
      </trkpt>
      <trkpt lat="44.84584" lon="5.1886">
        <ele>671.62</ele>
        <time>2014-09-27T11:44:17Z</time>
      </trkpt>
      <trkpt lat="44.84566" lon="5.18856">
        <ele>672.1</ele>
        <time>2014-09-27T11:44:32Z</time>
      </trkpt>
      <trkpt lat="44.84547" lon="5.18843">
        <ele>674.5</ele>
        <time>2014-09-27T11:44:46Z</time>
      </trkpt>
      <trkpt lat="44.84534" lon="5.18836">
        <ele>675.94</ele>
        <time>2014-09-27T11:44:58Z</time>
      </trkpt>
      <trkpt lat="44.84525" lon="5.18841">
        <ele>677.87</ele>
        <time>2014-09-27T11:45:10Z</time>
      </trkpt>
      <trkpt lat="44.84515" lon="5.18843">
        <ele>679.31</ele>
        <time>2014-09-27T11:45:23Z</time>
      </trkpt>
      <trkpt lat="44.84503" lon="5.18844">
        <ele>679.31</ele>
        <time>2014-09-27T11:45:36Z</time>
      </trkpt>
      <trkpt lat="44.8449" lon="5.18839">
        <ele>679.31</ele>
        <time>2014-09-27T11:45:50Z</time>
      </trkpt>
      <trkpt lat="44.8448" lon="5.18835">
        <ele>679.31</ele>
        <time>2014-09-27T11:46:02Z</time>
      </trkpt>
      <trkpt lat="44.84472" lon="5.1882">
        <ele>678.35</ele>
        <time>2014-09-27T11:46:13Z</time>
      </trkpt>
      <trkpt lat="44.84472" lon="5.18817">
        <ele>678.35</ele>
        <time>2014-09-27T11:46:15Z</time>
      </trkpt>
      <trkpt lat="44.84472" lon="5.1881">
        <ele>677.39</ele>
        <time>2014-09-27T11:46:20Z</time>
      </trkpt>
      <trkpt lat="44.84465" lon="5.18805">
        <ele>676.42</ele>
        <time>2014-09-27T11:46:27Z</time>
      </trkpt>
      <trkpt lat="44.84462" lon="5.18804">
        <ele>675.94</ele>
        <time>2014-09-27T11:46:29Z</time>
      </trkpt>
      <trkpt lat="44.84452" lon="5.188">
        <ele>674.98</ele>
        <time>2014-09-27T11:46:36Z</time>
      </trkpt>
      <trkpt lat="44.84434" lon="5.18798">
        <ele>673.06</ele>
        <time>2014-09-27T11:46:49Z</time>
      </trkpt>
      <trkpt lat="44.84431" lon="5.18798">
        <ele>673.06</ele>
        <time>2014-09-27T11:46:51Z</time>
      </trkpt>
      <trkpt lat="44.84415" lon="5.18798">
        <ele>672.1</ele>
        <time>2014-09-27T11:47:05Z</time>
      </trkpt>
      <trkpt lat="44.84405" lon="5.18799">
        <ele>670.66</ele>
        <time>2014-09-27T11:47:13Z</time>
      </trkpt>
      <trkpt lat="44.84388" lon="5.18806">
        <ele>669.22</ele>
        <time>2014-09-27T11:47:30Z</time>
      </trkpt>
      <trkpt lat="44.8437" lon="5.18811">
        <ele>667.77</ele>
        <time>2014-09-27T11:47:46Z</time>
      </trkpt>
      <trkpt lat="44.84353" lon="5.18815">
        <ele>666.33</ele>
        <time>2014-09-27T11:48:01Z</time>
      </trkpt>
      <trkpt lat="44.84344" lon="5.18824">
        <ele>664.41</ele>
        <time>2014-09-27T11:48:12Z</time>
      </trkpt>
      <trkpt lat="44.84333" lon="5.18829">
        <ele>662.97</ele>
        <time>2014-09-27T11:48:25Z</time>
      </trkpt>
      <trkpt lat="44.84321" lon="5.18837">
        <ele>661.52</ele>
        <time>2014-09-27T11:48:36Z</time>
      </trkpt>
      <trkpt lat="44.84307" lon="5.18846">
        <ele>659.6</ele>
        <time>2014-09-27T11:48:48Z</time>
      </trkpt>
      <trkpt lat="44.84293" lon="5.18855">
        <ele>657.68</ele>
        <time>2014-09-27T11:49:00Z</time>
      </trkpt>
      <trkpt lat="44.8428" lon="5.18863">
        <ele>656.72</ele>
        <time>2014-09-27T11:49:13Z</time>
      </trkpt>
      <trkpt lat="44.84272" lon="5.1887">
        <ele>656.24</ele>
        <time>2014-09-27T11:49:22Z</time>
      </trkpt>
      <trkpt lat="44.8425" lon="5.18883">
        <ele>655.28</ele>
        <time>2014-09-27T11:49:36Z</time>
      </trkpt>
      <trkpt lat="44.84247" lon="5.18883">
        <ele>655.28</ele>
        <time>2014-09-27T11:49:39Z</time>
      </trkpt>
      <trkpt lat="44.84235" lon="5.18879">
        <ele>652.39</ele>
        <time>2014-09-27T11:49:54Z</time>
      </trkpt>
      <trkpt lat="44.84226" lon="5.18872">
        <ele>650.47</ele>
        <time>2014-09-27T11:50:07Z</time>
      </trkpt>
      <trkpt lat="44.84225" lon="5.18857">
        <ele>649.51</ele>
        <time>2014-09-27T11:50:20Z</time>
      </trkpt>
      <trkpt lat="44.84225" lon="5.18856">
        <ele>649.51</ele>
        <time>2014-09-27T11:50:21Z</time>
      </trkpt>
      <trkpt lat="44.84234" lon="5.18837">
        <ele>648.55</ele>
        <time>2014-09-27T11:50:37Z</time>
      </trkpt>
      <trkpt lat="44.84233" lon="5.18815">
        <ele>647.1</ele>
        <time>2014-09-27T11:50:49Z</time>
      </trkpt>
      <trkpt lat="44.84227" lon="5.18809">
        <ele>645.66</ele>
        <time>2014-09-27T11:50:56Z</time>
      </trkpt>
      <trkpt lat="44.84214" lon="5.18803">
        <ele>643.26</ele>
        <time>2014-09-27T11:51:10Z</time>
      </trkpt>
      <trkpt lat="44.84207" lon="5.188">
        <ele>640.38</ele>
        <time>2014-09-27T11:51:24Z</time>
      </trkpt>
      <trkpt lat="44.84199" lon="5.18798">
        <ele>637.49</ele>
        <time>2014-09-27T11:51:39Z</time>
      </trkpt>
      <trkpt lat="44.8419" lon="5.18798">
        <ele>634.61</ele>
        <time>2014-09-27T11:51:53Z</time>
      </trkpt>
      <trkpt lat="44.84188" lon="5.18798">
        <ele>634.13</ele>
        <time>2014-09-27T11:51:55Z</time>
      </trkpt>
      <trkpt lat="44.84177" lon="5.18807">
        <ele>632.2</ele>
        <time>2014-09-27T11:52:08Z</time>
      </trkpt>
      <trkpt lat="44.8417" lon="5.18817">
        <ele>630.28</ele>
        <time>2014-09-27T11:52:18Z</time>
      </trkpt>
      <trkpt lat="44.84155" lon="5.18827">
        <ele>626.92</ele>
        <time>2014-09-27T11:52:33Z</time>
      </trkpt>
      <trkpt lat="44.84159" lon="5.18838">
        <ele>624.03</ele>
        <time>2014-09-27T11:52:45Z</time>
      </trkpt>
      <trkpt lat="44.84168" lon="5.18844">
        <ele>621.63</ele>
        <time>2014-09-27T11:52:59Z</time>
      </trkpt>
      <trkpt lat="44.8418" lon="5.18843">
        <ele>618.75</ele>
        <time>2014-09-27T11:53:13Z</time>
      </trkpt>
      <trkpt lat="44.84184" lon="5.18849">
        <ele>616.34</ele>
        <time>2014-09-27T11:53:27Z</time>
      </trkpt>
      <trkpt lat="44.8418" lon="5.18848">
        <ele>614.9</ele>
        <time>2014-09-27T11:53:46Z</time>
      </trkpt>
      <trkpt lat="44.84178" lon="5.18858">
        <ele>612.98</ele>
        <time>2014-09-27T11:54:02Z</time>
      </trkpt>
      <trkpt lat="44.84166" lon="5.18866">
        <ele>610.09</ele>
        <time>2014-09-27T11:54:17Z</time>
      </trkpt>
      <trkpt lat="44.84157" lon="5.18871">
        <ele>607.69</ele>
        <time>2014-09-27T11:54:31Z</time>
      </trkpt>
      <trkpt lat="44.84145" lon="5.18877">
        <ele>604.81</ele>
        <time>2014-09-27T11:54:46Z</time>
      </trkpt>
      <trkpt lat="44.84133" lon="5.18884">
        <ele>601.92</ele>
        <time>2014-09-27T11:55:02Z</time>
      </trkpt>
      <trkpt lat="44.84127" lon="5.18892">
        <ele>600</ele>
        <time>2014-09-27T11:55:17Z</time>
      </trkpt>
      <trkpt lat="44.84118" lon="5.18898">
        <ele>598.08</ele>
        <time>2014-09-27T11:55:29Z</time>
      </trkpt>
      <trkpt lat="44.84111" lon="5.18901">
        <ele>596.64</ele>
        <time>2014-09-27T11:55:43Z</time>
      </trkpt>
      <trkpt lat="44.84108" lon="5.18911">
        <ele>594.71</ele>
        <time>2014-09-27T11:55:55Z</time>
      </trkpt>
      <trkpt lat="44.84103" lon="5.18915">
        <ele>595.19</ele>
        <time>2014-09-27T11:56:02Z</time>
      </trkpt>
      <trkpt lat="44.84095" lon="5.18916">
        <ele>595.67</ele>
        <time>2014-09-27T11:56:13Z</time>
      </trkpt>
      <trkpt lat="44.84089" lon="5.1892">
        <ele>594.71</ele>
        <time>2014-09-27T11:56:22Z</time>
      </trkpt>
      <trkpt lat="44.84072" lon="5.18928">
        <ele>593.75</ele>
        <time>2014-09-27T11:56:39Z</time>
      </trkpt>
      <trkpt lat="44.84063" lon="5.18928">
        <ele>593.75</ele>
        <time>2014-09-27T11:56:47Z</time>
      </trkpt>
      <trkpt lat="44.84045" lon="5.18936">
        <ele>593.75</ele>
        <time>2014-09-27T11:56:57Z</time>
      </trkpt>
      <trkpt lat="44.84024" lon="5.18948">
        <ele>593.75</ele>
        <time>2014-09-27T11:57:11Z</time>
      </trkpt>
      <trkpt lat="44.84012" lon="5.18936">
        <ele>593.27</ele>
        <time>2014-09-27T11:57:27Z</time>
      </trkpt>
      <trkpt lat="44.84011" lon="5.18933">
        <ele>593.27</ele>
        <time>2014-09-27T11:57:29Z</time>
      </trkpt>
      <trkpt lat="44.83999" lon="5.18916">
        <ele>592.31</ele>
        <time>2014-09-27T11:57:45Z</time>
      </trkpt>
      <trkpt lat="44.83998" lon="5.18914">
        <ele>592.31</ele>
        <time>2014-09-27T11:57:47Z</time>
      </trkpt>
      <trkpt lat="44.83997" lon="5.18913">
        <ele>592.31</ele>
        <time>2014-09-27T11:57:48Z</time>
      </trkpt>
      <trkpt lat="44.8397" lon="5.18886">
        <ele>591.35</ele>
        <time>2014-09-27T11:58:00Z</time>
      </trkpt>
      <trkpt lat="44.83965" lon="5.18878">
        <ele>591.35</ele>
        <time>2014-09-27T11:58:07Z</time>
      </trkpt>
      <trkpt lat="44.83947" lon="5.18866">
        <ele>590.39</ele>
        <time>2014-09-27T11:58:22Z</time>
      </trkpt>
      <trkpt lat="44.83943" lon="5.18865">
        <ele>589.91</ele>
        <time>2014-09-27T11:58:26Z</time>
      </trkpt>
      <trkpt lat="44.83933" lon="5.18865">
        <ele>589.43</ele>
        <time>2014-09-27T11:58:32Z</time>
      </trkpt>
      <trkpt lat="44.83904" lon="5.18864">
        <ele>587.5</ele>
        <time>2014-09-27T11:58:49Z</time>
      </trkpt>
      <trkpt lat="44.83881" lon="5.18869">
        <ele>587.02</ele>
        <time>2014-09-27T11:59:03Z</time>
      </trkpt>
      <trkpt lat="44.83868" lon="5.18865">
        <ele>585.1</ele>
        <time>2014-09-27T11:59:19Z</time>
      </trkpt>
      <trkpt lat="44.8385" lon="5.18865">
        <ele>584.14</ele>
        <time>2014-09-27T11:59:36Z</time>
      </trkpt>
      <trkpt lat="44.83846" lon="5.18849">
        <ele>582.7</ele>
        <time>2014-09-27T11:59:50Z</time>
      </trkpt>
      <trkpt lat="44.83842" lon="5.18842">
        <ele>581.73</ele>
        <time>2014-09-27T11:59:59Z</time>
      </trkpt>
      <trkpt lat="44.83835" lon="5.18813">
        <ele>581.25</ele>
        <time>2014-09-27T12:00:19Z</time>
      </trkpt>
      <trkpt lat="44.83831" lon="5.18815">
        <ele>581.25</ele>
        <time>2014-09-27T12:00:32Z</time>
      </trkpt>
      <trkpt lat="44.83832" lon="5.18816">
        <ele>581.73</ele>
        <time>2014-09-27T12:00:33Z</time>
      </trkpt>
      <trkpt lat="44.83828" lon="5.18831">
        <ele>580.77</ele>
        <time>2014-09-27T12:00:49Z</time>
      </trkpt>
      <trkpt lat="44.83828" lon="5.18845">
        <ele>579.33</ele>
        <time>2014-09-27T12:01:01Z</time>
      </trkpt>
      <trkpt lat="44.83825" lon="5.18859">
        <ele>577.89</ele>
        <time>2014-09-27T12:01:17Z</time>
      </trkpt>
      <trkpt lat="44.83821" lon="5.18857">
        <ele>577.41</ele>
        <time>2014-09-27T12:01:24Z</time>
      </trkpt>
      <trkpt lat="44.83811" lon="5.1884">
        <ele>576.93</ele>
        <time>2014-09-27T12:01:38Z</time>
      </trkpt>
      <trkpt lat="44.83809" lon="5.18833">
        <ele>576.45</ele>
        <time>2014-09-27T12:02:00Z</time>
      </trkpt>
      <trkpt lat="44.83815" lon="5.18825">
        <ele>576.93</ele>
        <time>2014-09-27T12:02:17Z</time>
      </trkpt>
      <trkpt lat="44.83823" lon="5.18839">
        <ele>577.89</ele>
        <time>2014-09-27T12:02:31Z</time>
      </trkpt>
      <trkpt lat="44.83827" lon="5.18839">
        <ele>579.33</ele>
        <time>2014-09-27T12:02:44Z</time>
      </trkpt>
      <trkpt lat="44.83831" lon="5.18831">
        <ele>580.77</ele>
        <time>2014-09-27T12:02:56Z</time>
      </trkpt>
      <trkpt lat="44.83839" lon="5.18824">
        <ele>582.22</ele>
        <time>2014-09-27T12:03:09Z</time>
      </trkpt>
      <trkpt lat="44.83839" lon="5.18821">
        <ele>582.22</ele>
        <time>2014-09-27T12:03:11Z</time>
      </trkpt>
      <trkpt lat="44.8383" lon="5.18817">
        <ele>582.22</ele>
        <time>2014-09-27T12:03:27Z</time>
      </trkpt>
      <trkpt lat="44.83833" lon="5.18823">
        <ele>582.22</ele>
        <time>2014-09-27T12:03:32Z</time>
      </trkpt>
      <trkpt lat="44.83839" lon="5.18843">
        <ele>583.18</ele>
        <time>2014-09-27T12:03:49Z</time>
      </trkpt>
      <trkpt lat="44.83844" lon="5.18863">
        <ele>583.66</ele>
        <time>2014-09-27T12:04:02Z</time>
      </trkpt>
      <trkpt lat="44.83855" lon="5.18882">
        <ele>585.1</ele>
        <time>2014-09-27T12:04:22Z</time>
      </trkpt>
      <trkpt lat="44.83878" lon="5.18882">
        <ele>586.54</ele>
        <time>2014-09-27T12:04:39Z</time>
      </trkpt>
      <trkpt lat="44.83899" lon="5.18895">
        <ele>587.5</ele>
        <time>2014-09-27T12:04:54Z</time>
      </trkpt>
      <trkpt lat="44.83915" lon="5.18892">
        <ele>588.46</ele>
        <time>2014-09-27T12:05:10Z</time>
      </trkpt>
      <trkpt lat="44.83928" lon="5.18893">
        <ele>589.91</ele>
        <time>2014-09-27T12:05:22Z</time>
      </trkpt>
      <trkpt lat="44.83943" lon="5.18898">
        <ele>590.87</ele>
        <time>2014-09-27T12:05:35Z</time>
      </trkpt>
      <trkpt lat="44.83952" lon="5.18907">
        <ele>591.83</ele>
        <time>2014-09-27T12:05:45Z</time>
      </trkpt>
      <trkpt lat="44.83969" lon="5.18917">
        <ele>592.79</ele>
        <time>2014-09-27T12:06:02Z</time>
      </trkpt>
      <trkpt lat="44.83983" lon="5.18929">
        <ele>593.27</ele>
        <time>2014-09-27T12:06:17Z</time>
      </trkpt>
      <trkpt lat="44.84001" lon="5.18939">
        <ele>594.71</ele>
        <time>2014-09-27T12:06:31Z</time>
      </trkpt>
      <trkpt lat="44.84017" lon="5.18948">
        <ele>594.71</ele>
        <time>2014-09-27T12:06:45Z</time>
      </trkpt>
      <trkpt lat="44.84018" lon="5.18948">
        <ele>595.19</ele>
        <time>2014-09-27T12:06:46Z</time>
      </trkpt>
      <trkpt lat="44.84035" lon="5.18948">
        <ele>595.19</ele>
        <time>2014-09-27T12:06:58Z</time>
      </trkpt>
      <trkpt lat="44.8405" lon="5.18949">
        <ele>595.19</ele>
        <time>2014-09-27T12:07:12Z</time>
      </trkpt>
      <trkpt lat="44.84065" lon="5.18947">
        <ele>595.67</ele>
        <time>2014-09-27T12:07:26Z</time>
      </trkpt>
      <trkpt lat="44.84086" lon="5.18927">
        <ele>595.67</ele>
        <time>2014-09-27T12:07:42Z</time>
      </trkpt>
      <trkpt lat="44.84094" lon="5.18922">
        <ele>595.67</ele>
        <time>2014-09-27T12:07:48Z</time>
      </trkpt>
      <trkpt lat="44.84104" lon="5.18917">
        <ele>596.15</ele>
        <time>2014-09-27T12:07:57Z</time>
      </trkpt>
      <trkpt lat="44.8411" lon="5.18915">
        <ele>596.15</ele>
        <time>2014-09-27T12:08:10Z</time>
      </trkpt>
      <trkpt lat="44.8411" lon="5.18907">
        <ele>596.15</ele>
        <time>2014-09-27T12:08:25Z</time>
      </trkpt>
      <trkpt lat="44.84112" lon="5.18899">
        <ele>597.6</ele>
        <time>2014-09-27T12:08:37Z</time>
      </trkpt>
      <trkpt lat="44.84121" lon="5.18899">
        <ele>599.04</ele>
        <time>2014-09-27T12:08:51Z</time>
      </trkpt>
      <trkpt lat="44.84126" lon="5.18892">
        <ele>600.96</ele>
        <time>2014-09-27T12:09:03Z</time>
      </trkpt>
      <trkpt lat="44.84132" lon="5.18884">
        <ele>602.4</ele>
        <time>2014-09-27T12:09:15Z</time>
      </trkpt>
      <trkpt lat="44.8414" lon="5.18877">
        <ele>603.85</ele>
        <time>2014-09-27T12:09:27Z</time>
      </trkpt>
      <trkpt lat="44.84146" lon="5.18876">
        <ele>606.25</ele>
        <time>2014-09-27T12:09:41Z</time>
      </trkpt>
      <trkpt lat="44.84156" lon="5.1887">
        <ele>608.17</ele>
        <time>2014-09-27T12:09:56Z</time>
      </trkpt>
      <trkpt lat="44.84164" lon="5.18866">
        <ele>610.57</ele>
        <time>2014-09-27T12:10:13Z</time>
      </trkpt>
      <trkpt lat="44.84171" lon="5.18862">
        <ele>612.5</ele>
        <time>2014-09-27T12:10:27Z</time>
      </trkpt>
      <trkpt lat="44.84178" lon="5.18848">
        <ele>613.94</ele>
        <time>2014-09-27T12:10:42Z</time>
      </trkpt>
      <trkpt lat="44.84182" lon="5.1884">
        <ele>616.34</ele>
        <time>2014-09-27T12:10:56Z</time>
      </trkpt>
      <trkpt lat="44.84189" lon="5.1884">
        <ele>618.26</ele>
        <time>2014-09-27T12:11:11Z</time>
      </trkpt>
      <trkpt lat="44.84181" lon="5.1882">
        <ele>620.19</ele>
        <time>2014-09-27T12:11:24Z</time>
      </trkpt>
      <trkpt lat="44.84173" lon="5.1883">
        <ele>621.63</ele>
        <time>2014-09-27T12:11:36Z</time>
      </trkpt>
      <trkpt lat="44.84167" lon="5.18831">
        <ele>623.55</ele>
        <time>2014-09-27T12:11:48Z</time>
      </trkpt>
      <trkpt lat="44.8416" lon="5.18833">
        <ele>624.99</ele>
        <time>2014-09-27T12:12:01Z</time>
      </trkpt>
      <trkpt lat="44.84156" lon="5.18828">
        <ele>626.92</ele>
        <time>2014-09-27T12:12:15Z</time>
      </trkpt>
      <trkpt lat="44.84162" lon="5.18819">
        <ele>629.32</ele>
        <time>2014-09-27T12:12:30Z</time>
      </trkpt>
      <trkpt lat="44.84165" lon="5.1882">
        <ele>630.76</ele>
        <time>2014-09-27T12:12:44Z</time>
      </trkpt>
      <trkpt lat="44.84173" lon="5.18813">
        <ele>632.68</ele>
        <time>2014-09-27T12:13:00Z</time>
      </trkpt>
      <trkpt lat="44.84183" lon="5.18802">
        <ele>635.09</ele>
        <time>2014-09-27T12:13:17Z</time>
      </trkpt>
      <trkpt lat="44.84195" lon="5.18802">
        <ele>636.53</ele>
        <time>2014-09-27T12:13:32Z</time>
      </trkpt>
      <trkpt lat="44.84201" lon="5.18807">
        <ele>638.45</ele>
        <time>2014-09-27T12:13:44Z</time>
      </trkpt>
      <trkpt lat="44.84206" lon="5.18807">
        <ele>640.38</ele>
        <time>2014-09-27T12:13:57Z</time>
      </trkpt>
      <trkpt lat="44.84212" lon="5.18805">
        <ele>642.78</ele>
        <time>2014-09-27T12:14:11Z</time>
      </trkpt>
      <trkpt lat="44.84217" lon="5.18805">
        <ele>644.7</ele>
        <time>2014-09-27T12:14:25Z</time>
      </trkpt>
      <trkpt lat="44.84227" lon="5.18807">
        <ele>646.62</ele>
        <time>2014-09-27T12:14:41Z</time>
      </trkpt>
      <trkpt lat="44.84229" lon="5.1881">
        <ele>647.59</ele>
        <time>2014-09-27T12:14:49Z</time>
      </trkpt>
      <trkpt lat="44.8423" lon="5.1882">
        <ele>649.03</ele>
        <time>2014-09-27T12:15:01Z</time>
      </trkpt>
      <trkpt lat="44.84227" lon="5.18831">
        <ele>649.51</ele>
        <time>2014-09-27T12:15:15Z</time>
      </trkpt>
      <trkpt lat="44.84223" lon="5.1884">
        <ele>650.47</ele>
        <time>2014-09-27T12:15:25Z</time>
      </trkpt>
      <trkpt lat="44.84222" lon="5.18844">
        <ele>650.47</ele>
        <time>2014-09-27T12:15:29Z</time>
      </trkpt>
      <trkpt lat="44.84221" lon="5.18846">
        <ele>650.47</ele>
        <time>2014-09-27T12:15:31Z</time>
      </trkpt>
      <trkpt lat="44.84223" lon="5.18858">
        <ele>651.43</ele>
        <time>2014-09-27T12:15:41Z</time>
      </trkpt>
      <trkpt lat="44.84229" lon="5.18867">
        <ele>652.39</ele>
        <time>2014-09-27T12:15:53Z</time>
      </trkpt>
      <trkpt lat="44.84237" lon="5.18873">
        <ele>654.31</ele>
        <time>2014-09-27T12:16:07Z</time>
      </trkpt>
      <trkpt lat="44.84239" lon="5.18873">
        <ele>654.31</ele>
        <time>2014-09-27T12:16:09Z</time>
      </trkpt>
      <trkpt lat="44.84247" lon="5.18878">
        <ele>655.76</ele>
        <time>2014-09-27T12:16:21Z</time>
      </trkpt>
      <trkpt lat="44.84251" lon="5.18878">
        <ele>656.24</ele>
        <time>2014-09-27T12:16:26Z</time>
      </trkpt>
      <trkpt lat="44.84265" lon="5.18872">
        <ele>656.24</ele>
        <time>2014-09-27T12:16:41Z</time>
      </trkpt>
      <trkpt lat="44.84267" lon="5.1887">
        <ele>656.24</ele>
        <time>2014-09-27T12:16:44Z</time>
      </trkpt>
      <trkpt lat="44.84271" lon="5.18866">
        <ele>656.72</ele>
        <time>2014-09-27T12:16:48Z</time>
      </trkpt>
      <trkpt lat="44.84283" lon="5.18858">
        <ele>657.2</ele>
        <time>2014-09-27T12:17:04Z</time>
      </trkpt>
      <trkpt lat="44.84291" lon="5.18853">
        <ele>658.16</ele>
        <time>2014-09-27T12:17:15Z</time>
      </trkpt>
      <trkpt lat="44.84299" lon="5.18849">
        <ele>659.12</ele>
        <time>2014-09-27T12:17:26Z</time>
      </trkpt>
      <trkpt lat="44.84309" lon="5.1884">
        <ele>660.56</ele>
        <time>2014-09-27T12:17:40Z</time>
      </trkpt>
      <trkpt lat="44.84318" lon="5.18832">
        <ele>662.01</ele>
        <time>2014-09-27T12:17:53Z</time>
      </trkpt>
      <trkpt lat="44.84331" lon="5.18827">
        <ele>663.45</ele>
        <time>2014-09-27T12:18:08Z</time>
      </trkpt>
      <trkpt lat="44.84342" lon="5.18818">
        <ele>664.89</ele>
        <time>2014-09-27T12:18:21Z</time>
      </trkpt>
      <trkpt lat="44.84349" lon="5.18811">
        <ele>665.85</ele>
        <time>2014-09-27T12:18:32Z</time>
      </trkpt>
      <trkpt lat="44.84358" lon="5.18809">
        <ele>666.81</ele>
        <time>2014-09-27T12:18:44Z</time>
      </trkpt>
      <trkpt lat="44.84361" lon="5.18809">
        <ele>666.81</ele>
        <time>2014-09-27T12:18:46Z</time>
      </trkpt>
      <trkpt lat="44.84374" lon="5.18805">
        <ele>667.77</ele>
        <time>2014-09-27T12:19:00Z</time>
      </trkpt>
      <trkpt lat="44.84385" lon="5.18804">
        <ele>668.73</ele>
        <time>2014-09-27T12:19:11Z</time>
      </trkpt>
      <trkpt lat="44.84388" lon="5.18804">
        <ele>668.73</ele>
        <time>2014-09-27T12:19:13Z</time>
      </trkpt>
      <trkpt lat="44.84401" lon="5.188">
        <ele>669.7</ele>
        <time>2014-09-27T12:19:28Z</time>
      </trkpt>
      <trkpt lat="44.84412" lon="5.18798">
        <ele>670.66</ele>
        <time>2014-09-27T12:19:41Z</time>
      </trkpt>
      <trkpt lat="44.84421" lon="5.18797">
        <ele>671.14</ele>
        <time>2014-09-27T12:19:50Z</time>
      </trkpt>
      <trkpt lat="44.84436" lon="5.18801">
        <ele>672.1</ele>
        <time>2014-09-27T12:20:05Z</time>
      </trkpt>
      <trkpt lat="44.84446" lon="5.188">
        <ele>673.54</ele>
        <time>2014-09-27T12:20:18Z</time>
      </trkpt>
      <trkpt lat="44.84457" lon="5.18803">
        <ele>674.98</ele>
        <time>2014-09-27T12:20:31Z</time>
      </trkpt>
      <trkpt lat="44.84465" lon="5.18813">
        <ele>676.42</ele>
        <time>2014-09-27T12:20:45Z</time>
      </trkpt>
      <trkpt lat="44.84467" lon="5.18825">
        <ele>677.87</ele>
        <time>2014-09-27T12:20:57Z</time>
      </trkpt>
      <trkpt lat="44.84477" lon="5.18835">
        <ele>677.87</ele>
        <time>2014-09-27T12:21:10Z</time>
      </trkpt>
      <trkpt lat="44.84484" lon="5.18839">
        <ele>677.39</ele>
        <time>2014-09-27T12:21:18Z</time>
      </trkpt>
      <trkpt lat="44.84502" lon="5.18851">
        <ele>677.39</ele>
        <time>2014-09-27T12:21:35Z</time>
      </trkpt>
      <trkpt lat="44.84503" lon="5.18852">
        <ele>677.39</ele>
        <time>2014-09-27T12:21:36Z</time>
      </trkpt>
      <trkpt lat="44.84508" lon="5.18853">
        <ele>677.39</ele>
        <time>2014-09-27T12:21:41Z</time>
      </trkpt>
      <trkpt lat="44.84514" lon="5.18854">
        <ele>677.39</ele>
        <time>2014-09-27T12:21:46Z</time>
      </trkpt>
      <trkpt lat="44.84527" lon="5.18848">
        <ele>674.98</ele>
        <time>2014-09-27T12:22:03Z</time>
      </trkpt>
      <trkpt lat="44.84543" lon="5.18849">
        <ele>673.06</ele>
        <time>2014-09-27T12:22:16Z</time>
      </trkpt>
      <trkpt lat="44.84549" lon="5.18853">
        <ele>671.62</ele>
        <time>2014-09-27T12:22:24Z</time>
      </trkpt>
      <trkpt lat="44.84566" lon="5.18858">
        <ele>669.7</ele>
        <time>2014-09-27T12:22:40Z</time>
      </trkpt>
      <trkpt lat="44.8458" lon="5.18861">
        <ele>669.7</ele>
        <time>2014-09-27T12:22:53Z</time>
      </trkpt>
      <trkpt lat="44.84591" lon="5.1887">
        <ele>670.18</ele>
        <time>2014-09-27T12:23:08Z</time>
      </trkpt>
      <trkpt lat="44.84595" lon="5.18876">
        <ele>670.18</ele>
        <time>2014-09-27T12:23:21Z</time>
      </trkpt>
      <trkpt lat="44.84603" lon="5.18886">
        <ele>669.22</ele>
        <time>2014-09-27T12:23:36Z</time>
      </trkpt>
      <trkpt lat="44.84608" lon="5.18893">
        <ele>667.77</ele>
        <time>2014-09-27T12:23:44Z</time>
      </trkpt>
      <trkpt lat="44.84622" lon="5.18899">
        <ele>666.33</ele>
        <time>2014-09-27T12:23:58Z</time>
      </trkpt>
      <trkpt lat="44.84625" lon="5.18899">
        <ele>665.85</ele>
        <time>2014-09-27T12:24:00Z</time>
      </trkpt>
      <trkpt lat="44.84639" lon="5.18898">
        <ele>664.89</ele>
        <time>2014-09-27T12:24:14Z</time>
      </trkpt>
      <trkpt lat="44.84646" lon="5.18897">
        <ele>664.41</ele>
        <time>2014-09-27T12:24:27Z</time>
      </trkpt>
      <trkpt lat="44.84665" lon="5.18892">
        <ele>662.97</ele>
        <time>2014-09-27T12:24:44Z</time>
      </trkpt>
      <trkpt lat="44.84671" lon="5.1889">
        <ele>662.01</ele>
        <time>2014-09-27T12:24:49Z</time>
      </trkpt>
      <trkpt lat="44.84684" lon="5.18885">
        <ele>661.04</ele>
        <time>2014-09-27T12:25:04Z</time>
      </trkpt>
      <trkpt lat="44.84687" lon="5.18887">
        <ele>661.04</ele>
        <time>2014-09-27T12:25:08Z</time>
      </trkpt>
      <trkpt lat="44.847" lon="5.18892">
        <ele>660.56</ele>
        <time>2014-09-27T12:25:20Z</time>
      </trkpt>
      <trkpt lat="44.84711" lon="5.18907">
        <ele>660.08</ele>
        <time>2014-09-27T12:25:35Z</time>
      </trkpt>
      <trkpt lat="44.84712" lon="5.18909">
        <ele>659.6</ele>
        <time>2014-09-27T12:25:36Z</time>
      </trkpt>
      <trkpt lat="44.84715" lon="5.18915">
        <ele>659.6</ele>
        <time>2014-09-27T12:25:40Z</time>
      </trkpt>
      <trkpt lat="44.84717" lon="5.18923">
        <ele>659.12</ele>
        <time>2014-09-27T12:25:48Z</time>
      </trkpt>
      <trkpt lat="44.84722" lon="5.1894">
        <ele>656.72</ele>
        <time>2014-09-27T12:26:02Z</time>
      </trkpt>
      <trkpt lat="44.84722" lon="5.18946">
        <ele>655.76</ele>
        <time>2014-09-27T12:26:07Z</time>
      </trkpt>
      <trkpt lat="44.84716" lon="5.18967">
        <ele>654.8</ele>
        <time>2014-09-27T12:26:22Z</time>
      </trkpt>
      <trkpt lat="44.84718" lon="5.18984">
        <ele>654.31</ele>
        <time>2014-09-27T12:26:37Z</time>
      </trkpt>
      <trkpt lat="44.84711" lon="5.19">
        <ele>653.83</ele>
        <time>2014-09-27T12:26:51Z</time>
      </trkpt>
      <trkpt lat="44.84707" lon="5.19014">
        <ele>651.91</ele>
        <time>2014-09-27T12:27:05Z</time>
      </trkpt>
      <trkpt lat="44.84714" lon="5.19027">
        <ele>650.47</ele>
        <time>2014-09-27T12:27:20Z</time>
      </trkpt>
      <trkpt lat="44.84723" lon="5.19038">
        <ele>649.51</ele>
        <time>2014-09-27T12:27:34Z</time>
      </trkpt>
      <trkpt lat="44.84725" lon="5.19041">
        <ele>649.51</ele>
        <time>2014-09-27T12:27:38Z</time>
      </trkpt>
      <trkpt lat="44.84739" lon="5.19051">
        <ele>649.99</ele>
        <time>2014-09-27T12:27:51Z</time>
      </trkpt>
      <trkpt lat="44.84749" lon="5.19053">
        <ele>650.47</ele>
        <time>2014-09-27T12:28:06Z</time>
      </trkpt>
      <trkpt lat="44.84756" lon="5.19052">
        <ele>650.47</ele>
        <time>2014-09-27T12:28:20Z</time>
      </trkpt>
      <trkpt lat="44.84763" lon="5.19055">
        <ele>651.43</ele>
        <time>2014-09-27T12:28:33Z</time>
      </trkpt>
      <trkpt lat="44.84764" lon="5.19056">
        <ele>651.43</ele>
        <time>2014-09-27T12:28:34Z</time>
      </trkpt>
      <trkpt lat="44.84765" lon="5.19059">
        <ele>651.91</ele>
        <time>2014-09-27T12:28:37Z</time>
      </trkpt>
      <trkpt lat="44.84767" lon="5.1907">
        <ele>653.35</ele>
        <time>2014-09-27T12:28:50Z</time>
      </trkpt>
      <trkpt lat="44.84766" lon="5.19075">
        <ele>654.31</ele>
        <time>2014-09-27T12:28:56Z</time>
      </trkpt>
      <trkpt lat="44.84769" lon="5.19082">
        <ele>655.76</ele>
        <time>2014-09-27T12:29:08Z</time>
      </trkpt>
      <trkpt lat="44.84777" lon="5.19091">
        <ele>657.2</ele>
        <time>2014-09-27T12:29:22Z</time>
      </trkpt>
      <trkpt lat="44.84784" lon="5.19103">
        <ele>658.64</ele>
        <time>2014-09-27T12:29:36Z</time>
      </trkpt>
      <trkpt lat="44.8479" lon="5.19112">
        <ele>660.56</ele>
        <time>2014-09-27T12:29:51Z</time>
      </trkpt>
      <trkpt lat="44.84798" lon="5.19124">
        <ele>662.49</ele>
        <time>2014-09-27T12:30:06Z</time>
      </trkpt>
      <trkpt lat="44.84808" lon="5.19139">
        <ele>664.89</ele>
        <time>2014-09-27T12:30:24Z</time>
      </trkpt>
      <trkpt lat="44.84818" lon="5.19148">
        <ele>667.29</ele>
        <time>2014-09-27T12:30:39Z</time>
      </trkpt>
      <trkpt lat="44.84826" lon="5.19156">
        <ele>668.25</ele>
        <time>2014-09-27T12:30:53Z</time>
      </trkpt>
      <trkpt lat="44.84835" lon="5.19167">
        <ele>670.18</ele>
        <time>2014-09-27T12:31:07Z</time>
      </trkpt>
      <trkpt lat="44.84843" lon="5.19177">
        <ele>672.1</ele>
        <time>2014-09-27T12:31:21Z</time>
      </trkpt>
      <trkpt lat="44.84843" lon="5.19181">
        <ele>672.1</ele>
        <time>2014-09-27T12:31:24Z</time>
      </trkpt>
      <trkpt lat="44.84841" lon="5.19197">
        <ele>673.06</ele>
        <time>2014-09-27T12:31:36Z</time>
      </trkpt>
      <trkpt lat="44.84841" lon="5.19205">
        <ele>673.54</ele>
        <time>2014-09-27T12:31:43Z</time>
      </trkpt>
      <trkpt lat="44.84846" lon="5.19222">
        <ele>674.98</ele>
        <time>2014-09-27T12:31:58Z</time>
      </trkpt>
      <trkpt lat="44.84847" lon="5.19229">
        <ele>675.94</ele>
        <time>2014-09-27T12:32:05Z</time>
      </trkpt>
      <trkpt lat="44.84846" lon="5.19232">
        <ele>675.94</ele>
        <time>2014-09-27T12:32:07Z</time>
      </trkpt>
      <trkpt lat="44.84847" lon="5.19234">
        <ele>676.42</ele>
        <time>2014-09-27T12:32:09Z</time>
      </trkpt>
      <trkpt lat="44.8485" lon="5.19244">
        <ele>677.87</ele>
        <time>2014-09-27T12:32:20Z</time>
      </trkpt>
      <trkpt lat="44.84851" lon="5.19256">
        <ele>677.87</ele>
        <time>2014-09-27T12:32:32Z</time>
      </trkpt>
      <trkpt lat="44.84857" lon="5.19275">
        <ele>679.79</ele>
        <time>2014-09-27T12:32:47Z</time>
      </trkpt>
      <trkpt lat="44.84858" lon="5.19276">
        <ele>679.79</ele>
        <time>2014-09-27T12:32:48Z</time>
      </trkpt>
      <trkpt lat="44.84866" lon="5.19287">
        <ele>681.71</ele>
        <time>2014-09-27T12:33:00Z</time>
      </trkpt>
      <trkpt lat="44.84874" lon="5.19301">
        <ele>682.67</ele>
        <time>2014-09-27T12:33:15Z</time>
      </trkpt>
      <trkpt lat="44.84876" lon="5.193">
        <ele>682.67</ele>
        <time>2014-09-27T12:33:16Z</time>
      </trkpt>
      <trkpt lat="44.84878" lon="5.19298">
        <ele>682.67</ele>
        <time>2014-09-27T12:33:18Z</time>
      </trkpt>
      <trkpt lat="44.8488" lon="5.19297">
        <ele>682.67</ele>
        <time>2014-09-27T12:33:20Z</time>
      </trkpt>
      <trkpt lat="44.84894" lon="5.19297">
        <ele>683.15</ele>
        <time>2014-09-27T12:33:34Z</time>
      </trkpt>
      <trkpt lat="44.84909" lon="5.19303">
        <ele>683.63</ele>
        <time>2014-09-27T12:33:48Z</time>
      </trkpt>
      <trkpt lat="44.84924" lon="5.19305">
        <ele>684.6</ele>
        <time>2014-09-27T12:34:02Z</time>
      </trkpt>
      <trkpt lat="44.84938" lon="5.1931">
        <ele>684.6</ele>
        <time>2014-09-27T12:34:16Z</time>
      </trkpt>
      <trkpt lat="44.84952" lon="5.19317">
        <ele>685.08</ele>
        <time>2014-09-27T12:34:30Z</time>
      </trkpt>
      <trkpt lat="44.84965" lon="5.19321">
        <ele>685.56</ele>
        <time>2014-09-27T12:34:41Z</time>
      </trkpt>
      <trkpt lat="44.8498" lon="5.19327">
        <ele>686.04</ele>
        <time>2014-09-27T12:34:56Z</time>
      </trkpt>
      <trkpt lat="44.84994" lon="5.1934">
        <ele>687</ele>
        <time>2014-09-27T12:35:11Z</time>
      </trkpt>
      <trkpt lat="44.85006" lon="5.19348">
        <ele>688.44</ele>
        <time>2014-09-27T12:35:25Z</time>
      </trkpt>
      <trkpt lat="44.85019" lon="5.19352">
        <ele>689.88</ele>
        <time>2014-09-27T12:35:38Z</time>
      </trkpt>
      <trkpt lat="44.85031" lon="5.19352">
        <ele>691.33</ele>
        <time>2014-09-27T12:35:51Z</time>
      </trkpt>
      <trkpt lat="44.85045" lon="5.19354">
        <ele>692.77</ele>
        <time>2014-09-27T12:36:04Z</time>
      </trkpt>
      <trkpt lat="44.85055" lon="5.19361">
        <ele>694.21</ele>
        <time>2014-09-27T12:36:17Z</time>
      </trkpt>
      <trkpt lat="44.85068" lon="5.19358">
        <ele>695.17</ele>
        <time>2014-09-27T12:36:30Z</time>
      </trkpt>
      <trkpt lat="44.85083" lon="5.19356">
        <ele>696.13</ele>
        <time>2014-09-27T12:36:44Z</time>
      </trkpt>
      <trkpt lat="44.85099" lon="5.19352">
        <ele>696.61</ele>
        <time>2014-09-27T12:36:58Z</time>
      </trkpt>
      <trkpt lat="44.85108" lon="5.19352">
        <ele>697.09</ele>
        <time>2014-09-27T12:37:06Z</time>
      </trkpt>
      <trkpt lat="44.85124" lon="5.1936">
        <ele>699.02</ele>
        <time>2014-09-27T12:37:22Z</time>
      </trkpt>
      <trkpt lat="44.8513" lon="5.19361">
        <ele>699.5</ele>
        <time>2014-09-27T12:37:28Z</time>
      </trkpt>
      <trkpt lat="44.85142" lon="5.19362">
        <ele>700.94</ele>
        <time>2014-09-27T12:37:47Z</time>
      </trkpt>
      <trkpt lat="44.85146" lon="5.19361">
        <ele>700.94</ele>
        <time>2014-09-27T12:38:02Z</time>
      </trkpt>
      <trkpt lat="44.85147" lon="5.19361">
        <ele>700.94</ele>
        <time>2014-09-27T12:38:22Z</time>
      </trkpt>
      <trkpt lat="44.85149" lon="5.19365">
        <ele>701.42</ele>
        <time>2014-09-27T12:38:41Z</time>
      </trkpt>
      <trkpt lat="44.85148" lon="5.19366">
        <ele>701.42</ele>
        <time>2014-09-27T12:39:11Z</time>
      </trkpt>
      <trkpt lat="44.8515" lon="5.19366">
        <ele>701.9</ele>
        <time>2014-09-27T12:39:35Z</time>
      </trkpt>
      <trkpt lat="44.85151" lon="5.19365">
        <ele>702.38</ele>
        <time>2014-09-27T12:40:01Z</time>
      </trkpt>
      <trkpt lat="44.85147" lon="5.19365">
        <ele>702.38</ele>
        <time>2014-09-27T12:40:25Z</time>
      </trkpt>
      <trkpt lat="44.85149" lon="5.19359">
        <ele>702.86</ele>
        <time>2014-09-27T12:40:45Z</time>
      </trkpt>
      <trkpt lat="44.85151" lon="5.19356">
        <ele>702.86</ele>
        <time>2014-09-27T12:41:13Z</time>
      </trkpt>
      <trkpt lat="44.85161" lon="5.19351">
        <ele>703.34</ele>
        <time>2014-09-27T12:41:28Z</time>
      </trkpt>
      <trkpt lat="44.85174" lon="5.19355">
        <ele>704.78</ele>
        <time>2014-09-27T12:41:41Z</time>
      </trkpt>
      <trkpt lat="44.85187" lon="5.19356">
        <ele>706.71</ele>
        <time>2014-09-27T12:41:55Z</time>
      </trkpt>
      <trkpt lat="44.85199" lon="5.19348">
        <ele>708.15</ele>
        <time>2014-09-27T12:42:09Z</time>
      </trkpt>
      <trkpt lat="44.85208" lon="5.19338">
        <ele>709.59</ele>
        <time>2014-09-27T12:42:23Z</time>
      </trkpt>
      <trkpt lat="44.85227" lon="5.19329">
        <ele>710.55</ele>
        <time>2014-09-27T12:42:42Z</time>
      </trkpt>
      <trkpt lat="44.85241" lon="5.19319">
        <ele>712.95</ele>
        <time>2014-09-27T12:42:58Z</time>
      </trkpt>
      <trkpt lat="44.85259" lon="5.19304">
        <ele>713.92</ele>
        <time>2014-09-27T12:43:14Z</time>
      </trkpt>
      <trkpt lat="44.85267" lon="5.19297">
        <ele>714.4</ele>
        <time>2014-09-27T12:43:23Z</time>
      </trkpt>
      <trkpt lat="44.85282" lon="5.19291">
        <ele>715.84</ele>
        <time>2014-09-27T12:43:39Z</time>
      </trkpt>
      <trkpt lat="44.8529" lon="5.19282">
        <ele>714.88</ele>
        <time>2014-09-27T12:43:50Z</time>
      </trkpt>
      <trkpt lat="44.85293" lon="5.19271">
        <ele>714.4</ele>
        <time>2014-09-27T12:44:00Z</time>
      </trkpt>
      <trkpt lat="44.85294" lon="5.19252">
        <ele>712.47</ele>
        <time>2014-09-27T12:44:13Z</time>
      </trkpt>
      <trkpt lat="44.85309" lon="5.19238">
        <ele>712.47</ele>
        <time>2014-09-27T12:44:31Z</time>
      </trkpt>
      <trkpt lat="44.85317" lon="5.19223">
        <ele>711.03</ele>
        <time>2014-09-27T12:44:44Z</time>
      </trkpt>
      <trkpt lat="44.85314" lon="5.19213">
        <ele>708.63</ele>
        <time>2014-09-27T12:44:55Z</time>
      </trkpt>
      <trkpt lat="44.85316" lon="5.19198">
        <ele>706.71</ele>
        <time>2014-09-27T12:45:08Z</time>
      </trkpt>
      <trkpt lat="44.85317" lon="5.19166">
        <ele>704.78</ele>
        <time>2014-09-27T12:45:26Z</time>
      </trkpt>
      <trkpt lat="44.85317" lon="5.19146">
        <ele>702.38</ele>
        <time>2014-09-27T12:45:42Z</time>
      </trkpt>
      <trkpt lat="44.8532" lon="5.19129">
        <ele>699.98</ele>
        <time>2014-09-27T12:45:55Z</time>
      </trkpt>
      <trkpt lat="44.85314" lon="5.19122">
        <ele>698.05</ele>
        <time>2014-09-27T12:46:09Z</time>
      </trkpt>
      <trkpt lat="44.85312" lon="5.1912">
        <ele>696.61</ele>
        <time>2014-09-27T12:46:21Z</time>
      </trkpt>
      <trkpt lat="44.85309" lon="5.19119">
        <ele>695.17</ele>
        <time>2014-09-27T12:46:36Z</time>
      </trkpt>
      <trkpt lat="44.853" lon="5.19124">
        <ele>692.29</ele>
        <time>2014-09-27T12:46:50Z</time>
      </trkpt>
      <trkpt lat="44.853" lon="5.1912">
        <ele>689.88</ele>
        <time>2014-09-27T12:47:03Z</time>
      </trkpt>
      <trkpt lat="44.85302" lon="5.19115">
        <ele>688.44</ele>
        <time>2014-09-27T12:47:15Z</time>
      </trkpt>
      <trkpt lat="44.85307" lon="5.19107">
        <ele>686.52</ele>
        <time>2014-09-27T12:47:30Z</time>
      </trkpt>
      <trkpt lat="44.85313" lon="5.191">
        <ele>687</ele>
        <time>2014-09-27T12:47:43Z</time>
      </trkpt>
      <trkpt lat="44.85318" lon="5.19093">
        <ele>685.56</ele>
        <time>2014-09-27T12:47:56Z</time>
      </trkpt>
      <trkpt lat="44.85315" lon="5.1909">
        <ele>685.08</ele>
        <time>2014-09-27T12:48:00Z</time>
      </trkpt>
      <trkpt lat="44.8531" lon="5.19091">
        <ele>684.12</ele>
        <time>2014-09-27T12:48:05Z</time>
      </trkpt>
      <trkpt lat="44.85301" lon="5.19102">
        <ele>682.19</ele>
        <time>2014-09-27T12:48:19Z</time>
      </trkpt>
      <trkpt lat="44.85294" lon="5.19104">
        <ele>679.79</ele>
        <time>2014-09-27T12:48:31Z</time>
      </trkpt>
      <trkpt lat="44.8529" lon="5.19102">
        <ele>677.87</ele>
        <time>2014-09-27T12:48:42Z</time>
      </trkpt>
      <trkpt lat="44.85289" lon="5.19096">
        <ele>674.98</ele>
        <time>2014-09-27T12:48:57Z</time>
      </trkpt>
      <trkpt lat="44.8529" lon="5.19088">
        <ele>672.1</ele>
        <time>2014-09-27T12:49:10Z</time>
      </trkpt>
      <trkpt lat="44.85293" lon="5.19081">
        <ele>670.66</ele>
        <time>2014-09-27T12:49:26Z</time>
      </trkpt>
      <trkpt lat="44.85294" lon="5.19073">
        <ele>669.7</ele>
        <time>2014-09-27T12:49:41Z</time>
      </trkpt>
      <trkpt lat="44.85301" lon="5.19071">
        <ele>669.7</ele>
        <time>2014-09-27T12:49:56Z</time>
      </trkpt>
      <trkpt lat="44.85304" lon="5.1907">
        <ele>668.73</ele>
        <time>2014-09-27T12:50:14Z</time>
      </trkpt>
      <trkpt lat="44.85301" lon="5.1907">
        <ele>668.73</ele>
        <time>2014-09-27T12:50:36Z</time>
      </trkpt>
      <trkpt lat="44.85291" lon="5.19065">
        <ele>669.7</ele>
        <time>2014-09-27T12:50:50Z</time>
      </trkpt>
      <trkpt lat="44.85288" lon="5.19065">
        <ele>672.1</ele>
        <time>2014-09-27T12:51:09Z</time>
      </trkpt>
      <trkpt lat="44.85291" lon="5.1907">
        <ele>672.58</ele>
        <time>2014-09-27T12:51:23Z</time>
      </trkpt>
      <trkpt lat="44.85294" lon="5.1907">
        <ele>672.1</ele>
        <time>2014-09-27T12:51:33Z</time>
      </trkpt>
      <trkpt lat="44.85297" lon="5.19076">
        <ele>672.1</ele>
        <time>2014-09-27T12:51:37Z</time>
      </trkpt>
      <trkpt lat="44.85299" lon="5.1907">
        <ele>672.1</ele>
        <time>2014-09-27T12:52:31Z</time>
      </trkpt>
      <trkpt lat="44.85305" lon="5.19076">
        <ele>668.73</ele>
        <time>2014-09-27T12:52:52Z</time>
      </trkpt>
      <trkpt lat="44.85307" lon="5.19078">
        <ele>668.73</ele>
        <time>2014-09-27T12:52:56Z</time>
      </trkpt>
      <trkpt lat="44.85317" lon="5.19079">
        <ele>668.73</ele>
        <time>2014-09-27T12:53:10Z</time>
      </trkpt>
      <trkpt lat="44.85322" lon="5.19083">
        <ele>668.73</ele>
        <time>2014-09-27T12:53:30Z</time>
      </trkpt>
      <trkpt lat="44.8533" lon="5.19077">
        <ele>670.18</ele>
        <time>2014-09-27T12:53:48Z</time>
      </trkpt>
      <trkpt lat="44.8533" lon="5.1908">
        <ele>670.66</ele>
        <time>2014-09-27T12:54:10Z</time>
      </trkpt>
      <trkpt lat="44.8533" lon="5.1908">
        <ele>671.14</ele>
        <time>2014-09-27T12:54:32Z</time>
      </trkpt>
      <trkpt lat="44.85345" lon="5.19087">
        <ele>672.1</ele>
        <time>2014-09-27T12:54:54Z</time>
      </trkpt>
      <trkpt lat="44.85355" lon="5.19087">
        <ele>672.58</ele>
        <time>2014-09-27T12:55:16Z</time>
      </trkpt>
      <trkpt lat="44.85359" lon="5.19091">
        <ele>673.54</ele>
        <time>2014-09-27T12:55:34Z</time>
      </trkpt>
      <trkpt lat="44.85372" lon="5.19093">
        <ele>674.02</ele>
        <time>2014-09-27T12:55:53Z</time>
      </trkpt>
      <trkpt lat="44.85377" lon="5.19094">
        <ele>673.54</ele>
        <time>2014-09-27T12:56:02Z</time>
      </trkpt>
      <trkpt lat="44.8538" lon="5.19096">
        <ele>674.5</ele>
        <time>2014-09-27T12:56:23Z</time>
      </trkpt>
      <trkpt lat="44.85377" lon="5.19094">
        <ele>674.98</ele>
        <time>2014-09-27T12:56:40Z</time>
      </trkpt>
      <trkpt lat="44.85386" lon="5.19096">
        <ele>674.98</ele>
        <time>2014-09-27T12:56:57Z</time>
      </trkpt>
      <trkpt lat="44.85394" lon="5.19097">
        <ele>675.94</ele>
        <time>2014-09-27T12:57:17Z</time>
      </trkpt>
      <trkpt lat="44.85404" lon="5.19098">
        <ele>675.94</ele>
        <time>2014-09-27T12:57:33Z</time>
      </trkpt>
      <trkpt lat="44.8541" lon="5.191">
        <ele>677.39</ele>
        <time>2014-09-27T12:57:56Z</time>
      </trkpt>
      <trkpt lat="44.85425" lon="5.19098">
        <ele>677.87</ele>
        <time>2014-09-27T12:58:14Z</time>
      </trkpt>
      <trkpt lat="44.85435" lon="5.19099">
        <ele>678.83</ele>
        <time>2014-09-27T12:58:37Z</time>
      </trkpt>
      <trkpt lat="44.85442" lon="5.19093">
        <ele>679.31</ele>
        <time>2014-09-27T12:58:56Z</time>
      </trkpt>
      <trkpt lat="44.85455" lon="5.19096">
        <ele>679.79</ele>
        <time>2014-09-27T12:59:20Z</time>
      </trkpt>
      <trkpt lat="44.85464" lon="5.19102">
        <ele>679.79</ele>
        <time>2014-09-27T12:59:43Z</time>
      </trkpt>
      <trkpt lat="44.85471" lon="5.19095">
        <ele>680.75</ele>
        <time>2014-09-27T13:00:01Z</time>
      </trkpt>
      <trkpt lat="44.85478" lon="5.19096">
        <ele>681.23</ele>
        <time>2014-09-27T13:00:17Z</time>
      </trkpt>
      <trkpt lat="44.85483" lon="5.19098">
        <ele>682.19</ele>
        <time>2014-09-27T13:00:35Z</time>
      </trkpt>
      <trkpt lat="44.85491" lon="5.19096">
        <ele>683.15</ele>
        <time>2014-09-27T13:00:51Z</time>
      </trkpt>
      <trkpt lat="44.85504" lon="5.191">
        <ele>683.15</ele>
        <time>2014-09-27T13:01:08Z</time>
      </trkpt>
      <trkpt lat="44.85512" lon="5.19104">
        <ele>684.12</ele>
        <time>2014-09-27T13:01:21Z</time>
      </trkpt>
      <trkpt lat="44.85516" lon="5.19105">
        <ele>684.12</ele>
        <time>2014-09-27T13:01:26Z</time>
      </trkpt>
      <trkpt lat="44.85532" lon="5.19112">
        <ele>684.6</ele>
        <time>2014-09-27T13:01:42Z</time>
      </trkpt>
      <trkpt lat="44.85532" lon="5.19122">
        <ele>684.6</ele>
        <time>2014-09-27T13:01:59Z</time>
      </trkpt>
      <trkpt lat="44.85542" lon="5.19124">
        <ele>685.08</ele>
        <time>2014-09-27T13:02:13Z</time>
      </trkpt>
      <trkpt lat="44.85549" lon="5.19132">
        <ele>685.08</ele>
        <time>2014-09-27T13:02:29Z</time>
      </trkpt>
      <trkpt lat="44.85552" lon="5.19143">
        <ele>685.08</ele>
        <time>2014-09-27T13:02:55Z</time>
      </trkpt>
      <trkpt lat="44.85555" lon="5.19152">
        <ele>686.04</ele>
        <time>2014-09-27T13:03:17Z</time>
      </trkpt>
      <trkpt lat="44.85563" lon="5.1915">
        <ele>686.52</ele>
        <time>2014-09-27T13:03:36Z</time>
      </trkpt>
      <trkpt lat="44.8557" lon="5.19149">
        <ele>687</ele>
        <time>2014-09-27T13:04:01Z</time>
      </trkpt>
      <trkpt lat="44.85582" lon="5.19154">
        <ele>687.48</ele>
        <time>2014-09-27T13:04:22Z</time>
      </trkpt>
      <trkpt lat="44.85583" lon="5.19154">
        <ele>687.48</ele>
        <time>2014-09-27T13:04:47Z</time>
      </trkpt>
      <trkpt lat="44.8558" lon="5.1915">
        <ele>687.96</ele>
        <time>2014-09-27T13:05:14Z</time>
      </trkpt>
      <trkpt lat="44.85576" lon="5.19158">
        <ele>689.4</ele>
        <time>2014-09-27T13:05:35Z</time>
      </trkpt>
      <trkpt lat="44.85581" lon="5.19153">
        <ele>690.36</ele>
        <time>2014-09-27T13:05:53Z</time>
      </trkpt>
      <trkpt lat="44.85577" lon="5.19151">
        <ele>691.33</ele>
        <time>2014-09-27T13:06:10Z</time>
      </trkpt>
      <trkpt lat="44.85575" lon="5.19153">
        <ele>691.81</ele>
        <time>2014-09-27T13:06:29Z</time>
      </trkpt>
      <trkpt lat="44.85573" lon="5.19153">
        <ele>691.33</ele>
        <time>2014-09-27T13:06:46Z</time>
      </trkpt>
      <trkpt lat="44.85572" lon="5.19148">
        <ele>690.84</ele>
        <time>2014-09-27T13:07:00Z</time>
      </trkpt>
      <trkpt lat="44.85571" lon="5.19149">
        <ele>691.33</ele>
        <time>2014-09-27T13:07:22Z</time>
      </trkpt>
      <trkpt lat="44.85578" lon="5.19154">
        <ele>691.33</ele>
        <time>2014-09-27T13:07:49Z</time>
      </trkpt>
      <trkpt lat="44.85578" lon="5.1915">
        <ele>691.81</ele>
        <time>2014-09-27T13:08:11Z</time>
      </trkpt>
      <trkpt lat="44.85578" lon="5.19151">
        <ele>692.29</ele>
        <time>2014-09-27T13:08:28Z</time>
      </trkpt>
      <trkpt lat="44.85579" lon="5.19152">
        <ele>692.77</ele>
        <time>2014-09-27T13:08:53Z</time>
      </trkpt>
      <trkpt lat="44.85582" lon="5.19147">
        <ele>693.25</ele>
        <time>2014-09-27T13:09:14Z</time>
      </trkpt>
      <trkpt lat="44.85577" lon="5.19147">
        <ele>695.17</ele>
        <time>2014-09-27T13:09:32Z</time>
      </trkpt>
      <trkpt lat="44.85577" lon="5.19153">
        <ele>696.61</ele>
        <time>2014-09-27T13:09:47Z</time>
      </trkpt>
      <trkpt lat="44.85581" lon="5.19156">
        <ele>698.05</ele>
        <time>2014-09-27T13:10:04Z</time>
      </trkpt>
      <trkpt lat="44.85587" lon="5.19159">
        <ele>699.02</ele>
        <time>2014-09-27T13:10:21Z</time>
      </trkpt>
      <trkpt lat="44.85598" lon="5.19158">
        <ele>699.5</ele>
        <time>2014-09-27T13:10:37Z</time>
      </trkpt>
      <trkpt lat="44.85601" lon="5.19157">
        <ele>699.5</ele>
        <time>2014-09-27T13:10:52Z</time>
      </trkpt>
      <trkpt lat="44.85608" lon="5.19148">
        <ele>700.94</ele>
        <time>2014-09-27T13:11:09Z</time>
      </trkpt>
      <trkpt lat="44.85619" lon="5.19145">
        <ele>701.42</ele>
        <time>2014-09-27T13:11:24Z</time>
      </trkpt>
      <trkpt lat="44.85628" lon="5.19143">
        <ele>701.42</ele>
        <time>2014-09-27T13:11:38Z</time>
      </trkpt>
      <trkpt lat="44.85636" lon="5.19131">
        <ele>702.38</ele>
        <time>2014-09-27T13:11:52Z</time>
      </trkpt>
      <trkpt lat="44.85638" lon="5.19129">
        <ele>702.38</ele>
        <time>2014-09-27T13:11:56Z</time>
      </trkpt>
      <trkpt lat="44.85645" lon="5.19117">
        <ele>703.34</ele>
        <time>2014-09-27T13:12:14Z</time>
      </trkpt>
      <trkpt lat="44.85646" lon="5.19115">
        <ele>703.34</ele>
        <time>2014-09-27T13:12:15Z</time>
      </trkpt>
      <trkpt lat="44.85653" lon="5.191">
        <ele>703.82</ele>
        <time>2014-09-27T13:12:28Z</time>
      </trkpt>
      <trkpt lat="44.8566" lon="5.19087">
        <ele>704.78</ele>
        <time>2014-09-27T13:12:43Z</time>
      </trkpt>
      <trkpt lat="44.8566" lon="5.19075">
        <ele>704.78</ele>
        <time>2014-09-27T13:12:55Z</time>
      </trkpt>
      <trkpt lat="44.85666" lon="5.19067">
        <ele>704.78</ele>
        <time>2014-09-27T13:13:06Z</time>
      </trkpt>
      <trkpt lat="44.85666" lon="5.19065">
        <ele>704.78</ele>
        <time>2014-09-27T13:13:07Z</time>
      </trkpt>
      <trkpt lat="44.85666" lon="5.19052">
        <ele>705.26</ele>
        <time>2014-09-27T13:13:21Z</time>
      </trkpt>
      <trkpt lat="44.85666" lon="5.19037">
        <ele>706.23</ele>
        <time>2014-09-27T13:13:33Z</time>
      </trkpt>
      <trkpt lat="44.85668" lon="5.19028">
        <ele>706.23</ele>
        <time>2014-09-27T13:13:45Z</time>
      </trkpt>
      <trkpt lat="44.85668" lon="5.19024">
        <ele>707.19</ele>
        <time>2014-09-27T13:13:55Z</time>
      </trkpt>
      <trkpt lat="44.8567" lon="5.19021">
        <ele>707.19</ele>
        <time>2014-09-27T13:13:57Z</time>
      </trkpt>
      <trkpt lat="44.85677" lon="5.19012">
        <ele>708.15</ele>
        <time>2014-09-27T13:14:11Z</time>
      </trkpt>
      <trkpt lat="44.85679" lon="5.19011">
        <ele>708.63</ele>
        <time>2014-09-27T13:14:14Z</time>
      </trkpt>
      <trkpt lat="44.85685" lon="5.19008">
        <ele>708.63</ele>
        <time>2014-09-27T13:14:29Z</time>
      </trkpt>
      <trkpt lat="44.85693" lon="5.1901">
        <ele>709.11</ele>
        <time>2014-09-27T13:14:53Z</time>
      </trkpt>
      <trkpt lat="44.85705" lon="5.19014">
        <ele>710.07</ele>
        <time>2014-09-27T13:15:17Z</time>
      </trkpt>
      <trkpt lat="44.85724" lon="5.19013">
        <ele>711.51</ele>
        <time>2014-09-27T13:15:37Z</time>
      </trkpt>
      <trkpt lat="44.85738" lon="5.1901">
        <ele>712.95</ele>
        <time>2014-09-27T13:15:55Z</time>
      </trkpt>
      <trkpt lat="44.85742" lon="5.19013">
        <ele>713.92</ele>
        <time>2014-09-27T13:16:10Z</time>
      </trkpt>
      <trkpt lat="44.85748" lon="5.19011">
        <ele>714.88</ele>
        <time>2014-09-27T13:16:27Z</time>
      </trkpt>
      <trkpt lat="44.85753" lon="5.19001">
        <ele>715.36</ele>
        <time>2014-09-27T13:16:42Z</time>
      </trkpt>
      <trkpt lat="44.85756" lon="5.18997">
        <ele>715.84</ele>
        <time>2014-09-27T13:16:56Z</time>
      </trkpt>
      <trkpt lat="44.85758" lon="5.18984">
        <ele>716.32</ele>
        <time>2014-09-27T13:17:12Z</time>
      </trkpt>
      <trkpt lat="44.85761" lon="5.18977">
        <ele>717.76</ele>
        <time>2014-09-27T13:17:29Z</time>
      </trkpt>
      <trkpt lat="44.85754" lon="5.1897">
        <ele>717.76</ele>
        <time>2014-09-27T13:17:40Z</time>
      </trkpt>
      <trkpt lat="44.85765" lon="5.18965">
        <ele>718.24</ele>
        <time>2014-09-27T13:17:50Z</time>
      </trkpt>
      <trkpt lat="44.85767" lon="5.18965">
        <ele>718.24</ele>
        <time>2014-09-27T13:17:51Z</time>
      </trkpt>
      <trkpt lat="44.85775" lon="5.1896">
        <ele>718.24</ele>
        <time>2014-09-27T13:18:04Z</time>
      </trkpt>
      <trkpt lat="44.85778" lon="5.18948">
        <ele>719.2</ele>
        <time>2014-09-27T13:18:19Z</time>
      </trkpt>
      <trkpt lat="44.85784" lon="5.18942">
        <ele>719.2</ele>
        <time>2014-09-27T13:18:26Z</time>
      </trkpt>
      <trkpt lat="44.85787" lon="5.1894">
        <ele>719.2</ele>
        <time>2014-09-27T13:18:29Z</time>
      </trkpt>
      <trkpt lat="44.85798" lon="5.18939">
        <ele>720.16</ele>
        <time>2014-09-27T13:18:41Z</time>
      </trkpt>
      <trkpt lat="44.85797" lon="5.18937">
        <ele>720.16</ele>
        <time>2014-09-27T13:18:43Z</time>
      </trkpt>
      <trkpt lat="44.85801" lon="5.18927">
        <ele>720.16</ele>
        <time>2014-09-27T13:18:54Z</time>
      </trkpt>
      <trkpt lat="44.85811" lon="5.18919">
        <ele>720.16</ele>
        <time>2014-09-27T13:19:10Z</time>
      </trkpt>
      <trkpt lat="44.8581" lon="5.18914">
        <ele>720.65</ele>
        <time>2014-09-27T13:19:15Z</time>
      </trkpt>
      <trkpt lat="44.85818" lon="5.18909">
        <ele>721.13</ele>
        <time>2014-09-27T13:19:25Z</time>
      </trkpt>
      <trkpt lat="44.85825" lon="5.18905">
        <ele>722.09</ele>
        <time>2014-09-27T13:19:36Z</time>
      </trkpt>
      <trkpt lat="44.85841" lon="5.18905">
        <ele>721.61</ele>
        <time>2014-09-27T13:19:59Z</time>
      </trkpt>
      <trkpt lat="44.85848" lon="5.18909">
        <ele>722.09</ele>
        <time>2014-09-27T13:20:11Z</time>
      </trkpt>
      <trkpt lat="44.85856" lon="5.18905">
        <ele>722.57</ele>
        <time>2014-09-27T13:20:25Z</time>
      </trkpt>
      <trkpt lat="44.85863" lon="5.18897">
        <ele>722.57</ele>
        <time>2014-09-27T13:20:41Z</time>
      </trkpt>
      <trkpt lat="44.85865" lon="5.18892">
        <ele>722.57</ele>
        <time>2014-09-27T13:20:48Z</time>
      </trkpt>
      <trkpt lat="44.85874" lon="5.18884">
        <ele>724.49</ele>
        <time>2014-09-27T13:21:04Z</time>
      </trkpt>
      <trkpt lat="44.85888" lon="5.18895">
        <ele>724.01</ele>
        <time>2014-09-27T13:21:17Z</time>
      </trkpt>
      <trkpt lat="44.85895" lon="5.18897">
        <ele>724.01</ele>
        <time>2014-09-27T13:21:23Z</time>
      </trkpt>
      <trkpt lat="44.8591" lon="5.18896">
        <ele>724.49</ele>
        <time>2014-09-27T13:21:37Z</time>
      </trkpt>
      <trkpt lat="44.85917" lon="5.18898">
        <ele>724.97</ele>
        <time>2014-09-27T13:21:48Z</time>
      </trkpt>
      <trkpt lat="44.85925" lon="5.18905">
        <ele>725.45</ele>
        <time>2014-09-27T13:22:03Z</time>
      </trkpt>
      <trkpt lat="44.85933" lon="5.18912">
        <ele>726.41</ele>
        <time>2014-09-27T13:22:16Z</time>
      </trkpt>
      <trkpt lat="44.85944" lon="5.18913">
        <ele>725.93</ele>
        <time>2014-09-27T13:22:29Z</time>
      </trkpt>
      <trkpt lat="44.8595" lon="5.18921">
        <ele>726.41</ele>
        <time>2014-09-27T13:22:43Z</time>
      </trkpt>
      <trkpt lat="44.85953" lon="5.18932">
        <ele>727.86</ele>
        <time>2014-09-27T13:23:00Z</time>
      </trkpt>
      <trkpt lat="44.85961" lon="5.18939">
        <ele>727.86</ele>
        <time>2014-09-27T13:23:14Z</time>
      </trkpt>
      <trkpt lat="44.85968" lon="5.18949">
        <ele>728.34</ele>
        <time>2014-09-27T13:23:31Z</time>
      </trkpt>
      <trkpt lat="44.85971" lon="5.1895">
        <ele>729.3</ele>
        <time>2014-09-27T13:23:49Z</time>
      </trkpt>
      <trkpt lat="44.85979" lon="5.18944">
        <ele>729.78</ele>
        <time>2014-09-27T13:24:02Z</time>
      </trkpt>
      <trkpt lat="44.85992" lon="5.18949">
        <ele>730.74</ele>
        <time>2014-09-27T13:24:16Z</time>
      </trkpt>
      <trkpt lat="44.85996" lon="5.18952">
        <ele>730.74</ele>
        <time>2014-09-27T13:24:31Z</time>
      </trkpt>
      <trkpt lat="44.86002" lon="5.18957">
        <ele>732.66</ele>
        <time>2014-09-27T13:24:45Z</time>
      </trkpt>
      <trkpt lat="44.86007" lon="5.18961">
        <ele>734.1</ele>
        <time>2014-09-27T13:25:01Z</time>
      </trkpt>
      <trkpt lat="44.86011" lon="5.18959">
        <ele>734.58</ele>
        <time>2014-09-27T13:25:13Z</time>
      </trkpt>
      <trkpt lat="44.86015" lon="5.18962">
        <ele>735.55</ele>
        <time>2014-09-27T13:25:37Z</time>
      </trkpt>
      <trkpt lat="44.86015" lon="5.18967">
        <ele>737.95</ele>
        <time>2014-09-27T13:25:56Z</time>
      </trkpt>
      <trkpt lat="44.86019" lon="5.18972">
        <ele>739.39</ele>
        <time>2014-09-27T13:26:15Z</time>
      </trkpt>
      <trkpt lat="44.86018" lon="5.18981">
        <ele>739.39</ele>
        <time>2014-09-27T13:26:33Z</time>
      </trkpt>
      <trkpt lat="44.86018" lon="5.18973">
        <ele>739.39</ele>
        <time>2014-09-27T13:26:57Z</time>
      </trkpt>
      <trkpt lat="44.86021" lon="5.18977">
        <ele>737.47</ele>
        <time>2014-09-27T13:27:12Z</time>
      </trkpt>
      <trkpt lat="44.86026" lon="5.18971">
        <ele>736.51</ele>
        <time>2014-09-27T13:27:28Z</time>
      </trkpt>
      <trkpt lat="44.86032" lon="5.18975">
        <ele>736.03</ele>
        <time>2014-09-27T13:27:43Z</time>
      </trkpt>
      <trkpt lat="44.86034" lon="5.18976">
        <ele>737.95</ele>
        <time>2014-09-27T13:28:04Z</time>
      </trkpt>
      <trkpt lat="44.86042" lon="5.18981">
        <ele>737.95</ele>
        <time>2014-09-27T13:28:20Z</time>
      </trkpt>
      <trkpt lat="44.86045" lon="5.18987">
        <ele>738.91</ele>
        <time>2014-09-27T13:28:38Z</time>
      </trkpt>
      <trkpt lat="44.8605" lon="5.18993">
        <ele>738.91</ele>
        <time>2014-09-27T13:28:51Z</time>
      </trkpt>
      <trkpt lat="44.86055" lon="5.19">
        <ele>739.87</ele>
        <time>2014-09-27T13:29:10Z</time>
      </trkpt>
      <trkpt lat="44.86065" lon="5.19008">
        <ele>740.35</ele>
        <time>2014-09-27T13:29:25Z</time>
      </trkpt>
      <trkpt lat="44.86074" lon="5.1902">
        <ele>740.83</ele>
        <time>2014-09-27T13:29:41Z</time>
      </trkpt>
      <trkpt lat="44.86078" lon="5.19027">
        <ele>740.83</ele>
        <time>2014-09-27T13:29:58Z</time>
      </trkpt>
      <trkpt lat="44.86086" lon="5.19028">
        <ele>741.31</ele>
        <time>2014-09-27T13:30:15Z</time>
      </trkpt>
      <trkpt lat="44.86096" lon="5.19025">
        <ele>742.28</ele>
        <time>2014-09-27T13:30:28Z</time>
      </trkpt>
      <trkpt lat="44.86108" lon="5.19029">
        <ele>742.76</ele>
        <time>2014-09-27T13:30:42Z</time>
      </trkpt>
      <trkpt lat="44.86118" lon="5.19029">
        <ele>743.72</ele>
        <time>2014-09-27T13:30:56Z</time>
      </trkpt>
      <trkpt lat="44.86126" lon="5.19018">
        <ele>744.2</ele>
        <time>2014-09-27T13:31:09Z</time>
      </trkpt>
      <trkpt lat="44.86132" lon="5.19">
        <ele>744.68</ele>
        <time>2014-09-27T13:31:25Z</time>
      </trkpt>
      <trkpt lat="44.86135" lon="5.18987">
        <ele>744.68</ele>
        <time>2014-09-27T13:31:38Z</time>
      </trkpt>
      <trkpt lat="44.8614" lon="5.18973">
        <ele>745.64</ele>
        <time>2014-09-27T13:31:54Z</time>
      </trkpt>
      <trkpt lat="44.86141" lon="5.18967">
        <ele>746.12</ele>
        <time>2014-09-27T13:31:59Z</time>
      </trkpt>
      <trkpt lat="44.86143" lon="5.18955">
        <ele>746.12</ele>
        <time>2014-09-27T13:32:08Z</time>
      </trkpt>
      <trkpt lat="44.86144" lon="5.18949">
        <ele>746.6</ele>
        <time>2014-09-27T13:32:15Z</time>
      </trkpt>
      <trkpt lat="44.86148" lon="5.18937">
        <ele>746.12</ele>
        <time>2014-09-27T13:32:27Z</time>
      </trkpt>
      <trkpt lat="44.86151" lon="5.18932">
        <ele>747.08</ele>
        <time>2014-09-27T13:32:37Z</time>
      </trkpt>
      <trkpt lat="44.8616" lon="5.18918">
        <ele>749</ele>
        <time>2014-09-27T13:32:53Z</time>
      </trkpt>
      <trkpt lat="44.86176" lon="5.18913">
        <ele>749.49</ele>
        <time>2014-09-27T13:33:08Z</time>
      </trkpt>
      <trkpt lat="44.86195" lon="5.18913">
        <ele>749.49</ele>
        <time>2014-09-27T13:33:24Z</time>
      </trkpt>
      <trkpt lat="44.86188" lon="5.18887">
        <ele>749</ele>
        <time>2014-09-27T13:33:43Z</time>
      </trkpt>
      <trkpt lat="44.86197" lon="5.18892">
        <ele>750.45</ele>
        <time>2014-09-27T13:33:59Z</time>
      </trkpt>
      <trkpt lat="44.86208" lon="5.18899">
        <ele>750.45</ele>
        <time>2014-09-27T13:34:10Z</time>
      </trkpt>
      <trkpt lat="44.86219" lon="5.18898">
        <ele>752.37</ele>
        <time>2014-09-27T13:34:21Z</time>
      </trkpt>
      <trkpt lat="44.86221" lon="5.18895">
        <ele>752.85</ele>
        <time>2014-09-27T13:34:25Z</time>
      </trkpt>
      <trkpt lat="44.86231" lon="5.18895">
        <ele>753.33</ele>
        <time>2014-09-27T13:34:35Z</time>
      </trkpt>
      <trkpt lat="44.86233" lon="5.18897">
        <ele>752.85</ele>
        <time>2014-09-27T13:34:37Z</time>
      </trkpt>
      <trkpt lat="44.86235" lon="5.189">
        <ele>752.85</ele>
        <time>2014-09-27T13:34:40Z</time>
      </trkpt>
      <trkpt lat="44.86236" lon="5.189">
        <ele>753.33</ele>
        <time>2014-09-27T13:34:45Z</time>
      </trkpt>
      <trkpt lat="44.86247" lon="5.18903">
        <ele>753.81</ele>
        <time>2014-09-27T13:34:59Z</time>
      </trkpt>
      <trkpt lat="44.86256" lon="5.18907">
        <ele>754.29</ele>
        <time>2014-09-27T13:35:12Z</time>
      </trkpt>
      <trkpt lat="44.86258" lon="5.18909">
        <ele>754.77</ele>
        <time>2014-09-27T13:35:17Z</time>
      </trkpt>
      <trkpt lat="44.86269" lon="5.18914">
        <ele>755.25</ele>
        <time>2014-09-27T13:35:28Z</time>
      </trkpt>
      <trkpt lat="44.86279" lon="5.1892">
        <ele>755.25</ele>
        <time>2014-09-27T13:35:42Z</time>
      </trkpt>
      <trkpt lat="44.86286" lon="5.18923">
        <ele>755.73</ele>
        <time>2014-09-27T13:35:53Z</time>
      </trkpt>
      <trkpt lat="44.8629" lon="5.18924">
        <ele>755.73</ele>
        <time>2014-09-27T13:35:56Z</time>
      </trkpt>
      <trkpt lat="44.86294" lon="5.18929">
        <ele>756.69</ele>
        <time>2014-09-27T13:36:06Z</time>
      </trkpt>
      <trkpt lat="44.86297" lon="5.18935">
        <ele>757.18</ele>
        <time>2014-09-27T13:36:19Z</time>
      </trkpt>
      <trkpt lat="44.86299" lon="5.18943">
        <ele>757.66</ele>
        <time>2014-09-27T13:36:33Z</time>
      </trkpt>
      <trkpt lat="44.86305" lon="5.18955">
        <ele>758.14</ele>
        <time>2014-09-27T13:36:46Z</time>
      </trkpt>
      <trkpt lat="44.86308" lon="5.18963">
        <ele>758.62</ele>
        <time>2014-09-27T13:36:55Z</time>
      </trkpt>
      <trkpt lat="44.86313" lon="5.18967">
        <ele>758.62</ele>
        <time>2014-09-27T13:37:00Z</time>
      </trkpt>
      <trkpt lat="44.86322" lon="5.18977">
        <ele>759.58</ele>
        <time>2014-09-27T13:37:13Z</time>
      </trkpt>
      <trkpt lat="44.86323" lon="5.1898">
        <ele>759.58</ele>
        <time>2014-09-27T13:37:15Z</time>
      </trkpt>
      <trkpt lat="44.86326" lon="5.18988">
        <ele>759.58</ele>
        <time>2014-09-27T13:37:27Z</time>
      </trkpt>
      <trkpt lat="44.86334" lon="5.18993">
        <ele>760.06</ele>
        <time>2014-09-27T13:37:39Z</time>
      </trkpt>
      <trkpt lat="44.86339" lon="5.18996">
        <ele>760.06</ele>
        <time>2014-09-27T13:37:50Z</time>
      </trkpt>
      <trkpt lat="44.86347" lon="5.18992">
        <ele>761.02</ele>
        <time>2014-09-27T13:38:01Z</time>
      </trkpt>
      <trkpt lat="44.86358" lon="5.18985">
        <ele>761.98</ele>
        <time>2014-09-27T13:38:13Z</time>
      </trkpt>
      <trkpt lat="44.86363" lon="5.18984">
        <ele>762.46</ele>
        <time>2014-09-27T13:38:18Z</time>
      </trkpt>
      <trkpt lat="44.86367" lon="5.18976">
        <ele>762.46</ele>
        <time>2014-09-27T13:38:26Z</time>
      </trkpt>
      <trkpt lat="44.86371" lon="5.18962">
        <ele>761.02</ele>
        <time>2014-09-27T13:38:39Z</time>
      </trkpt>
      <trkpt lat="44.86374" lon="5.18959">
        <ele>762.94</ele>
        <time>2014-09-27T13:38:44Z</time>
      </trkpt>
      <trkpt lat="44.86379" lon="5.18951">
        <ele>763.42</ele>
        <time>2014-09-27T13:38:52Z</time>
      </trkpt>
      <trkpt lat="44.86383" lon="5.18949">
        <ele>763.42</ele>
        <time>2014-09-27T13:38:55Z</time>
      </trkpt>
      <trkpt lat="44.86393" lon="5.18938">
        <ele>763.9</ele>
        <time>2014-09-27T13:39:06Z</time>
      </trkpt>
      <trkpt lat="44.86407" lon="5.18928">
        <ele>764.39</ele>
        <time>2014-09-27T13:39:21Z</time>
      </trkpt>
      <trkpt lat="44.86418" lon="5.18916">
        <ele>764.87</ele>
        <time>2014-09-27T13:39:33Z</time>
      </trkpt>
      <trkpt lat="44.86424" lon="5.18903">
        <ele>765.83</ele>
        <time>2014-09-27T13:39:49Z</time>
      </trkpt>
      <trkpt lat="44.86435" lon="5.18887">
        <ele>766.31</ele>
        <time>2014-09-27T13:40:03Z</time>
      </trkpt>
      <trkpt lat="44.86437" lon="5.18884">
        <ele>766.31</ele>
        <time>2014-09-27T13:40:06Z</time>
      </trkpt>
      <trkpt lat="44.86446" lon="5.18872">
        <ele>767.27</ele>
        <time>2014-09-27T13:40:24Z</time>
      </trkpt>
      <trkpt lat="44.86461" lon="5.18871">
        <ele>767.75</ele>
        <time>2014-09-27T13:40:34Z</time>
      </trkpt>
      <trkpt lat="44.86468" lon="5.1887">
        <ele>767.75</ele>
        <time>2014-09-27T13:40:41Z</time>
      </trkpt>
      <trkpt lat="44.86471" lon="5.18871">
        <ele>767.75</ele>
        <time>2014-09-27T13:40:44Z</time>
      </trkpt>
      <trkpt lat="44.86479" lon="5.18871">
        <ele>768.23</ele>
        <time>2014-09-27T13:40:52Z</time>
      </trkpt>
      <trkpt lat="44.86492" lon="5.18869">
        <ele>768.23</ele>
        <time>2014-09-27T13:41:04Z</time>
      </trkpt>
      <trkpt lat="44.86505" lon="5.18871">
        <ele>768.71</ele>
        <time>2014-09-27T13:41:17Z</time>
      </trkpt>
      <trkpt lat="44.86517" lon="5.18872">
        <ele>769.67</ele>
        <time>2014-09-27T13:41:34Z</time>
      </trkpt>
      <trkpt lat="44.86521" lon="5.18873">
        <ele>771.6</ele>
        <time>2014-09-27T13:41:49Z</time>
      </trkpt>
      <trkpt lat="44.86535" lon="5.18881">
        <ele>770.15</ele>
        <time>2014-09-27T13:42:04Z</time>
      </trkpt>
      <trkpt lat="44.86546" lon="5.18884">
        <ele>771.6</ele>
        <time>2014-09-27T13:42:22Z</time>
      </trkpt>
      <trkpt lat="44.86549" lon="5.18885">
        <ele>771.11</ele>
        <time>2014-09-27T13:42:39Z</time>
      </trkpt>
      <trkpt lat="44.86554" lon="5.18886">
        <ele>771.11</ele>
        <time>2014-09-27T13:42:53Z</time>
      </trkpt>
      <trkpt lat="44.8656" lon="5.18889">
        <ele>772.56</ele>
        <time>2014-09-27T13:43:17Z</time>
      </trkpt>
      <trkpt lat="44.86563" lon="5.18888">
        <ele>773.52</ele>
        <time>2014-09-27T13:43:32Z</time>
      </trkpt>
      <trkpt lat="44.86574" lon="5.18888">
        <ele>774.48</ele>
        <time>2014-09-27T13:43:51Z</time>
      </trkpt>
      <trkpt lat="44.8658" lon="5.18893">
        <ele>774.96</ele>
        <time>2014-09-27T13:44:05Z</time>
      </trkpt>
      <trkpt lat="44.86585" lon="5.18901">
        <ele>775.92</ele>
        <time>2014-09-27T13:44:21Z</time>
      </trkpt>
      <trkpt lat="44.86595" lon="5.18897">
        <ele>776.4</ele>
        <time>2014-09-27T13:44:38Z</time>
      </trkpt>
      <trkpt lat="44.866" lon="5.1889">
        <ele>777.84</ele>
        <time>2014-09-27T13:44:58Z</time>
      </trkpt>
      <trkpt lat="44.86606" lon="5.18884">
        <ele>777.84</ele>
        <time>2014-09-27T13:45:11Z</time>
      </trkpt>
      <trkpt lat="44.86611" lon="5.18887">
        <ele>777.36</ele>
        <time>2014-09-27T13:45:24Z</time>
      </trkpt>
      <trkpt lat="44.86617" lon="5.1889">
        <ele>778.32</ele>
        <time>2014-09-27T13:45:38Z</time>
      </trkpt>
      <trkpt lat="44.86625" lon="5.18889">
        <ele>778.32</ele>
        <time>2014-09-27T13:45:52Z</time>
      </trkpt>
      <trkpt lat="44.86627" lon="5.1889">
        <ele>778.81</ele>
        <time>2014-09-27T13:45:55Z</time>
      </trkpt>
      <trkpt lat="44.86634" lon="5.18894">
        <ele>779.29</ele>
        <time>2014-09-27T13:46:04Z</time>
      </trkpt>
      <trkpt lat="44.8664" lon="5.18902">
        <ele>778.81</ele>
        <time>2014-09-27T13:46:17Z</time>
      </trkpt>
      <trkpt lat="44.86646" lon="5.18903">
        <ele>780.25</ele>
        <time>2014-09-27T13:46:30Z</time>
      </trkpt>
      <trkpt lat="44.86657" lon="5.1891">
        <ele>781.69</ele>
        <time>2014-09-27T13:46:43Z</time>
      </trkpt>
      <trkpt lat="44.86664" lon="5.18918">
        <ele>782.17</ele>
        <time>2014-09-27T13:46:56Z</time>
      </trkpt>
      <trkpt lat="44.86667" lon="5.18926">
        <ele>781.69</ele>
        <time>2014-09-27T13:47:14Z</time>
      </trkpt>
      <trkpt lat="44.86672" lon="5.18934">
        <ele>781.69</ele>
        <time>2014-09-27T13:47:32Z</time>
      </trkpt>
      <trkpt lat="44.86677" lon="5.1894">
        <ele>781.69</ele>
        <time>2014-09-27T13:47:47Z</time>
      </trkpt>
      <trkpt lat="44.8668" lon="5.18947">
        <ele>781.69</ele>
        <time>2014-09-27T13:48:05Z</time>
      </trkpt>
      <trkpt lat="44.86686" lon="5.18956">
        <ele>782.65</ele>
        <time>2014-09-27T13:48:19Z</time>
      </trkpt>
      <trkpt lat="44.86692" lon="5.18962">
        <ele>783.13</ele>
        <time>2014-09-27T13:48:34Z</time>
      </trkpt>
      <trkpt lat="44.86693" lon="5.18968">
        <ele>783.13</ele>
        <time>2014-09-27T13:48:59Z</time>
      </trkpt>
      <trkpt lat="44.86691" lon="5.18973">
        <ele>784.09</ele>
        <time>2014-09-27T13:49:17Z</time>
      </trkpt>
      <trkpt lat="44.86693" lon="5.18981">
        <ele>786.02</ele>
        <time>2014-09-27T13:49:32Z</time>
      </trkpt>
      <trkpt lat="44.86689" lon="5.18987">
        <ele>787.94</ele>
        <time>2014-09-27T13:49:48Z</time>
      </trkpt>
      <trkpt lat="44.86681" lon="5.18988">
        <ele>789.86</ele>
        <time>2014-09-27T13:50:00Z</time>
      </trkpt>
      <trkpt lat="44.86672" lon="5.18985">
        <ele>792.74</ele>
        <time>2014-09-27T13:50:18Z</time>
      </trkpt>
      <trkpt lat="44.86662" lon="5.18972">
        <ele>795.15</ele>
        <time>2014-09-27T13:50:35Z</time>
      </trkpt>
      <trkpt lat="44.86656" lon="5.18968">
        <ele>797.07</ele>
        <time>2014-09-27T13:50:45Z</time>
      </trkpt>
      <trkpt lat="44.86649" lon="5.18965">
        <ele>798.03</ele>
        <time>2014-09-27T13:50:56Z</time>
      </trkpt>
      <trkpt lat="44.8664" lon="5.18955">
        <ele>799.47</ele>
        <time>2014-09-27T13:51:09Z</time>
      </trkpt>
      <trkpt lat="44.86633" lon="5.18952">
        <ele>800.92</ele>
        <time>2014-09-27T13:51:20Z</time>
      </trkpt>
      <trkpt lat="44.8663" lon="5.18949">
        <ele>800.92</ele>
        <time>2014-09-27T13:51:23Z</time>
      </trkpt>
      <trkpt lat="44.8662" lon="5.1894">
        <ele>802.36</ele>
        <time>2014-09-27T13:51:40Z</time>
      </trkpt>
      <trkpt lat="44.86613" lon="5.18938">
        <ele>803.32</ele>
        <time>2014-09-27T13:51:48Z</time>
      </trkpt>
      <trkpt lat="44.86604" lon="5.18941">
        <ele>804.76</ele>
        <time>2014-09-27T13:52:01Z</time>
      </trkpt>
      <trkpt lat="44.86593" lon="5.18947">
        <ele>805.72</ele>
        <time>2014-09-27T13:52:15Z</time>
      </trkpt>
      <trkpt lat="44.86578" lon="5.18953">
        <ele>806.2</ele>
        <time>2014-09-27T13:52:33Z</time>
      </trkpt>
      <trkpt lat="44.86571" lon="5.18956">
        <ele>805.72</ele>
        <time>2014-09-27T13:52:47Z</time>
      </trkpt>
      <trkpt lat="44.86554" lon="5.18961">
        <ele>806.68</ele>
        <time>2014-09-27T13:53:04Z</time>
      </trkpt>
      <trkpt lat="44.86544" lon="5.18964">
        <ele>808.61</ele>
        <time>2014-09-27T13:53:17Z</time>
      </trkpt>
      <trkpt lat="44.86541" lon="5.18977">
        <ele>810.53</ele>
        <time>2014-09-27T13:53:29Z</time>
      </trkpt>
      <trkpt lat="44.86536" lon="5.1899">
        <ele>811.97</ele>
        <time>2014-09-27T13:53:41Z</time>
      </trkpt>
      <trkpt lat="44.86533" lon="5.19008">
        <ele>814.37</ele>
        <time>2014-09-27T13:53:56Z</time>
      </trkpt>
      <trkpt lat="44.86535" lon="5.19024">
        <ele>816.78</ele>
        <time>2014-09-27T13:54:09Z</time>
      </trkpt>
      <trkpt lat="44.86532" lon="5.1903">
        <ele>817.26</ele>
        <time>2014-09-27T13:54:21Z</time>
      </trkpt>
      <trkpt lat="44.86531" lon="5.19031">
        <ele>816.78</ele>
        <time>2014-09-27T13:54:48Z</time>
      </trkpt>
      <trkpt lat="44.8653" lon="5.19033">
        <ele>818.7</ele>
        <time>2014-09-27T13:55:02Z</time>
      </trkpt>
      <trkpt lat="44.86532" lon="5.1903">
        <ele>817.26</ele>
        <time>2014-09-27T13:55:09Z</time>
      </trkpt>
      <trkpt lat="44.86533" lon="5.19028">
        <ele>817.26</ele>
        <time>2014-09-27T13:55:37Z</time>
      </trkpt>
      <trkpt lat="44.86535" lon="5.1903">
        <ele>818.22</ele>
        <time>2014-09-27T13:55:57Z</time>
      </trkpt>
      <trkpt lat="44.86534" lon="5.19029">
        <ele>816.3</ele>
        <time>2014-09-27T13:56:09Z</time>
      </trkpt>
      <trkpt lat="44.86534" lon="5.1903">
        <ele>817.74</ele>
        <time>2014-09-27T13:56:18Z</time>
      </trkpt>
      <trkpt lat="44.86532" lon="5.19035">
        <ele>817.74</ele>
        <time>2014-09-27T13:56:41Z</time>
      </trkpt>
      <trkpt lat="44.86533" lon="5.19034">
        <ele>818.22</ele>
        <time>2014-09-27T13:57:00Z</time>
      </trkpt>
      <trkpt lat="44.8654" lon="5.19029">
        <ele>818.22</ele>
        <time>2014-09-27T13:57:26Z</time>
      </trkpt>
      <trkpt lat="44.8654" lon="5.19026">
        <ele>818.22</ele>
        <time>2014-09-27T13:57:56Z</time>
      </trkpt>
      <trkpt lat="44.86534" lon="5.19028">
        <ele>817.74</ele>
        <time>2014-09-27T13:58:27Z</time>
      </trkpt>
      <trkpt lat="44.8653" lon="5.19037">
        <ele>818.7</ele>
        <time>2014-09-27T13:58:44Z</time>
      </trkpt>
      <trkpt lat="44.86524" lon="5.19047">
        <ele>819.66</ele>
        <time>2014-09-27T13:58:55Z</time>
      </trkpt>
      <trkpt lat="44.86516" lon="5.19054">
        <ele>820.62</ele>
        <time>2014-09-27T13:59:07Z</time>
      </trkpt>
      <trkpt lat="44.86502" lon="5.19054">
        <ele>820.62</ele>
        <time>2014-09-27T13:59:22Z</time>
      </trkpt>
      <trkpt lat="44.86493" lon="5.19053">
        <ele>822.06</ele>
        <time>2014-09-27T13:59:33Z</time>
      </trkpt>
      <trkpt lat="44.86486" lon="5.19056">
        <ele>823.03</ele>
        <time>2014-09-27T13:59:41Z</time>
      </trkpt>
      <trkpt lat="44.86468" lon="5.19062">
        <ele>823.99</ele>
        <time>2014-09-27T13:59:57Z</time>
      </trkpt>
      <trkpt lat="44.86454" lon="5.1907">
        <ele>825.43</ele>
        <time>2014-09-27T14:00:11Z</time>
      </trkpt>
      <trkpt lat="44.86444" lon="5.19075">
        <ele>827.35</ele>
        <time>2014-09-27T14:00:23Z</time>
      </trkpt>
      <trkpt lat="44.8644" lon="5.19079">
        <ele>827.35</ele>
        <time>2014-09-27T14:00:40Z</time>
      </trkpt>
      <trkpt lat="44.86444" lon="5.19081">
        <ele>826.87</ele>
        <time>2014-09-27T14:00:46Z</time>
      </trkpt>
      <trkpt lat="44.86447" lon="5.19082">
        <ele>826.87</ele>
        <time>2014-09-27T14:01:01Z</time>
      </trkpt>
      <trkpt lat="44.86456" lon="5.19083">
        <ele>827.35</ele>
        <time>2014-09-27T14:01:32Z</time>
      </trkpt>
      <trkpt lat="44.86469" lon="5.19088">
        <ele>827.35</ele>
        <time>2014-09-27T14:01:47Z</time>
      </trkpt>
      <trkpt lat="44.86482" lon="5.19092">
        <ele>827.35</ele>
        <time>2014-09-27T14:01:59Z</time>
      </trkpt>
      <trkpt lat="44.86497" lon="5.191">
        <ele>827.83</ele>
        <time>2014-09-27T14:02:12Z</time>
      </trkpt>
      <trkpt lat="44.86511" lon="5.19106">
        <ele>828.31</ele>
        <time>2014-09-27T14:02:26Z</time>
      </trkpt>
      <trkpt lat="44.86529" lon="5.19112">
        <ele>830.72</ele>
        <time>2014-09-27T14:02:42Z</time>
      </trkpt>
      <trkpt lat="44.86547" lon="5.19118">
        <ele>832.16</ele>
        <time>2014-09-27T14:02:59Z</time>
      </trkpt>
      <trkpt lat="44.86562" lon="5.19121">
        <ele>833.6</ele>
        <time>2014-09-27T14:03:13Z</time>
      </trkpt>
      <trkpt lat="44.86579" lon="5.19127">
        <ele>835.04</ele>
        <time>2014-09-27T14:03:29Z</time>
      </trkpt>
      <trkpt lat="44.86596" lon="5.19138">
        <ele>836.48</ele>
        <time>2014-09-27T14:03:45Z</time>
      </trkpt>
      <trkpt lat="44.8661" lon="5.19147">
        <ele>837.45</ele>
        <time>2014-09-27T14:03:58Z</time>
      </trkpt>
      <trkpt lat="44.86626" lon="5.19155">
        <ele>838.41</ele>
        <time>2014-09-27T14:04:12Z</time>
      </trkpt>
      <trkpt lat="44.86646" lon="5.19165">
        <ele>839.85</ele>
        <time>2014-09-27T14:04:28Z</time>
      </trkpt>
      <trkpt lat="44.86661" lon="5.19174">
        <ele>839.85</ele>
        <time>2014-09-27T14:04:43Z</time>
      </trkpt>
      <trkpt lat="44.86669" lon="5.19177">
        <ele>839.85</ele>
        <time>2014-09-27T14:04:50Z</time>
      </trkpt>
      <trkpt lat="44.86689" lon="5.19176">
        <ele>841.29</ele>
        <time>2014-09-27T14:05:07Z</time>
      </trkpt>
      <trkpt lat="44.86704" lon="5.19175">
        <ele>841.29</ele>
        <time>2014-09-27T14:05:20Z</time>
      </trkpt>
      <trkpt lat="44.86709" lon="5.19175">
        <ele>841.29</ele>
        <time>2014-09-27T14:05:25Z</time>
      </trkpt>
      <trkpt lat="44.86713" lon="5.19173">
        <ele>841.29</ele>
        <time>2014-09-27T14:05:29Z</time>
      </trkpt>
      <trkpt lat="44.86714" lon="5.1917">
        <ele>840.81</ele>
        <time>2014-09-27T14:05:31Z</time>
      </trkpt>
      <trkpt lat="44.86721" lon="5.19144">
        <ele>841.29</ele>
        <time>2014-09-27T14:05:46Z</time>
      </trkpt>
      <trkpt lat="44.86728" lon="5.19135">
        <ele>842.25</ele>
        <time>2014-09-27T14:05:56Z</time>
      </trkpt>
      <trkpt lat="44.8674" lon="5.19127">
        <ele>843.21</ele>
        <time>2014-09-27T14:06:10Z</time>
      </trkpt>
      <trkpt lat="44.86753" lon="5.19119">
        <ele>844.66</ele>
        <time>2014-09-27T14:06:24Z</time>
      </trkpt>
      <trkpt lat="44.86767" lon="5.19115">
        <ele>844.18</ele>
        <time>2014-09-27T14:06:39Z</time>
      </trkpt>
      <trkpt lat="44.86778" lon="5.1911">
        <ele>844.18</ele>
        <time>2014-09-27T14:06:51Z</time>
      </trkpt>
      <trkpt lat="44.86795" lon="5.19104">
        <ele>845.14</ele>
        <time>2014-09-27T14:07:06Z</time>
      </trkpt>
      <trkpt lat="44.86815" lon="5.19102">
        <ele>845.62</ele>
        <time>2014-09-27T14:07:23Z</time>
      </trkpt>
      <trkpt lat="44.86829" lon="5.19099">
        <ele>846.1</ele>
        <time>2014-09-27T14:07:37Z</time>
      </trkpt>
      <trkpt lat="44.86836" lon="5.19098">
        <ele>846.1</ele>
        <time>2014-09-27T14:07:43Z</time>
      </trkpt>
      <trkpt lat="44.86853" lon="5.19097">
        <ele>846.1</ele>
        <time>2014-09-27T14:07:56Z</time>
      </trkpt>
      <trkpt lat="44.86872" lon="5.19097">
        <ele>846.1</ele>
        <time>2014-09-27T14:08:12Z</time>
      </trkpt>
      <trkpt lat="44.86888" lon="5.19098">
        <ele>845.62</ele>
        <time>2014-09-27T14:08:26Z</time>
      </trkpt>
      <trkpt lat="44.86909" lon="5.19096">
        <ele>845.62</ele>
        <time>2014-09-27T14:08:44Z</time>
      </trkpt>
      <trkpt lat="44.86932" lon="5.191">
        <ele>845.14</ele>
        <time>2014-09-27T14:09:00Z</time>
      </trkpt>
      <trkpt lat="44.86952" lon="5.19106">
        <ele>844.18</ele>
        <time>2014-09-27T14:09:14Z</time>
      </trkpt>
      <trkpt lat="44.86973" lon="5.19118">
        <ele>843.21</ele>
        <time>2014-09-27T14:09:31Z</time>
      </trkpt>
      <trkpt lat="44.86991" lon="5.19124">
        <ele>842.25</ele>
        <time>2014-09-27T14:09:45Z</time>
      </trkpt>
      <trkpt lat="44.87008" lon="5.19125">
        <ele>841.29</ele>
        <time>2014-09-27T14:10:00Z</time>
      </trkpt>
      <trkpt lat="44.8702" lon="5.19124">
        <ele>841.29</ele>
        <time>2014-09-27T14:10:10Z</time>
      </trkpt>
      <trkpt lat="44.87033" lon="5.19126">
        <ele>840.81</ele>
        <time>2014-09-27T14:10:25Z</time>
      </trkpt>
      <trkpt lat="44.87047" lon="5.19126">
        <ele>840.81</ele>
        <time>2014-09-27T14:10:42Z</time>
      </trkpt>
      <trkpt lat="44.87062" lon="5.1913">
        <ele>841.77</ele>
        <time>2014-09-27T14:10:57Z</time>
      </trkpt>
      <trkpt lat="44.87085" lon="5.19132">
        <ele>841.77</ele>
        <time>2014-09-27T14:11:14Z</time>
      </trkpt>
      <trkpt lat="44.87112" lon="5.19131">
        <ele>840.81</ele>
        <time>2014-09-27T14:11:32Z</time>
      </trkpt>
      <trkpt lat="44.87128" lon="5.19126">
        <ele>840.33</ele>
        <time>2014-09-27T14:11:44Z</time>
      </trkpt>
      <trkpt lat="44.87137" lon="5.19123">
        <ele>839.85</ele>
        <time>2014-09-27T14:11:52Z</time>
      </trkpt>
      <trkpt lat="44.87156" lon="5.1912">
        <ele>838.89</ele>
        <time>2014-09-27T14:12:06Z</time>
      </trkpt>
      <trkpt lat="44.87172" lon="5.1912">
        <ele>837.93</ele>
        <time>2014-09-27T14:12:19Z</time>
      </trkpt>
      <trkpt lat="44.87191" lon="5.19115">
        <ele>836.96</ele>
        <time>2014-09-27T14:12:32Z</time>
      </trkpt>
      <trkpt lat="44.87209" lon="5.19117">
        <ele>836.96</ele>
        <time>2014-09-27T14:12:47Z</time>
      </trkpt>
      <trkpt lat="44.87225" lon="5.19118">
        <ele>836.96</ele>
        <time>2014-09-27T14:13:01Z</time>
      </trkpt>
      <trkpt lat="44.87227" lon="5.19117">
        <ele>836.96</ele>
        <time>2014-09-27T14:13:03Z</time>
      </trkpt>
      <trkpt lat="44.87249" lon="5.19112">
        <ele>835.52</ele>
        <time>2014-09-27T14:13:18Z</time>
      </trkpt>
      <trkpt lat="44.87266" lon="5.19105">
        <ele>835.04</ele>
        <time>2014-09-27T14:13:32Z</time>
      </trkpt>
      <trkpt lat="44.87285" lon="5.19092">
        <ele>833.6</ele>
        <time>2014-09-27T14:13:45Z</time>
      </trkpt>
      <trkpt lat="44.87286" lon="5.19091">
        <ele>833.6</ele>
        <time>2014-09-27T14:13:46Z</time>
      </trkpt>
      <trkpt lat="44.87303" lon="5.19077">
        <ele>832.16</ele>
        <time>2014-09-27T14:14:01Z</time>
      </trkpt>
      <trkpt lat="44.87307" lon="5.19075">
        <ele>832.16</ele>
        <time>2014-09-27T14:14:05Z</time>
      </trkpt>
      <trkpt lat="44.87326" lon="5.19064">
        <ele>830.72</ele>
        <time>2014-09-27T14:14:21Z</time>
      </trkpt>
      <trkpt lat="44.87334" lon="5.19061">
        <ele>830.72</ele>
        <time>2014-09-27T14:14:27Z</time>
      </trkpt>
      <trkpt lat="44.87353" lon="5.19051">
        <ele>829.76</ele>
        <time>2014-09-27T14:14:44Z</time>
      </trkpt>
      <trkpt lat="44.87372" lon="5.19039">
        <ele>828.79</ele>
        <time>2014-09-27T14:15:02Z</time>
      </trkpt>
      <trkpt lat="44.8738" lon="5.19034">
        <ele>828.79</ele>
        <time>2014-09-27T14:15:09Z</time>
      </trkpt>
      <trkpt lat="44.874" lon="5.19024">
        <ele>827.83</ele>
        <time>2014-09-27T14:15:27Z</time>
      </trkpt>
      <trkpt lat="44.87418" lon="5.1901">
        <ele>827.35</ele>
        <time>2014-09-27T14:15:44Z</time>
      </trkpt>
      <trkpt lat="44.87437" lon="5.18996">
        <ele>826.39</ele>
        <time>2014-09-27T14:16:00Z</time>
      </trkpt>
      <trkpt lat="44.87456" lon="5.18979">
        <ele>825.43</ele>
        <time>2014-09-27T14:16:17Z</time>
      </trkpt>
      <trkpt lat="44.87474" lon="5.18962">
        <ele>824.95</ele>
        <time>2014-09-27T14:16:33Z</time>
      </trkpt>
      <trkpt lat="44.87487" lon="5.18939">
        <ele>824.47</ele>
        <time>2014-09-27T14:16:49Z</time>
      </trkpt>
      <trkpt lat="44.87475" lon="5.18919">
        <ele>824.95</ele>
        <time>2014-09-27T14:17:04Z</time>
      </trkpt>
      <trkpt lat="44.8747" lon="5.1892">
        <ele>824.95</ele>
        <time>2014-09-27T14:17:07Z</time>
      </trkpt>
      <trkpt lat="44.87458" lon="5.18922">
        <ele>825.91</ele>
        <time>2014-09-27T14:17:18Z</time>
      </trkpt>
      <trkpt lat="44.87446" lon="5.18916">
        <ele>826.39</ele>
        <time>2014-09-27T14:17:27Z</time>
      </trkpt>
      <trkpt lat="44.87441" lon="5.18914">
        <ele>826.87</ele>
        <time>2014-09-27T14:17:31Z</time>
      </trkpt>
      <trkpt lat="44.87423" lon="5.18906">
        <ele>827.83</ele>
        <time>2014-09-27T14:17:46Z</time>
      </trkpt>
      <trkpt lat="44.87408" lon="5.18899">
        <ele>829.27</ele>
        <time>2014-09-27T14:18:01Z</time>
      </trkpt>
      <trkpt lat="44.87389" lon="5.18893">
        <ele>830.24</ele>
        <time>2014-09-27T14:18:16Z</time>
      </trkpt>
      <trkpt lat="44.87371" lon="5.18884">
        <ele>831.68</ele>
        <time>2014-09-27T14:18:30Z</time>
      </trkpt>
      <trkpt lat="44.87355" lon="5.18875">
        <ele>832.64</ele>
        <time>2014-09-27T14:18:44Z</time>
      </trkpt>
      <trkpt lat="44.8734" lon="5.18874">
        <ele>834.08</ele>
        <time>2014-09-27T14:18:57Z</time>
      </trkpt>
      <trkpt lat="44.87321" lon="5.18873">
        <ele>835.04</ele>
        <time>2014-09-27T14:19:12Z</time>
      </trkpt>
      <trkpt lat="44.873" lon="5.18863">
        <ele>836.48</ele>
        <time>2014-09-27T14:19:28Z</time>
      </trkpt>
      <trkpt lat="44.87279" lon="5.18849">
        <ele>837.45</ele>
        <time>2014-09-27T14:19:45Z</time>
      </trkpt>
      <trkpt lat="44.87274" lon="5.18843">
        <ele>838.41</ele>
        <time>2014-09-27T14:19:58Z</time>
      </trkpt>
      <trkpt lat="44.87281" lon="5.18841">
        <ele>838.41</ele>
        <time>2014-09-27T14:20:06Z</time>
      </trkpt>
      <trkpt lat="44.87286" lon="5.18841">
        <ele>839.37</ele>
        <time>2014-09-27T14:20:21Z</time>
      </trkpt>
      <trkpt lat="44.87301" lon="5.18834">
        <ele>840.33</ele>
        <time>2014-09-27T14:20:34Z</time>
      </trkpt>
      <trkpt lat="44.87315" lon="5.18828">
        <ele>839.85</ele>
        <time>2014-09-27T14:20:49Z</time>
      </trkpt>
      <trkpt lat="44.87322" lon="5.18826">
        <ele>841.29</ele>
        <time>2014-09-27T14:20:56Z</time>
      </trkpt>
      <trkpt lat="44.87326" lon="5.18823">
        <ele>838.89</ele>
        <time>2014-09-27T14:21:02Z</time>
      </trkpt>
      <trkpt lat="44.87339" lon="5.18819">
        <ele>838.89</ele>
        <time>2014-09-27T14:21:16Z</time>
      </trkpt>
      <trkpt lat="44.8734" lon="5.18819">
        <ele>843.21</ele>
        <time>2014-09-27T14:21:17Z</time>
      </trkpt>
      <trkpt lat="44.87341" lon="5.18819">
        <ele>842.73</ele>
        <time>2014-09-27T14:21:18Z</time>
      </trkpt>
      <trkpt lat="44.87357" lon="5.18816">
        <ele>844.18</ele>
        <time>2014-09-27T14:21:33Z</time>
      </trkpt>
      <trkpt lat="44.87362" lon="5.18808">
        <ele>844.66</ele>
        <time>2014-09-27T14:21:46Z</time>
      </trkpt>
      <trkpt lat="44.87365" lon="5.18806">
        <ele>844.66</ele>
        <time>2014-09-27T14:22:01Z</time>
      </trkpt>
      <trkpt lat="44.87371" lon="5.18806">
        <ele>844.66</ele>
        <time>2014-09-27T14:22:23Z</time>
      </trkpt>
    </trkseg>
  </trk>
</gpx>